Provisional Data: Marsh Creek near Blanchard, PA


Please select a monitoring station.
Please select start date.
Please select start date.

Toggle Unit: C/F Toggle Unit: C/F
Sample Time Temperature (C) Temperature (F) Specific Conductivity (mS/cm) pH   Turbidity (NTU+) DO (mg/L)
9/6/2021 12:00:00 AM 16.83 62.294 0.085 7.12 8.95 9.39
9/6/2021 12:15:00 AM 16.81 62.258 0.085 7.11 8.19 9.38
9/6/2021 12:30:00 AM 16.79 62.222 0.085 7.11 7.56 9.4
9/6/2021 12:45:00 AM 16.76 62.168 0.085 7.11 8.06 9.41
9/6/2021 1:00:00 AM 16.74 62.132 0.086 7.11 8.04 9.41
9/6/2021 1:15:00 AM 16.71 62.078 0.086 7.11 8.06 9.4
9/6/2021 1:30:00 AM 16.68 62.024 0.086 7.11 8.2 9.43
9/6/2021 1:45:00 AM 16.66 61.988 0.086 7.1 8.21 9.44
9/6/2021 2:00:00 AM 16.63 61.934 0.086 7.11 8.19 9.45
9/6/2021 2:15:00 AM 16.6 61.88 0.086 7.12 8.26 9.47
9/6/2021 2:30:00 AM 16.58 61.844 0.086 7.13 8.98 9.49
9/6/2021 2:45:00 AM 16.56 61.808 0.086 7.13 9.28 9.5
9/6/2021 3:00:00 AM 16.54 61.772 0.086 7.13 9.91 9.5
9/6/2021 3:15:00 AM 16.5 61.7 0.086 7.13 9.56 9.51
9/6/2021 3:30:00 AM 16.47 61.646 0.086 7.13 8.76 9.51
9/6/2021 3:45:00 AM 16.44 61.592 0.086 7.13 8.23 9.51
9/6/2021 4:00:00 AM 16.4 61.52 0.086 7.12 9.21 9.52
9/6/2021 4:15:00 AM 16.37 61.466 0.087 7.12 9.31 9.52
9/6/2021 4:30:00 AM 16.34 61.412 0.087 7.12 7.95 9.52
9/6/2021 4:45:00 AM 16.31 61.358 0.087 7.11 8.65 9.53
9/6/2021 5:00:00 AM 16.28 61.304 0.088 7.11 7.99 9.52
9/6/2021 5:15:00 AM 16.24 61.232 0.088 7.11 7.94 9.55
9/6/2021 5:30:00 AM 16.2 61.16 0.088 7.11 8.41 9.55
9/6/2021 5:45:00 AM 16.17 61.106 0.089 7.11 7.93 9.55
9/6/2021 6:00:00 AM 16.13 61.034 0.09 7.11 7.51 9.56
9/6/2021 6:15:00 AM 16.1 60.98 0.091 7.11 7.55 9.58
9/6/2021 6:30:00 AM 16.06 60.908 0.092 7.11 7.58 9.58
9/6/2021 6:45:00 AM 16.03 60.854 0.093 7.1 13.54 9.55
9/6/2021 7:00:00 AM 16.02 60.836 0.094 7.12 7.93 9.58
9/6/2021 7:15:00 AM 16 60.8 0.096 7.13 7.06 9.58
9/6/2021 7:30:00 AM 15.98 60.764 0.098 7.13 6.84 9.6
9/6/2021 7:45:00 AM 15.98 60.764 0.099 7.14 6.4 9.65
9/6/2021 8:00:00 AM 15.97 60.746 0.1 7.15 7.69 9.66
9/6/2021 8:15:00 AM 15.96 60.728 0.101 7.17 6.84 9.72
9/6/2021 8:30:00 AM 15.95 60.71 0.101 7.17 6.41 9.74
9/6/2021 8:45:00 AM 15.95 60.71 0.101 7.19 6.45 9.79
9/6/2021 9:00:00 AM 15.96 60.728 0.101 7.2 5.89 9.83
9/6/2021 9:15:00 AM 15.98 60.764 0.101 7.2 6.04 9.82
9/6/2021 9:30:00 AM 15.98 60.764 0.1 7.22 5.58 9.89
9/6/2021 9:45:00 AM 16 60.8 0.1 7.23 5.9 9.94
9/6/2021 10:00:00 AM 16.07 60.926 0.099 7.23 5.63 9.99
9/6/2021 10:15:00 AM 16.13 61.034 0.099 7.26 6.96 10.07
9/6/2021 10:30:00 AM 16.21 61.178 0.098 7.27 5.57 10.08
9/6/2021 10:45:00 AM 16.31 61.358 0.097 7.29 5.37 10.18
9/6/2021 11:00:00 AM 16.42 61.556 0.097 7.31 15.69 10.23
9/6/2021 11:15:00 AM 16.53 61.754 0.096 7.33 10.09 10.22
9/6/2021 11:30:00 AM 16.64 61.952 0.096 7.34 12.05 10.24
9/6/2021 11:45:00 AM 16.77 62.186 0.095 7.37 9.15 10.28
9/6/2021 12:00:00 PM 16.94 62.492 0.095 7.39 5.98 10.31
9/6/2021 12:15:00 PM 17.09 62.762 0.094 7.4 5.58 10.29
9/6/2021 12:30:00 PM 17.26 63.068 0.094 7.42 19.88 10.29
9/6/2021 12:45:00 PM 17.4 63.32 0.094 7.43 7.66 10.28
9/6/2021 1:00:00 PM 17.47 63.446 0.094 7.45 10.05 10.25
9/6/2021 1:15:00 PM 17.47 63.446 0.094 7.45 6.51 10.21
9/6/2021 1:30:00 PM 17.53 63.554 0.094 7.45 7.2 10.2
9/6/2021 1:45:00 PM 17.59 63.662 0.094 7.45 8.97 10.17
9/6/2021 2:00:00 PM 17.66 63.788 0.094 7.46 8.86 10.17
9/6/2021 2:15:00 PM 17.76 63.968 0.094 7.47 9.28 10.17
9/6/2021 2:30:00 PM 17.79 64.022 0.094 7.48 12.48 10.18
9/6/2021 2:45:00 PM 17.84 64.112 0.094 7.48 8.16 10.15
9/6/2021 3:00:00 PM 17.88 64.184 0.093 7.48 9.27 10.16
9/6/2021 3:15:00 PM 17.92 64.256 0.093 7.49 8.55 10.17
9/6/2021 3:30:00 PM 17.99 64.382 0.093 7.49 9.4 10.12
9/6/2021 3:45:00 PM 18.07 64.526 0.093 7.49 6.75 10.13
9/6/2021 4:00:00 PM 18.18 64.724 0.093 7.49 6.54 10.11
9/6/2021 4:15:00 PM 18.15 64.67 0.093 7.49 6.8 10.02
9/6/2021 4:30:00 PM 18.18 64.724 0.093 7.48 6.38 9.98
9/6/2021 4:45:00 PM 18.21 64.778 0.094 7.48 6.79 9.97
9/6/2021 5:00:00 PM 18.23 64.814 0.094 7.47 8.44 9.91
9/6/2021 5:15:00 PM 18.25 64.85 0.094 7.46 7.83 9.86
9/6/2021 5:30:00 PM 18.23 64.814 0.094 7.45 7.7 9.83
9/6/2021 5:45:00 PM 18.21 64.778 0.094 7.43 6.19 9.77
9/6/2021 6:00:00 PM 18.17 64.706 0.094 7.41 7.89 9.72
9/6/2021 6:15:00 PM 18.14 64.652 0.094 7.4 6.83 9.65
9/6/2021 6:30:00 PM 18.13 64.634 0.094 7.39 6.38 9.61
9/6/2021 6:45:00 PM 18.12 64.616 0.094 7.38 6.91 9.57
9/6/2021 7:00:00 PM 18.11 64.598 0.094 7.35 6.44 9.51
9/6/2021 7:15:00 PM 18.08 64.544 0.094 7.32 6.62 9.44
9/6/2021 7:30:00 PM 18.03 64.454 0.094 7.31 6.48 9.37
9/6/2021 7:45:00 PM 17.97 64.346 0.094 7.29 16.23 9.3
9/6/2021 8:00:00 PM 17.9 64.22 0.094 7.28 58.83 9.3
9/6/2021 8:15:00 PM 17.82 64.076 0.094 7.26 6.31 9.29
9/6/2021 8:30:00 PM 17.75 63.95 0.094 7.25 6.39 9.26
9/6/2021 8:45:00 PM 17.69 63.842 0.094 7.24 6.32 9.23
9/6/2021 9:00:00 PM 17.63 63.734 0.094 7.22 6.48 9.19
9/6/2021 9:15:00 PM 17.56 63.608 0.094 7.2 6.49 9.23
9/6/2021 9:30:00 PM 17.51 63.518 0.094 7.2 6.51 9.21
9/6/2021 9:45:00 PM 17.45 63.41 0.095 7.18 6.02 9.21
9/6/2021 10:00:00 PM 17.39 63.302 0.095 7.18 6.71 9.23
9/6/2021 10:15:00 PM 17.33 63.194 0.095 7.17 6.5 9.22
9/6/2021 10:30:00 PM 17.27 63.086 0.095 7.16 5.92 9.24
9/6/2021 10:45:00 PM 17.21 62.978 0.095 7.16 6.03 9.22
9/6/2021 11:00:00 PM 17.15 62.87 0.095 7.15 6.81 9.24
9/6/2021 11:15:00 PM 17.08 62.744 0.095 7.14 5.94 9.26
9/6/2021 11:30:00 PM 17.02 62.636 0.096 7.14 6.53 9.27
9/6/2021 11:45:00 PM 16.96 62.528 0.096 7.13 6.25 9.29
9/7/2021 12:00:00 AM 16.9 62.42 0.096 7.13 5.74 9.31
9/7/2021 12:15:00 AM 16.84 62.312 0.096 7.13 5.64 9.34
9/7/2021 12:30:00 AM 16.77 62.186 0.096 7.12 6.19 9.34
9/7/2021 12:45:00 AM 16.7 62.06 0.096 7.12 6.06 9.35
9/7/2021 1:00:00 AM 16.63 61.934 0.096 7.11 5.6 9.37
9/7/2021 1:15:00 AM 16.56 61.808 0.096 7.11 6.76 9.39
9/7/2021 1:30:00 AM 16.49 61.682 0.096 7.11 6.02 9.4
9/7/2021 1:45:00 AM 16.41 61.538 0.096 7.1 5.84 9.44
9/7/2021 2:00:00 AM 16.34 61.412 0.096 7.1 5.77 9.45
9/7/2021 2:15:00 AM 16.27 61.286 0.096 7.09 5.79 9.48
9/7/2021 2:30:00 AM 16.19 61.142 0.096 7.09 5.58 9.5
9/7/2021 2:45:00 AM 16.11 60.998 0.097 7.09 6.36 9.5
9/7/2021 3:00:00 AM 16.04 60.872 0.097 7.09 5.16 9.53
9/7/2021 3:15:00 AM 15.97 60.746 0.097 7.08 6.03 9.55
9/7/2021 3:30:00 AM 15.89 60.602 0.097 7.08 5.62 9.58
9/7/2021 3:45:00 AM 15.81 60.458 0.097 7.08 5.68 9.57
9/7/2021 4:00:00 AM 15.73 60.314 0.097 7.08 5.15 9.61
9/7/2021 4:15:00 AM 15.64 60.152 0.097 7.07 5.64 9.61
9/7/2021 4:30:00 AM 15.57 60.026 0.097 7.08 5.36 9.63
9/7/2021 4:45:00 AM 15.5 59.9 0.097 7.08 5.74 9.67
9/7/2021 5:00:00 AM 15.43 59.774 0.097 7.07 6.19 9.68
9/7/2021 5:15:00 AM 15.36 59.648 0.097 7.07 5.81 9.7
9/7/2021 5:30:00 AM 15.3 59.54 0.097 7.07 5.24 9.72
9/7/2021 5:45:00 AM 15.23 59.414 0.097 7.07 5.37 9.73
9/7/2021 6:00:00 AM 15.17 59.306 0.097 7.07 5.68 9.76
9/7/2021 6:15:00 AM 15.1 59.18 0.097 7.08 5.74 9.77
9/7/2021 6:30:00 AM 15.04 59.072 0.098 7.07 10.64 9.76
9/7/2021 6:45:00 AM 14.97 58.946 0.098 7.07 5.7 9.8
9/7/2021 7:00:00 AM 14.91 58.838 0.098 7.07 5.95 9.82
9/7/2021 7:15:00 AM 14.84 58.712 0.098 7.08 6.22 9.82
9/7/2021 7:30:00 AM 14.79 58.622 0.098 7.08 461.59 9.88
9/7/2021 7:45:00 AM 14.72 58.496 0.098 7.08 17.56 9.76
9/7/2021 8:00:00 AM 14.68 58.424 0.09 7.09 887.31 9.94
9/7/2021 8:15:00 AM 14.63 58.334 0.098 7.09 4.77 10.01
9/7/2021 8:30:00 AM 14.59 58.262 0.098 7.1 4.97 10.09
9/7/2021 8:45:00 AM 14.56 58.208 0.098 7.11 4.56 10.15
9/7/2021 9:00:00 AM 14.54 58.172 0.098 7.13 4.7 10.22
9/7/2021 9:15:00 AM 14.54 58.172 0.097 7.14 4.5 10.3
9/7/2021 9:30:00 AM 14.56 58.208 0.097 7.16 4.33 10.42
9/7/2021 9:45:00 AM 14.56 58.208 0.097 7.17 4.21 10.45
9/7/2021 10:00:00 AM 14.61 58.298 0.097 7.19 4.56 10.47
9/7/2021 10:15:00 AM 14.66 58.388 0.097 7.21 3.89 10.53
9/7/2021 10:30:00 AM 14.73 58.514 0.097 7.24 4.4 10.61
9/7/2021 10:45:00 AM 14.83 58.694 0.097 7.26 4 10.63
9/7/2021 11:00:00 AM 14.94 58.892 0.097 7.28 4.52 10.63
9/7/2021 11:15:00 AM 15.06 59.108 0.097 7.3 3.97 10.67
9/7/2021 11:30:00 AM 15.21 59.378 0.097 7.32 3.78 10.65
9/7/2021 11:45:00 AM 15.38 59.684 0.097 7.36 4.04 10.64
9/7/2021 12:00:00 PM 15.56 60.008 0.097 7.38 4.14 10.68
9/7/2021 12:15:00 PM 15.74 60.332 0.097 7.41 3.84 10.65
9/7/2021 12:30:00 PM 15.93 60.674 0.097 7.42 3.85 10.65
9/7/2021 12:45:00 PM 16.13 61.034 0.097 7.44 3.75 10.64
9/7/2021 1:00:00 PM 16.33 61.394 0.097 7.45 3.95 10.61
9/7/2021 1:15:00 PM 16.53 61.754 0.097 7.46 3.95 10.57
9/7/2021 1:30:00 PM 16.7 62.06 0.097 7.47 3.85 10.58
9/7/2021 1:45:00 PM 16.86 62.348 0.097 7.48 3.6 10.54
9/7/2021 2:00:00 PM 17.02 62.636 0.097 7.49 3.88 10.53
9/7/2021 2:15:00 PM 17.15 62.87 0.096 7.51 3.63 10.47
9/7/2021 2:30:00 PM 17.28 63.104 0.097 7.52 3.71 10.48
9/7/2021 2:45:00 PM 17.38 63.284 0.097 7.53 3.76 10.46
9/7/2021 3:00:00 PM 17.46 63.428 0.096 7.53 3.57 10.44
9/7/2021 3:15:00 PM 17.5 63.5 0.096 7.55 3.63 10.42
9/7/2021 3:30:00 PM 17.51 63.518 0.097 7.53 3.48 10.37
9/7/2021 3:45:00 PM 17.59 63.662 0.097 7.53 3.7 10.33
9/7/2021 4:00:00 PM 17.65 63.77 0.096 7.55 3.87 10.32
9/7/2021 4:15:00 PM 17.7 63.86 0.096 7.54 3.78 10.28
9/7/2021 4:30:00 PM 17.72 63.896 0.096 7.54 3.71 10.25
9/7/2021 4:45:00 PM 17.72 63.896 0.096 7.52 19.76 10.15
9/7/2021 5:00:00 PM 17.72 63.896 0.096 7.51 15.49 9.91
9/7/2021 5:15:00 PM 17.7 63.86 0.096 7.5 6.71 9.76
9/7/2021 5:30:00 PM 17.69 63.842 0.097 7.48 5.32 9.71
9/7/2021 5:45:00 PM 17.68 63.824 0.096 7.46 3.76 9.85
9/7/2021 6:00:00 PM 17.72 63.896 0.096 7.44 3.88 9.81
9/7/2021 6:15:00 PM 17.76 63.968 0.097 7.42 3.92 9.7
9/7/2021 6:30:00 PM 17.79 64.022 0.097 7.38 3.96 9.53
9/7/2021 6:45:00 PM 17.79 64.022 0.097 7.37 4 9.58
9/7/2021 7:00:00 PM 17.76 63.968 0.097 7.36 7.19 9.52
9/7/2021 7:15:00 PM 17.72 63.896 0.097 7.34 4.18 9.5
9/7/2021 7:30:00 PM 17.68 63.824 0.097 7.32 4.06 9.36
9/7/2021 7:45:00 PM 17.63 63.734 0.097 7.31 4.09 9.45
9/7/2021 8:00:00 PM 17.59 63.662 0.097 7.29 3.95 9.37
9/7/2021 8:15:00 PM 17.55 63.59 0.097 7.26 4.48 9.27
9/7/2021 8:30:00 PM 17.51 63.518 0.098 7.24 4.13 9.16
9/7/2021 8:45:00 PM 17.47 63.446 0.097 7.23 4.31 9.24
9/7/2021 9:00:00 PM 17.43 63.374 0.097 7.22 4.33 9.15
9/7/2021 9:15:00 PM 17.4 63.32 0.098 7.21 4.33 9.18
9/7/2021 9:30:00 PM 17.37 63.266 0.097 7.2 4.64 9.2
9/7/2021 9:45:00 PM 17.36 63.248 0.098 7.19 4.35 9.17
9/7/2021 10:00:00 PM 17.35 63.23 0.098 7.18 4.04 9.18
9/7/2021 10:15:00 PM 17.34 63.212 0.098 7.18 4.51 9.18
9/7/2021 10:30:00 PM 17.32 63.176 0.098 7.17 4.05 9.17
9/7/2021 10:45:00 PM 17.31 63.158 0.098 7.16 4.44 9.17
9/7/2021 11:00:00 PM 17.29 63.122 0.098 7.15 5.16 9.11
9/7/2021 11:15:00 PM 17.28 63.104 0.098 7.15 5.59 9.09
9/7/2021 11:30:00 PM 17.26 63.068 0.099 7.14 4.21 8.97
9/7/2021 11:45:00 PM 17.23 63.014 0.099 7.14 5.4 9.1
9/8/2021 12:00:00 AM 17.21 62.978 0.099 7.14 6.9 9.1
9/8/2021 12:15:00 AM 17.18 62.924 0.099 7.14 4.32 9.15
9/8/2021 12:30:00 AM 17.15 62.87 0.099 7.14 4.28 9.14
9/8/2021 12:45:00 AM 17.12 62.816 0.099 7.13 4.57 9.11
9/8/2021 1:00:00 AM 17.09 62.762 0.099 7.13 4.48 8.98
9/8/2021 1:15:00 AM 17.05 62.69 0.099 7.13 4.26 9.02
9/8/2021 1:30:00 AM 17.01 62.618 0.1 7.13 4.81 9.07
9/8/2021 1:45:00 AM 16.98 62.564 0.099 7.13 4.54 9.19
9/8/2021 2:00:00 AM 16.95 62.51 0.099 7.13 4.35 9.18
9/8/2021 2:15:00 AM 16.91 62.438 0.099 7.13 3.95 9.18
9/8/2021 2:30:00 AM 16.87 62.366 0.1 7.12 4.31 9.2
9/8/2021 2:45:00 AM 16.83 62.294 0.1 7.12 4.73 9.21
9/8/2021 3:00:00 AM 16.79 62.222 0.099 7.12 4.65 9.19
9/8/2021 3:15:00 AM 16.75 62.15 0.1 7.11 4.64 9.24
9/8/2021 3:30:00 AM 16.71 62.078 0.1 7.11 4.43 9.24
9/8/2021 3:45:00 AM 16.67 62.006 0.1 7.11 4.61 9.29
9/8/2021 4:00:00 AM 16.63 61.934 0.1 7.11 5.02 9.24
9/8/2021 4:15:00 AM 16.59 61.862 0.1 7.1 4.38 9.3
9/8/2021 4:30:00 AM 16.56 61.808 0.1 7.1 3.97 9.23
9/8/2021 4:45:00 AM 16.52 61.736 0.1 7.1 4.47 9.17
9/8/2021 5:00:00 AM 16.48 61.664 0.1 7.1 4.31 9.27
9/8/2021 5:15:00 AM 16.43 61.574 0.1 7.1 4.46 9.31
9/8/2021 5:30:00 AM 16.39 61.502 0.1 7.1 4.37 9.23
9/8/2021 5:45:00 AM 16.35 61.43 0.1 7.1 4.13 9.29
9/8/2021 6:00:00 AM 16.31 61.358 0.102 7.09 4.53 9.1
9/8/2021 6:15:00 AM 16.27 61.286 0.102 7.1 4.64 9.31
9/8/2021 6:30:00 AM 16.23 61.214 0.102 7.08 23.73 9.39
9/8/2021 6:45:00 AM 16.19 61.142 0.102 7.08 8.89 9.4
9/8/2021 7:00:00 AM 16.16 61.088 0.102 7.09 6.64 9.43
9/8/2021 7:15:00 AM 16.12 61.016 0.102 7.09 4.74 9.5
9/8/2021 7:30:00 AM 16.1 60.98 0.102 7.1 4.85 9.51
9/8/2021 7:45:00 AM 16.07 60.926 0.102 7.09 62.18 9.54
9/8/2021 8:00:00 AM 16.06 60.908 0.102 7.08 6.22 9.54
9/8/2021 8:15:00 AM 16.05 60.89 0.09 7.11 4.86 9.6
9/8/2021 8:30:00 AM 16.06 60.908 0.102 7.11 6.06 9.72
9/8/2021 8:45:00 AM 16.07 60.926 0.102 7.13 3.85 9.71
9/8/2021 9:00:00 AM 16.09 60.962 0.102 7.14 4.19 9.87
9/8/2021 9:15:00 AM 16.11 60.998 0.101 7.15 4.09 9.91
9/8/2021 9:30:00 AM 16.16 61.088 0.101 7.17 3.78 9.97
9/8/2021 9:45:00 AM 16.22 61.196 0.101 7.18 3.79 10.04
9/8/2021 10:00:00 AM 16.29 61.322 0.101 7.2 3.98 10.11
9/8/2021 10:15:00 AM 16.38 61.484 0.101 7.22 3.72 10.16
9/8/2021 10:30:00 AM 16.49 61.682 0.101 7.26 3.53 10
9/8/2021 10:45:00 AM 16.61 61.898 0.101 7.29 4.17 10.26
9/8/2021 11:00:00 AM 16.73 62.114 0.101 7.31 3.64 10.3
9/8/2021 11:15:00 AM 16.9 62.42 0.1 7.34 3.62 10.3
9/8/2021 11:30:00 AM 17.08 62.744 0.101 7.38 3.82 10.36
9/8/2021 11:45:00 AM 17.25 63.05 0.101 7.39 3.41 10.36
9/8/2021 12:00:00 PM 17.41 63.338 0.101 7.43 3.57 10.37
9/8/2021 12:15:00 PM 17.53 63.554 0.1 7.46 3.33 10.39
9/8/2021 12:30:00 PM 17.75 63.95 0.1 7.49 3.48 10.41
9/8/2021 12:45:00 PM 17.85 64.13 0.1 7.51 3.46 10.41
9/8/2021 1:00:00 PM 17.96 64.328 0.1 7.54 3.66 10.41
9/8/2021 1:15:00 PM 18.2 64.76 0.1 7.56 3.68 10.47
9/8/2021 1:30:00 PM 18.28 64.904 0.1 7.56 4.34 10.39
9/8/2021 1:45:00 PM 18.32 64.976 0.1 7.54 4.88 10.31
9/8/2021 2:00:00 PM 18.37 65.066 0.099 7.61 4.33 10.23
9/8/2021 2:15:00 PM 18.37 65.066 0.099 7.6 3.6 10.16
9/8/2021 2:30:00 PM 18.37 65.066 0.099 7.58 3.53 10.05
9/8/2021 2:45:00 PM 18.37 65.066 0.099 7.55 3.55 9.95
9/8/2021 3:00:00 PM 18.36 65.048 0.099 7.52 3.54 9.83
9/8/2021 3:15:00 PM 18.34 65.012 0.1 7.49 3.8 9.76
9/8/2021 3:30:00 PM 18.3 64.94 0.099 7.46 3.44 9.66
9/8/2021 3:45:00 PM 18.26 64.868 0.098 7.43 3.81 9.59
9/8/2021 4:00:00 PM 18.22 64.796 0.099 7.41 4.17 9.52
9/8/2021 4:15:00 PM 18.17 64.706 0.099 7.38 14.27 9.44
9/8/2021 4:30:00 PM 18.11 64.598 0.099 7.35 60.63 9.38
9/8/2021 4:45:00 PM 18.05 64.49 0.099 7.33 6.67 9.32
9/8/2021 5:00:00 PM 18.02 64.436 0.089 7.32 31.5 9.27
9/8/2021 5:15:00 PM 17.99 64.382 0.099 7.3 4.62 9.28
9/8/2021 5:30:00 PM 17.98 64.364 0.099 7.29 4.4 9.2
9/8/2021 5:45:00 PM 17.96 64.328 0.099 7.29 4.62 9.26
9/8/2021 6:00:00 PM 17.95 64.31 0.08 7.29 54.25 9.29
9/8/2021 6:15:00 PM 17.94 64.292 0.099 7.28 7.39 9.24
9/8/2021 6:30:00 PM 17.93 64.274 0.1 7.28 13.91 9.27
9/8/2021 6:45:00 PM 17.91 64.238 0.1 7.25 14.36 9.26
9/8/2021 7:00:00 PM 17.9 64.22 0.101 7.25 15.45 9.24
9/8/2021 7:15:00 PM 17.9 64.22 0.101 7.24 15.86 9.22
9/8/2021 7:30:00 PM 17.89 64.202 0.102 7.24 17.68 9.2
9/8/2021 7:45:00 PM 17.9 64.22 0.102 7.24 9.22 9.18
9/8/2021 8:00:00 PM 17.91 64.238 0.103 7.25 11.54 9.15
9/8/2021 8:15:00 PM 17.9 64.22 0.103 7.24 11.83 9.12
9/8/2021 8:30:00 PM 17.9 64.22 0.104 7.24 13.12 9.11
9/8/2021 8:45:00 PM 17.89 64.202 0.106 7.25 13.63 9.09
9/8/2021 9:00:00 PM 17.87 64.166 0.109 7.25 113.27 9.08
9/8/2021 9:15:00 PM 17.85 64.13 0.112 7.27 137.03 9.1
9/8/2021 9:30:00 PM 17.83 64.094 0.114 7.28 158.29 9.09
9/8/2021 9:45:00 PM 17.81 64.058 0.115 7.28 174.51 9.1
9/8/2021 10:00:00 PM 17.79 64.022 0.114 7.27 229.95 9.1
9/8/2021 10:15:00 PM 17.76 63.968 0.113 7.27 245.66 9.1
9/8/2021 10:30:00 PM 17.74 63.932 0.068 7.26 18.68 9.11
9/8/2021 10:45:00 PM 17.71 63.878 0.069 7.26 17.48 9.12
9/8/2021 11:00:00 PM 17.69 63.842 0.07 7.26 15.55 9.13
9/8/2021 11:15:00 PM 17.66 63.788 0.07 7.25 15.94 9.15
9/8/2021 11:30:00 PM 17.64 63.752 0.11 7.24 19.61 9.1
9/8/2021 11:45:00 PM 17.62 63.716 0.11 7.23 18.26 9.13
9/9/2021 12:00:00 AM 17.6 63.68 0.109 7.23 17.32 9.12
9/9/2021 12:15:00 AM 17.58 63.644 0.109 7.22 18.61 9.17
9/9/2021 12:30:00 AM 17.56 63.608 0.108 7.23 14.1 9.15
9/9/2021 12:45:00 AM 17.53 63.554 0.108 7.23 12.61 9.18
9/9/2021 1:00:00 AM 17.51 63.518 0.107 7.23 12.53 9.19
9/9/2021 1:15:00 AM 17.48 63.464 0.107 7.22 12.28 9.19
9/9/2021 1:30:00 AM 17.45 63.41 0.107 7.21 12.41 9.21
9/9/2021 1:45:00 AM 17.41 63.338 0.106 7.21 11.69 9.21
9/9/2021 2:00:00 AM 17.38 63.284 0.106 7.2 11.89 9.22
9/9/2021 2:15:00 AM 17.34 63.212 0.105 7.19 10.98 9.23
9/9/2021 2:30:00 AM 17.31 63.158 0.1 7.19 31.09 9.25
9/9/2021 2:45:00 AM 17.28 63.104 0.1 7.19 27.66 9.23
9/9/2021 3:00:00 AM 17.26 63.068 0.1 7.19 29.51 9.15
9/9/2021 3:15:00 AM 17.23 63.014 0.1 7.18 29.84 9.25
9/9/2021 3:30:00 AM 17.21 62.978 0.106 7.19 10.56 9.26
9/9/2021 3:45:00 AM 17.18 62.924 0.106 7.19 8.73 9.27
9/9/2021 4:00:00 AM 17.16 62.888 0.107 7.18 9.98 9.27
9/9/2021 4:15:00 AM 17.14 62.852 0.107 7.18 9.52 9.26
9/9/2021 4:30:00 AM 17.13 62.834 0.108 7.18 8.81 9.26
9/9/2021 4:45:00 AM 17.11 62.798 0.108 7.18 9.56 9.26
9/9/2021 5:00:00 AM 17.09 62.762 0.109 7.18 9.41 9.26
9/9/2021 5:15:00 AM 17.08 62.744 0.11 7.18 10.46 9.28
9/9/2021 5:30:00 AM 17.06 62.708 0.111 7.18 9.81 9.29
9/9/2021 5:45:00 AM 17.05 62.69 0.112 7.19 9.24 9.29
9/9/2021 6:00:00 AM 17.03 62.654 0.112 7.19 9.66 9.28
9/9/2021 6:15:00 AM 17.02 62.636 0.113 7.2 9.47 9.29
9/9/2021 6:30:00 AM 17 62.6 0.114 7.19 9.8 9.29
9/9/2021 6:45:00 AM 16.98 62.564 0.114 7.2 10.33 9.3
9/9/2021 7:00:00 AM 16.96 62.528 0.114 7.2 9.88 9.28
9/9/2021 7:15:00 AM 16.95 62.51 0.115 7.2 10.99 9.29
9/9/2021 7:30:00 AM 16.93 62.474 0.115 7.2 10.8 9.3
9/9/2021 7:45:00 AM 16.91 62.438 0.115 7.21 9.64 9.33
9/9/2021 8:00:00 AM 16.9 62.42 0.115 7.21 9.19 9.37
9/9/2021 8:15:00 AM 16.89 62.402 0.115 7.22 9.01 9.36
9/9/2021 8:30:00 AM 16.87 62.366 0.115 7.22 68.13 9.42
9/9/2021 8:45:00 AM 16.87 62.366 0.115 7.22 8.86 9.45
9/9/2021 9:00:00 AM 16.86 62.348 0.115 7.23 8.82 9.46
9/9/2021 9:15:00 AM 16.86 62.348 0.115 7.25 8.85 9.51
9/9/2021 9:30:00 AM 16.85 62.33 0.114 7.25 9.3 9.52
9/9/2021 9:45:00 AM 16.88 62.384 0.115 7.26 9.01 9.64
9/9/2021 10:00:00 AM 16.9 62.42 0.114 7.27 10.07 9.7
9/9/2021 10:15:00 AM 16.92 62.456 0.113 7.29 7.44 9.77
9/9/2021 10:30:00 AM 16.98 62.564 0.113 7.3 9.92 9.88
9/9/2021 10:45:00 AM 17 62.6 0.113 7.32 6.86 9.93
9/9/2021 11:00:00 AM 17.01 62.618 0.112 7.34 6.41 9.94
9/9/2021 11:15:00 AM 17.11 62.798 0.112 7.36 6.41 10.05
9/9/2021 11:30:00 AM 17.16 62.888 0.112 7.39 6.79 10.13
9/9/2021 11:45:00 AM 17.27 63.086 0.111 7.42 8.39 10.21
9/9/2021 12:00:00 PM 17.36 63.248 0.111 7.46 6.73 10.28
9/9/2021 12:15:00 PM 17.51 63.518 0.111 7.49 19.62 10.38
9/9/2021 12:30:00 PM 17.59 63.662 0.111 7.52 30.41 10.41
9/9/2021 12:45:00 PM 17.64 63.752 0.11 7.54 6.71 10.39
9/9/2021 1:00:00 PM 17.75 63.95 0.11 7.58 6.12 10.42
9/9/2021 1:15:00 PM 17.91 64.238 0.11 7.61 6.35 10.48
9/9/2021 1:30:00 PM 18.06 64.508 0.11 7.64 5.81 10.47
9/9/2021 1:45:00 PM 18.21 64.778 0.11 7.67 5.58 10.48
9/9/2021 2:00:00 PM 18.27 64.886 0.11 7.66 7.31 10.42
9/9/2021 2:15:00 PM 18.26 64.868 0.109 7.68 5.73 10.3
9/9/2021 2:30:00 PM 18.26 64.868 0.109 7.65 5.66 10.2
9/9/2021 2:45:00 PM 18.39 65.102 0.109 7.67 5.97 10.25
9/9/2021 3:00:00 PM 18.39 65.102 0.109 7.68 5.64 10.22
9/9/2021 3:15:00 PM 18.47 65.246 0.109 7.67 5.5 10.17
9/9/2021 3:30:00 PM 18.5 65.3 0.109 7.65 10.01 10.15
9/9/2021 3:45:00 PM 18.47 65.246 0.109 7.67 8.92 10.09
9/9/2021 4:00:00 PM 18.5 65.3 0.109 7.66 5.73 10.07
9/9/2021 4:15:00 PM 18.51 65.318 0.109 7.64 5.58 10.02
9/9/2021 4:30:00 PM 18.49 65.282 0.109 7.62 5.56 9.98
9/9/2021 4:45:00 PM 18.53 65.354 0.11 7.61 5.34 9.93
9/9/2021 5:00:00 PM 18.56 65.408 0.109 7.62 6.42 9.91
9/9/2021 5:15:00 PM 18.6 65.48 0.109 7.58 5.28 9.86
9/9/2021 5:30:00 PM 18.59 65.462 0.109 7.57 5.2 9.78
9/9/2021 5:45:00 PM 18.56 65.408 0.11 7.55 5.09 9.72
9/9/2021 6:00:00 PM 18.51 65.318 0.11 7.53 5.43 9.63
9/9/2021 6:15:00 PM 18.48 65.264 0.109 7.51 5.43 9.58
9/9/2021 6:30:00 PM 18.46 65.228 0.11 7.47 5.43 9.51
9/9/2021 6:45:00 PM 18.45 65.21 0.11 7.44 5.76 9.44
9/9/2021 7:00:00 PM 18.44 65.192 0.11 7.43 5.95 9.36
9/9/2021 7:15:00 PM 18.4 65.12 0.11 7.41 5.4 9.32
9/9/2021 7:30:00 PM 18.35 65.03 0.11 7.39 5.66 9.27
9/9/2021 7:45:00 PM 18.28 64.904 0.11 7.35 5.67 9.24
9/9/2021 8:00:00 PM 18.2 64.76 0.11 7.34 12.27 9.21
9/9/2021 8:15:00 PM 18.13 64.634 0.11 7.34 5.55 9.19
9/9/2021 8:30:00 PM 18.07 64.526 0.111 7.3 8.65 9.15
9/9/2021 8:45:00 PM 18.01 64.418 0.111 7.29 7.07 9.08
9/9/2021 9:00:00 PM 17.93 64.274 0.111 7.28 5.95 9.13
9/9/2021 9:15:00 PM 17.87 64.166 0.111 7.27 5.58 9.1
9/9/2021 9:30:00 PM 17.79 64.022 0.108 7.26 5.99 9.09
9/9/2021 9:45:00 PM 17.72 63.896 0.109 7.25 1.71 9.08
9/9/2021 10:00:00 PM 17.64 63.752 0.111 7.25 5.79 9.11
9/9/2021 10:15:00 PM 17.56 63.608 0.112 7.23 6.07 9.13
9/9/2021 10:30:00 PM 17.49 63.482 0.111 7.22 14.08 9.09
9/9/2021 10:45:00 PM 17.42 63.356 0.111 7.2 5.71 9.13
9/9/2021 11:00:00 PM 17.34 63.212 0.112 7.19 5.65 9.16
9/9/2021 11:15:00 PM 17.27 63.086 0.111 7.21 5.3 9.13
9/9/2021 11:30:00 PM 17.2 62.96 0.112 7.2 5.3 9.17
9/9/2021 11:45:00 PM 17.13 62.834 0.112 7.18 5.47 9.16
9/10/2021 12:00:00 AM 17.06 62.708 0.112 7.18 5.63 9.2
9/10/2021 12:15:00 AM 16.99 62.582 0.111 7.18 5.66 9.23
9/10/2021 12:30:00 AM 16.92 62.456 0.111 7.18 5.61 9.25
9/10/2021 12:45:00 AM 16.85 62.33 0.112 7.17 5.22 9.27
9/10/2021 1:00:00 AM 16.77 62.186 0.111 7.17 5.27 9.27
9/10/2021 1:15:00 AM 16.7 62.06 0.111 7.17 4.85 9.3
9/10/2021 1:30:00 AM 16.64 61.952 0.112 7.17 5.42 9.32
9/10/2021 1:45:00 AM 16.57 61.826 0.111 7.15 4.91 9.32
9/10/2021 2:00:00 AM 16.51 61.718 0.112 7.15 5.1 9.36
9/10/2021 2:15:00 AM 16.45 61.61 0.111 7.15 4.96 9.29
9/10/2021 2:30:00 AM 16.39 61.502 0.111 7.15 5.03 9.36
9/10/2021 2:45:00 AM 16.34 61.412 0.112 7.15 5 9.4
9/10/2021 3:00:00 AM 16.29 61.322 0.111 7.14 4.96 9.42
9/10/2021 3:15:00 AM 16.23 61.214 0.112 7.14 5.13 9.43
9/10/2021 3:30:00 AM 16.18 61.124 0.112 7.13 5.05 9.36
9/10/2021 3:45:00 AM 16.12 61.016 0.111 7.14 5.02 9.45
9/10/2021 4:00:00 AM 16.06 60.908 0.111 7.15 5 9.49
9/10/2021 4:15:00 AM 16 60.8 0.112 7.15 4.64 9.51
9/10/2021 4:30:00 AM 15.94 60.692 0.112 7.14 5.65 9.5
9/10/2021 4:45:00 AM 15.89 60.602 0.112 7.15 5.35 9.47
9/10/2021 5:00:00 AM 15.83 60.494 0.112 7.14 5.02 9.54
9/10/2021 5:15:00 AM 15.76 60.368 0.111 7.14 5.08 9.55
9/10/2021 5:30:00 AM 15.71 60.278 0.111 7.15 5.23 9.57
9/10/2021 5:45:00 AM 15.65 60.17 0.112 7.14 4.83 9.59
9/10/2021 6:00:00 AM 15.59 60.062 0.112 7.15 4.79 9.58
9/10/2021 6:15:00 AM 15.53 59.954 0.112 7.14 4.92 9.61
9/10/2021 6:30:00 AM 15.47 59.846 0.112 7.14 4.7 9.53
9/10/2021 6:45:00 AM 15.41 59.738 0.112 7.14 4.7 9.6
9/10/2021 7:00:00 AM 15.35 59.63 0.111 7.15 4.95 9.68
9/10/2021 7:15:00 AM 15.29 59.522 0.111 7.15 4.79 9.7
9/10/2021 7:30:00 AM 15.24 59.432 0.111 7.15 5.44 9.73
9/10/2021 7:45:00 AM 15.2 59.36 0.111 7.15 4.64 9.77
9/10/2021 8:00:00 AM 15.17 59.306 0.112 7.16 4.82 9.81
9/10/2021 8:15:00 AM 15.15 59.27 0.111 7.14 9.33 9.82
9/10/2021 8:30:00 AM 15.14 59.252 0.111 7.16 6.5 9.87
9/10/2021 8:45:00 AM 15.13 59.234 0.111 7.17 7.08 9.9
9/10/2021 9:00:00 AM 15.16 59.288 0.111 7.19 5.73 10.05
9/10/2021 9:15:00 AM 15.18 59.324 0.111 7.21 5.28 10.1
9/10/2021 9:30:00 AM 15.2 59.36 0.111 7.22 5.77 10.09
9/10/2021 9:45:00 AM 15.26 59.468 0.111 7.24 4.02 10.23
9/10/2021 10:00:00 AM 15.31 59.558 0.111 7.26 4.54 10.3
9/10/2021 10:15:00 AM 15.38 59.684 0.11 7.29 4.6 10.41
9/10/2021 10:30:00 AM 15.5 59.9 0.11 7.32 3.93 10.5
9/10/2021 10:45:00 AM 15.55 59.99 0.11 7.35 4.23 10.54
9/10/2021 11:00:00 AM 15.61 60.098 0.11 7.38 4.17 10.53
9/10/2021 11:15:00 AM 15.76 60.368 0.11 7.4 4.54 10.6
9/10/2021 11:30:00 AM 15.93 60.674 0.109 7.44 4.78 10.61
9/10/2021 11:45:00 AM 16.02 60.836 0.109 7.47 5.08 10.64
9/10/2021 12:00:00 PM 16.17 61.106 0.109 7.5 6.71 10.66
9/10/2021 12:15:00 PM 16.33 61.394 0.109 7.52 4.09 10.7
9/10/2021 12:30:00 PM 16.48 61.664 0.109 7.55 4.67 10.63
9/10/2021 12:45:00 PM 16.61 61.898 0.109 7.57 6.53 10.67
9/10/2021 1:00:00 PM 16.77 62.186 0.108 7.59 3.85 10.68
9/10/2021 1:15:00 PM 16.89 62.402 0.108 7.61 4.67 10.7
9/10/2021 1:30:00 PM 16.98 62.564 0.109 7.61 5.57 10.62
9/10/2021 1:45:00 PM 17.04 62.672 0.108 7.62 5.4 10.58
9/10/2021 2:00:00 PM 17.18 62.924 0.108 7.63 4.33 10.61
9/10/2021 2:15:00 PM 17.2 62.96 0.108 7.66 5.59 10.58
9/10/2021 2:30:00 PM 17.33 63.194 0.108 7.65 4.42 10.6
9/10/2021 2:45:00 PM 17.46 63.428 0.108 7.68 5.67 10.6
9/10/2021 3:00:00 PM 17.53 63.554 0.108 7.69 4.64 10.55
9/10/2021 3:15:00 PM 17.58 63.644 0.108 7.7 3.59 10.55
9/10/2021 3:30:00 PM 17.63 63.734 0.107 7.7 3.89 10.5
9/10/2021 3:45:00 PM 17.67 63.806 0.107 7.68 9.23 10.47
9/10/2021 4:00:00 PM 17.64 63.752 0.108 7.67 3.79 10.27
9/10/2021 4:15:00 PM 17.61 63.698 0.107 7.65 3.72 10.3
9/10/2021 4:30:00 PM 17.64 63.752 0.108 7.62 4.38 10.23
9/10/2021 4:45:00 PM 17.68 63.824 0.107 7.61 5.76 10.19
9/10/2021 5:00:00 PM 17.71 63.878 0.107 7.6 4.11 10.16
9/10/2021 5:15:00 PM 17.73 63.914 0.107 7.59 3.64 10.11
9/10/2021 5:30:00 PM 17.75 63.95 0.108 7.55 3.63 10.03
9/10/2021 5:45:00 PM 17.73 63.914 0.107 7.54 3.98 9.95
9/10/2021 6:00:00 PM 17.71 63.878 0.107 7.51 3.97 9.83
9/10/2021 6:15:00 PM 17.68 63.824 0.107 7.49 4.61 9.81
9/10/2021 6:30:00 PM 17.64 63.752 0.107 7.48 3.62 9.79
9/10/2021 6:45:00 PM 17.6 63.68 0.108 7.45 3.63 9.75
9/10/2021 7:00:00 PM 17.58 63.644 0.107 7.44 3.72 9.67
9/10/2021 7:15:00 PM 17.55 63.59 0.107 7.4 4.51 9.59
9/10/2021 7:30:00 PM 17.52 63.536 0.107 7.38 4.19 9.55
9/10/2021 7:45:00 PM 17.47 63.446 0.107 7.36 4.32 9.52
9/10/2021 8:00:00 PM 17.42 63.356 0.108 7.33 6.97 9.44
9/10/2021 8:15:00 PM 17.36 63.248 0.108 7.31 4.33 9.4
9/10/2021 8:30:00 PM 17.29 63.122 0.108 7.3 4.29 9.36
9/10/2021 8:45:00 PM 17.21 62.978 0.108 7.27 3.87 9.38
9/10/2021 9:00:00 PM 17.13 62.834 0.108 7.26 4.18 9.34
9/10/2021 9:15:00 PM 17.04 62.672 0.108 7.25 4.41 9.25
9/10/2021 9:30:00 PM 16.95 62.51 0.108 7.25 4.75 9.33
9/10/2021 9:45:00 PM 16.88 62.384 0.108 7.23 4.17 9.32
9/10/2021 10:00:00 PM 16.8 62.24 0.108 7.22 4.27 9.35
9/10/2021 10:15:00 PM 16.74 62.132 0.108 7.2 4.02 9.34
9/10/2021 10:30:00 PM 16.67 62.006 0.109 7.2 4 9.37
9/10/2021 10:45:00 PM 16.59 61.862 0.108 7.19 4.51 9.38
9/10/2021 11:00:00 PM 16.53 61.754 0.071 7.19 3.8 9.38
9/10/2021 11:15:00 PM 16.47 61.646 0.072 7.19 4.01 9.39
9/10/2021 11:30:00 PM 16.39 61.502 0.109 7.19 3.82 9.43
9/10/2021 11:45:00 PM 16.32 61.376 0.109 7.18 3.87 9.43
9/11/2021 12:00:00 AM 16.26 61.268 0.109 7.18 3.93 9.41
9/11/2021 12:15:00 AM 16.18 61.124 0.109 7.17 4.36 9.47
9/11/2021 12:30:00 AM 16.12 61.016 0.109 7.16 4.16 9.47
9/11/2021 12:45:00 AM 16.05 60.89 0.109 7.15 3.81 9.44
9/11/2021 1:00:00 AM 15.99 60.782 0.109 7.15 4.01 9.48
9/11/2021 1:15:00 AM 15.92 60.656 0.109 7.14 3.88 9.51
9/11/2021 1:30:00 AM 15.86 60.548 0.109 7.14 4.19 9.54
9/11/2021 1:45:00 AM 15.8 60.44 0.109 7.14 4.12 9.54
9/11/2021 2:00:00 AM 15.74 60.332 0.109 7.13 4.28 9.58
9/11/2021 2:15:00 AM 15.68 60.224 0.109 7.13 3.95 9.59
9/11/2021 2:30:00 AM 15.62 60.116 0.109 7.14 3.9 9.59
9/11/2021 2:45:00 AM 15.57 60.026 0.109 7.13 4.07 9.64
9/11/2021 3:00:00 AM 15.53 59.954 0.109 7.13 3.75 9.62
9/11/2021 3:15:00 AM 15.49 59.882 0.109 7.13 3.88 9.66
9/11/2021 3:30:00 AM 15.44 59.792 0.109 7.13 3.43 9.67
9/11/2021 3:45:00 AM 15.4 59.72 0.109 7.13 3.81 9.69
9/11/2021 4:00:00 AM 15.35 59.63 0.109 7.13 3.68 9.71
9/11/2021 4:15:00 AM 15.3 59.54 0.109 7.13 3.81 9.7
9/11/2021 4:30:00 AM 15.24 59.432 0.109 7.13 4.49 9.74
9/11/2021 4:45:00 AM 15.19 59.342 0.109 7.12 4.48 9.71
9/11/2021 5:00:00 AM 15.13 59.234 0.11 7.13 4.54 9.78
9/11/2021 5:15:00 AM 15.07 59.126 0.11 7.12 4.18 9.76
9/11/2021 5:30:00 AM 15.01 59.018 0.11 7.11 7.68 9.77
9/11/2021 5:45:00 AM 14.95 58.91 0.109 7.13 4.69 9.81
9/11/2021 6:00:00 AM 14.9 58.82 0.11 7.13 4.24 9.73
9/11/2021 6:15:00 AM 14.83 58.694 0.109 7.13 4.17 9.87
9/11/2021 6:30:00 AM 14.78 58.604 0.109 7.13 4.09 9.86
9/11/2021 6:45:00 AM 14.73 58.514 0.109 7.13 4.02 9.87
9/11/2021 7:00:00 AM 14.67 58.406 0.061 7.13 4.47 9.88
9/11/2021 7:15:00 AM 14.62 58.316 0.061 7.14 3.94 9.93
9/11/2021 7:30:00 AM 14.57 58.226 0.062 7.14 4.03 9.89
9/11/2021 7:45:00 AM 14.53 58.154 0.062 7.13 4.02 9.99
9/11/2021 8:00:00 AM 14.49 58.082 0.062 7.14 3.55 10.01
9/11/2021 8:15:00 AM 14.45 58.01 0.062 7.16 3.61 10.08
9/11/2021 8:30:00 AM 14.42 57.956 0.063 7.16 3.4 10.17
9/11/2021 8:45:00 AM 14.37 57.866 0.063 7.16 3.24 10.19
9/11/2021 9:00:00 AM 14.35 57.83 0.063 7.17 3.65 10.28
9/11/2021 9:15:00 AM 14.33 57.794 0.064 7.19 3.6 10.35
9/11/2021 9:30:00 AM 14.32 57.776 0.064 7.22 3.22 10.5
9/11/2021 9:45:00 AM 14.32 57.776 0.064 7.24 3.49 10.53
9/11/2021 10:00:00 AM 14.34 57.812 0.064 7.25 3.47 10.65
9/11/2021 10:15:00 AM 14.39 57.902 0.064 7.28 3.12 10.79
9/11/2021 10:30:00 AM 14.46 58.028 0.064 7.32 3.66 10.88
9/11/2021 10:45:00 AM 14.58 58.244 0.064 7.33 3.27 10.93
9/11/2021 11:00:00 AM 14.67 58.406 0.064 7.36 3.36 11
9/11/2021 11:15:00 AM 14.76 58.568 0.065 7.4 3.18 11.02
9/11/2021 11:30:00 AM 14.88 58.784 0.065 7.41 3.03 11.01
9/11/2021 11:45:00 AM 15.03 59.054 0.065 7.45 3.19 11.09
9/11/2021 12:00:00 PM 15.2 59.36 0.065 7.46 3.15 11.06
9/11/2021 12:15:00 PM 15.37 59.666 0.064 7.5 5.67 10.93
9/11/2021 12:30:00 PM 15.53 59.954 0.065 7.53 3.05 11.06
9/11/2021 12:45:00 PM 15.71 60.278 0.065 7.55 3.13 11.05
9/11/2021 1:00:00 PM 15.9 60.62 0.065 7.58 3.13 11.03
9/11/2021 1:15:00 PM 16.11 60.998 0.065 7.58 3.14 10.97
9/11/2021 1:30:00 PM 16.33 61.394 0.065 7.6 3.45 10.97
9/11/2021 1:45:00 PM 16.57 61.826 0.065 7.63 3.26 10.96
9/11/2021 2:00:00 PM 16.74 62.132 0.106 7.64 6.39 10.88
9/11/2021 2:15:00 PM 16.86 62.348 0.105 7.67 3.11 10.9
9/11/2021 2:30:00 PM 17 62.6 0.106 7.66 3.05 10.85
9/11/2021 2:45:00 PM 17.1 62.78 0.106 7.67 3.2 10.77
9/11/2021 3:00:00 PM 17.22 62.996 0.106 7.67 2.93 10.74
9/11/2021 3:15:00 PM 17.31 63.158 0.105 7.7 3.03 10.77
9/11/2021 3:30:00 PM 17.37 63.266 0.105 7.7 3.2 10.74
9/11/2021 3:45:00 PM 17.44 63.392 0.105 7.72 3.4 10.71
9/11/2021 4:00:00 PM 17.48 63.464 0.105 7.72 3.31 10.64
9/11/2021 4:15:00 PM 17.49 63.482 0.105 7.73 3.23 10.61
9/11/2021 4:30:00 PM 17.49 63.482 0.105 7.71 3.1 10.53
9/11/2021 4:45:00 PM 17.5 63.5 0.105 7.69 2.95 10.51
9/11/2021 5:00:00 PM 17.49 63.482 0.105 7.68 3.1 10.45
9/11/2021 5:15:00 PM 17.48 63.464 0.105 7.66 3.04 10.36
9/11/2021 5:30:00 PM 17.46 63.428 0.105 7.65 2.99 10.28
9/11/2021 5:45:00 PM 17.45 63.41 0.104 7.62 3.12 10.17
9/11/2021 6:00:00 PM 17.43 63.374 0.105 7.59 4.07 10.14
9/11/2021 6:15:00 PM 17.42 63.356 0.105 7.56 2.98 10.03
9/11/2021 6:30:00 PM 17.4 63.32 0.105 7.51 3.76 9.99
9/11/2021 6:45:00 PM 17.37 63.266 0.105 7.49 3.4 9.9
9/11/2021 7:00:00 PM 17.34 63.212 0.105 7.44 3.4 9.81
9/11/2021 7:15:00 PM 17.29 63.122 0.105 7.42 3.93 9.76
9/11/2021 7:30:00 PM 17.25 63.05 0.105 7.39 3.08 9.67
9/11/2021 7:45:00 PM 17.2 62.96 0.105 7.36 3.39 9.57
9/11/2021 8:00:00 PM 17.15 62.87 0.106 7.32 3.76 9.48
9/11/2021 8:15:00 PM 17.08 62.744 0.105 7.32 7.64 9.48
9/11/2021 8:30:00 PM 17.02 62.636 0.105 7.3 4.26 9.43
9/11/2021 8:45:00 PM 16.96 62.528 0.106 7.29 4 9.37
9/11/2021 9:00:00 PM 16.89 62.402 0.106 7.27 5.07 9.4
9/11/2021 9:15:00 PM 16.83 62.294 0.105 7.26 5.26 9.33
9/11/2021 9:30:00 PM 16.78 62.204 0.105 7.25 3.95 9.38
9/11/2021 9:45:00 PM 16.73 62.114 0.106 7.25 3.32 9.33
9/11/2021 10:00:00 PM 16.69 62.042 0.105 7.23 3.76 9.36
9/11/2021 10:15:00 PM 16.65 61.97 0.106 7.22 3.88 9.34
9/11/2021 10:30:00 PM 16.61 61.898 0.106 7.21 3.72 9.32
9/11/2021 10:45:00 PM 16.58 61.844 0.106 7.2 3.7 9.29
9/11/2021 11:00:00 PM 16.54 61.772 0.106 7.2 3.63 9.36
9/11/2021 11:15:00 PM 16.5 61.7 0.106 7.19 3.49 9.36
9/11/2021 11:30:00 PM 16.47 61.646 0.106 7.19 3.88 9.33
9/11/2021 11:45:00 PM 16.42 61.556 0.106 7.18 3.33 9.31
9/12/2021 12:00:00 AM 16.37 61.466 0.106 7.19 3.95 9.37
9/12/2021 12:15:00 AM 16.33 61.394 0.106 7.18 3.67 9.36
9/12/2021 12:30:00 AM 16.28 61.304 0.106 7.17 3.18 9.4
9/12/2021 12:45:00 AM 16.24 61.232 0.106 7.17 3.45 9.36
9/12/2021 1:00:00 AM 16.18 61.124 0.106 7.17 3.63 9.44
9/12/2021 1:15:00 AM 16.14 61.052 0.106 7.16 3.24 9.43
9/12/2021 1:30:00 AM 16.09 60.962 0.107 7.14 3.55 9.43
9/12/2021 1:45:00 AM 16.04 60.872 0.106 7.16 3.67 9.48
9/12/2021 2:00:00 AM 16 60.8 0.107 7.15 3.47 9.45
9/12/2021 2:15:00 AM 15.95 60.71 0.106 7.16 3.7 9.48
9/12/2021 2:30:00 AM 15.91 60.638 0.107 7.16 3.93 9.46
9/12/2021 2:45:00 AM 15.88 60.584 0.107 7.15 3.66 9.38
9/12/2021 3:00:00 AM 15.84 60.512 0.107 7.15 3.28 9.42
9/12/2021 3:15:00 AM 15.8 60.44 0.107 7.14 3.62 9.48
9/12/2021 3:30:00 AM 15.76 60.368 0.107 7.14 3.57 9.42
9/12/2021 3:45:00 AM 15.72 60.296 0.107 7.13 3.59 9.5
9/12/2021 4:00:00 AM 15.68 60.224 0.107 7.11 3.53 9.53
9/12/2021 4:15:00 AM 15.65 60.17 0.107 7.13 3.56 9.49
9/12/2021 4:30:00 AM 15.61 60.098 0.107 7.12 3.26 9.51
9/12/2021 4:45:00 AM 15.57 60.026 0.107 7.13 3.75 9.5
9/12/2021 5:00:00 AM 15.53 59.954 0.107 7.11 3.57 9.6
9/12/2021 5:15:00 AM 15.49 59.882 0.107 7.12 3.37 9.56
9/12/2021 5:30:00 AM 15.45 59.81 0.107 7.13 3.61 9.63
9/12/2021 5:45:00 AM 15.41 59.738 0.107 7.13 3.71 9.58
9/12/2021 6:00:00 AM 15.36 59.648 0.107 7.13 3.95 9.64
9/12/2021 6:15:00 AM 15.33 59.594 0.107 7.12 3.54 9.6
9/12/2021 6:30:00 AM 15.28 59.504 0.107 7.12 3.42 9.62
9/12/2021 6:45:00 AM 15.24 59.432 0.107 7.12 3.65 9.65
9/12/2021 7:00:00 AM 15.2 59.36 0.107 7.12 3.66 9.69
9/12/2021 7:15:00 AM 15.17 59.306 0.107 7.11 3.6 9.59
9/12/2021 7:30:00 AM 15.13 59.234 0.107 7.11 3.51 9.65
9/12/2021 7:45:00 AM 15.11 59.198 0.107 7.11 3.43 9.65
9/12/2021 8:00:00 AM 15.08 59.144 0.107 7.13 3.83 9.73
9/12/2021 8:15:00 AM 15.07 59.126 0.107 7.14 3.42 9.8
9/12/2021 8:30:00 AM 15.06 59.108 0.107 7.14 3.16 9.94
9/12/2021 8:45:00 AM 15.07 59.126 0.107 7.15 3.24 9.99
9/12/2021 9:00:00 AM 15.08 59.144 0.107 7.18 3.52 10.12
9/12/2021 9:15:00 AM 15.1 59.18 0.107 7.19 3.22 10.17
9/12/2021 9:30:00 AM 15.14 59.252 0.107 7.2 3.27 10.28
9/12/2021 9:45:00 AM 15.2 59.36 0.106 7.23 3.26 10.38
9/12/2021 10:00:00 AM 15.28 59.504 0.106 7.25 2.85 10.48
9/12/2021 10:15:00 AM 15.34 59.612 0.106 7.28 2.99 10.49
9/12/2021 10:30:00 AM 15.43 59.774 0.106 7.3 3.05 10.52
9/12/2021 10:45:00 AM 15.59 60.062 0.105 7.33 3.25 10.61
9/12/2021 11:00:00 AM 15.69 60.242 0.105 7.37 2.83 10.75
9/12/2021 11:15:00 AM 15.75 60.35 0.105 7.4 3.38 10.8
9/12/2021 11:30:00 AM 15.81 60.458 0.105 7.39 2.73 10.68
9/12/2021 11:45:00 AM 15.91 60.638 0.105 7.43 2.83 10.76
9/12/2021 12:00:00 PM 16.02 60.836 0.104 7.47 2.95 10.81
9/12/2021 12:15:00 PM 16.15 61.07 0.104 7.49 3.12 10.83
9/12/2021 12:30:00 PM 16.25 61.25 0.104 7.51 2.8 10.83
9/12/2021 12:45:00 PM 16.32 61.376 0.104 7.54 3.1 10.8
9/12/2021 1:00:00 PM 16.5 61.7 0.104 7.57 3.3 10.85
9/12/2021 1:15:00 PM 16.58 61.844 0.104 7.58 2.94 10.85
9/12/2021 1:30:00 PM 16.7 62.06 0.103 7.58 2.94 10.84
9/12/2021 1:45:00 PM 16.83 62.294 0.103 7.6 2.82 10.86
9/12/2021 2:00:00 PM 16.98 62.564 0.103 7.62 3.23 10.92
9/12/2021 2:15:00 PM 17.08 62.744 0.103 7.65 2.92 10.9
9/12/2021 2:30:00 PM 17.17 62.906 0.103 7.71 2.94 10.88
9/12/2021 2:45:00 PM 17.22 62.996 0.102 7.77 2.92 10.88
9/12/2021 3:00:00 PM 17.34 63.212 0.102 7.74 3.34 10.86
9/12/2021 3:15:00 PM 17.5 63.5 0.102 7.64 3.06 10.85
9/12/2021 3:30:00 PM 17.61 63.698 0.102 7.83 2.85 10.82
9/12/2021 3:45:00 PM 17.73 63.914 0.102 7.84 2.81 10.75
9/12/2021 4:00:00 PM 17.84 64.112 0.102 7.86 2.85 10.73
9/12/2021 4:15:00 PM 17.94 64.292 0.102 7.92 3.02 10.71
9/12/2021 4:30:00 PM 18.04 64.472 0.102 7.93 2.96 10.62
9/12/2021 4:45:00 PM 18.08 64.544 0.102 7.91 3.04 10.49
9/12/2021 5:00:00 PM 18.13 64.634 0.102 7.91 3.03 10.45
9/12/2021 5:15:00 PM 18.2 64.76 0.102 7.84 3.19 10.34
9/12/2021 5:30:00 PM 18.26 64.868 0.102 7.86 3.36 10.25
9/12/2021 5:45:00 PM 18.29 64.922 0.102 7.78 3.2 10.16
9/12/2021 6:00:00 PM 18.33 64.994 0.102 7.77 3.25 10
9/12/2021 6:15:00 PM 18.35 65.03 0.102 7.7 3.33 9.91
9/12/2021 6:30:00 PM 18.38 65.084 0.102 7.63 3.22 9.77
9/12/2021 6:45:00 PM 18.39 65.102 0.102 7.6 3.37 9.72
9/12/2021 7:00:00 PM 18.4 65.12 0.102 7.55 3.29 9.57
9/12/2021 7:15:00 PM 18.39 65.102 0.102 7.53 3.08 9.52
9/12/2021 7:30:00 PM 18.37 65.066 0.102 7.49 3.79 9.4
9/12/2021 7:45:00 PM 18.35 65.03 0.103 7.41 3.33 9.33
9/12/2021 8:00:00 PM 18.32 64.976 0.103 7.4 3.03 9.21
9/12/2021 8:15:00 PM 18.29 64.922 0.103 7.38 3.96 9.23
9/12/2021 8:30:00 PM 18.27 64.886 0.103 7.34 3.36 9.14
9/12/2021 8:45:00 PM 18.23 64.814 0.103 7.31 3.51 9.1
9/12/2021 9:00:00 PM 18.2 64.76 0.103 7.3 3.47 9.09
9/12/2021 9:15:00 PM 18.17 64.706 0.104 7.27 3.61 9
9/12/2021 9:30:00 PM 18.15 64.67 0.104 7.25 3.25 8.95
9/12/2021 9:45:00 PM 18.12 64.616 0.104 7.23 3.14 8.94
9/12/2021 10:00:00 PM 18.1 64.58 0.104 7.22 3.56 8.96
9/12/2021 10:15:00 PM 18.08 64.544 0.104 7.21 3.65 8.97
9/12/2021 10:30:00 PM 18.06 64.508 0.104 7.19 3.38 8.86
9/12/2021 10:45:00 PM 18.05 64.49 0.105 7.2 3.08 8.82
9/12/2021 11:00:00 PM 18.03 64.454 0.105 7.19 3.25 8.91
9/12/2021 11:15:00 PM 18.02 64.436 0.105 7.17 3.46 8.86
9/12/2021 11:30:00 PM 18.01 64.418 0.105 7.16 3.42 8.91
9/12/2021 11:45:00 PM 17.99 64.382 0.105 7.16 3.7 8.9
9/13/2021 12:00:00 AM 17.97 64.346 0.105 7.16 3.35 8.95
9/13/2021 12:15:00 AM 17.95 64.31 0.105 7.12 3.31 8.88
9/13/2021 12:30:00 AM 17.92 64.256 0.105 7.15 3.19 8.87
9/13/2021 12:45:00 AM 17.91 64.238 0.105 7.13 3.54 8.94
9/13/2021 1:00:00 AM 17.89 64.202 0.105 7.13 3.57 8.91
9/13/2021 1:15:00 AM 17.88 64.184 0.106 7.12 3.58 8.84
9/13/2021 1:30:00 AM 17.87 64.166 0.106 7.12 3.15 8.73
9/13/2021 1:45:00 AM 17.86 64.148 0.106 7.11 3.68 8.75
9/13/2021 2:00:00 AM 17.85 64.13 0.106 7.11 3.27 8.78
9/13/2021 2:15:00 AM 17.83 64.094 0.106 7.1 3.33 8.98
9/13/2021 2:30:00 AM 17.82 64.076 0.106 7.14 3.63 8.94
9/13/2021 2:45:00 AM 17.81 64.058 0.106 7.13 3.91 8.94
9/13/2021 3:00:00 AM 17.79 64.022 0.106 7.14 3.67 8.99
9/13/2021 3:15:00 AM 17.79 64.022 0.106 7.13 3.29 8.93
9/13/2021 3:30:00 AM 17.79 64.022 0.106 7.12 3.3 8.94
9/13/2021 3:45:00 AM 17.79 64.022 0.106 7.12 3.24 8.98
9/13/2021 4:00:00 AM 17.79 64.022 0.106 7.11 3.27 9
9/13/2021 4:15:00 AM 17.78 64.004 0.106 7.13 3.58 8.97
9/13/2021 4:30:00 AM 17.76 63.968 0.106 7.1 3.54 9
9/13/2021 4:45:00 AM 17.74 63.932 0.106 7.13 3.19 8.98
9/13/2021 5:00:00 AM 17.72 63.896 0.106 7.14 3.74 8.99
9/13/2021 5:15:00 AM 17.71 63.878 0.106 7.14 3.87 8.93
9/13/2021 5:30:00 AM 17.69 63.842 0.106 7.14 3.18 9.04
9/13/2021 5:45:00 AM 17.68 63.824 0.106 7.14 3.09 8.86
9/13/2021 6:00:00 AM 17.67 63.806 0.106 7.13 3.56 9.04
9/13/2021 6:15:00 AM 17.66 63.788 0.106 7.14 2.93 8.95
9/13/2021 6:30:00 AM 17.65 63.77 0.107 7.15 3.17 9.03
9/13/2021 6:45:00 AM 17.64 63.752 0.106 7.13 3.45 9.05
9/13/2021 7:00:00 AM 17.62 63.716 0.106 7.14 3.39 9.05
9/13/2021 7:15:00 AM 17.62 63.716 0.106 7.1 3.33 9.05
9/13/2021 7:30:00 AM 17.61 63.698 0.106 7.12 3.27 9.03
9/13/2021 7:45:00 AM 17.61 63.698 0.106 7.11 3.99 9.06
9/13/2021 8:00:00 AM 17.61 63.698 0.106 7.12 3.38 9.16
9/13/2021 8:15:00 AM 17.62 63.716 0.106 7.15 2.97 9.05
9/13/2021 8:30:00 AM 17.72 63.896 0.108 7.19 2.95 8.99
9/13/2021 8:45:00 AM 17.73 63.914 0.108 7.2 2.57 9.08
9/13/2021 9:00:00 AM 17.77 63.986 0.108 7.22 2.34 9.15
9/13/2021 9:15:00 AM 17.82 64.076 0.109 7.22 2.53 9.13
9/13/2021 9:30:00 AM 17.89 64.202 0.108 7.26 2.18 9.4
9/13/2021 9:45:00 AM 17.94 64.292 0.108 7.28 2.05 9.5
9/13/2021 10:00:00 AM 18.01 64.418 0.108 7.31 2.31 9.58
9/13/2021 10:15:00 AM 18.08 64.544 0.107 7.36 2.06 9.69
9/13/2021 10:30:00 AM 18.13 64.634 0.107 7.36 2.07 9.74
9/13/2021 10:45:00 AM 18.24 64.832 0.107 7.41 2.01 9.84
9/13/2021 11:00:00 AM 18.37 65.066 0.107 7.44 2.17 9.93
9/13/2021 11:15:00 AM 18.38 65.084 0.107 7.46 2.22 9.93
9/13/2021 11:30:00 AM 18.37 65.066 0.107 7.45 2.08 9.86
9/13/2021 11:45:00 AM 18.37 65.066 0.106 7.42 2.15 9.81
9/13/2021 12:00:00 PM 18.38 65.084 0.106 7.42 2.19 9.73
9/13/2021 12:15:00 PM 18.39 65.102 0.106 7.42 2.04 9.68
9/13/2021 12:30:00 PM 18.4 65.12 0.106 7.42 1.86 9.67
9/13/2021 12:45:00 PM 18.44 65.192 0.106 7.44 2.14 9.72
9/13/2021 1:00:00 PM 18.54 65.372 0.106 7.44 1.95 9.78
9/13/2021 1:15:00 PM 18.61 65.498 0.106 7.5 2.33 9.91
9/13/2021 1:30:00 PM 18.73 65.714 0.105 7.56 2.12 9.97
9/13/2021 1:45:00 PM 18.89 66.002 0.105 7.58 2.17 10.06
9/13/2021 2:00:00 PM 18.97 66.146 0.105 7.62 1.95 10.13
9/13/2021 2:15:00 PM 19.12 66.416 0.105 7.68 2.24 10.19
9/13/2021 2:30:00 PM 19.27 66.686 0.105 7.67 1.96 10.21
9/13/2021 2:45:00 PM 19.38 66.884 0.104 7.76 2.11 10.24
9/13/2021 3:00:00 PM 19.53 67.154 0.104 7.8 2.22 10.25
9/13/2021 3:15:00 PM 19.64 67.352 0.104 7.86 2.08 10.27
9/13/2021 3:30:00 PM 19.75 67.55 0.104 7.88 2.47 10.24
9/13/2021 3:45:00 PM 19.88 67.784 0.104 7.92 2.1 10.22
9/13/2021 4:00:00 PM 19.98 67.964 0.103 7.96 2.02 10.17
9/13/2021 4:15:00 PM 20.02 68.036 0.103 7.97 2.31 10.09
9/13/2021 4:30:00 PM 20.11 68.198 0.103 7.97 1.99 10.02
9/13/2021 4:45:00 PM 20.18 68.324 0.103 7.96 2.18 9.98
9/13/2021 5:00:00 PM 20.25 68.45 0.103 7.99 2.39 9.85
9/13/2021 5:15:00 PM 20.29 68.522 0.103 7.98 2.11 9.76
9/13/2021 5:30:00 PM 20.31 68.558 0.103 7.89 2.21 9.62
9/13/2021 5:45:00 PM 20.34 68.612 0.103 7.89 2.24 9.55
9/13/2021 6:00:00 PM 20.36 68.648 0.103 7.84 2.2 9.43
9/13/2021 6:15:00 PM 20.38 68.684 0.103 7.76 2.31 9.32
9/13/2021 6:30:00 PM 20.38 68.684 0.104 7.71 2.33 9.21
9/13/2021 6:45:00 PM 20.37 68.666 0.104 7.66 2.42 9.1
9/13/2021 7:00:00 PM 20.35 68.63 0.104 7.6 2.6 9.01
9/13/2021 7:15:00 PM 20.32 68.576 0.104 7.55 2.33 8.9
9/13/2021 7:30:00 PM 20.28 68.504 0.104 7.49 2.16 8.81
9/13/2021 7:45:00 PM 20.25 68.45 0.104 7.45 2.37 8.75
9/13/2021 8:00:00 PM 20.23 68.414 0.104 7.43 2.16 8.67
9/13/2021 8:15:00 PM 20.19 68.342 0.105 7.37 2.57 8.57
9/13/2021 8:30:00 PM 20.15 68.27 0.105 7.35 2.71 8.51
9/13/2021 8:45:00 PM 20.12 68.216 0.105 7.34 2.42 8.45
9/13/2021 9:00:00 PM 20.09 68.162 0.105 7.32 2.5 8.4
9/13/2021 9:15:00 PM 20.04 68.07201 0.105 7.3 2.46 8.4
9/13/2021 9:30:00 PM 20 68 0.105 7.29 2.32 8.37
9/13/2021 9:45:00 PM 19.97 67.946 0.105 7.27 2.35 8.34
9/13/2021 10:00:00 PM 19.94 67.892 0.106 7.26 2.38 8.33
9/13/2021 10:15:00 PM 19.9 67.82 0.106 7.25 2.35 8.33
9/13/2021 10:30:00 PM 19.86 67.748 0.106 7.24 2.4 8.33
9/13/2021 10:45:00 PM 19.82 67.676 0.106 7.22 2.58 8.31
9/13/2021 11:00:00 PM 19.79 67.622 0.107 7.21 2.61 8.27
9/13/2021 11:15:00 PM 19.74 67.532 0.107 7.2 2.39 8.29
9/13/2021 11:30:00 PM 19.72 67.496 0.106 7.22 2.4 8.28
9/13/2021 11:45:00 PM 19.7 67.46 0.106 7.2 2.47 8.27
9/14/2021 12:00:00 AM 19.66 67.388 0.106 7.19 2.41 8.32
9/14/2021 12:15:00 AM 19.62 67.316 0.107 7.21 2.36 8.34
9/14/2021 12:30:00 AM 19.59 67.262 0.107 7.2 2.47 8.35
9/14/2021 12:45:00 AM 19.56 67.208 0.107 7.21 2.47 8.36
9/14/2021 1:00:00 AM 19.54 67.172 0.107 7.19 2.41 8.35
9/14/2021 1:15:00 AM 19.5 67.1 0.107 7.19 2.5 8.37
9/14/2021 1:30:00 AM 19.46 67.028 0.107 7.19 2.43 8.37
9/14/2021 1:45:00 AM 19.43 66.974 0.107 7.2 2.45 8.38
9/14/2021 2:00:00 AM 19.4 66.92 0.107 7.2 2.71 8.38
9/14/2021 2:15:00 AM 19.38 66.884 0.107 7.2 2.49 8.38
9/14/2021 2:30:00 AM 19.35 66.83 0.107 7.2 2.38 8.41
9/14/2021 2:45:00 AM 19.34 66.812 0.107 7.21 2.33 8.39
9/14/2021 3:00:00 AM 19.31 66.758 0.107 7.21 2.57 8.42
9/14/2021 3:15:00 AM 19.29 66.722 0.107 7.21 2.29 8.42
9/14/2021 3:30:00 AM 19.27 66.686 0.108 7.19 2.43 8.4
9/14/2021 3:45:00 AM 19.24 66.632 0.108 7.19 2.28 8.44
9/14/2021 4:00:00 AM 19.22 66.596 0.108 7.21 2.31 8.44
9/14/2021 4:15:00 AM 19.2 66.56 0.108 7.21 2.21 8.44
9/14/2021 4:30:00 AM 19.19 66.542 0.108 7.2 2.59 8.4
9/14/2021 4:45:00 AM 19.16 66.488 0.108 7.2 2.41 8.43
9/14/2021 5:00:00 AM 19.14 66.452 0.108 7.19 2.41 8.44
9/14/2021 5:15:00 AM 19.13 66.434 0.108 7.2 2.76 8.45
9/14/2021 5:30:00 AM 19.1 66.38 0.108 7.22 2.36 8.47
9/14/2021 5:45:00 AM 19.08 66.344 0.108 7.22 2.46 8.48
9/14/2021 6:00:00 AM 19.06 66.308 0.108 7.21 2.74 8.49
9/14/2021 6:15:00 AM 19.04 66.272 0.108 7.21 2.62 8.48
9/14/2021 6:30:00 AM 19.01 66.218 0.108 7.21 2.61 8.48
9/14/2021 6:45:00 AM 18.99 66.182 0.108 7.2 2.67 8.49
9/14/2021 7:00:00 AM 18.98 66.164 0.109 7.2 2.71 8.45
9/14/2021 7:15:00 AM 18.95 66.11 0.108 7.2 2.62 8.5
9/14/2021 7:30:00 AM 18.93 66.074 0.108 7.2 2.64 8.5
9/14/2021 7:45:00 AM 18.92 66.056 0.108 7.2 2.49 8.51
9/14/2021 8:00:00 AM 18.9 66.02 0.108 7.21 2.6 8.53
9/14/2021 8:15:00 AM 18.88 65.984 0.109 7.21 2.3 8.55
9/14/2021 8:30:00 AM 18.87 65.966 0.109 7.22 2.44 8.61
9/14/2021 8:45:00 AM 18.85 65.93 0.108 7.26 2.56 8.71
9/14/2021 9:00:00 AM 18.85 65.93 0.109 7.25 2.49 8.7
9/14/2021 9:15:00 AM 18.85 65.93 0.108 7.24 2.59 8.71
9/14/2021 9:30:00 AM 18.85 65.93 0.108 7.28 2.53 8.86
9/14/2021 9:45:00 AM 18.86 65.948 0.108 7.29 2.73 8.93
9/14/2021 10:00:00 AM 18.87 65.966 0.108 7.3 2.38 9.01
9/14/2021 10:15:00 AM 18.89 66.002 0.108 7.32 2.38 9.1
9/14/2021 10:30:00 AM 18.92 66.056 0.108 7.33 2.41 9.23
9/14/2021 10:45:00 AM 18.99 66.182 0.108 7.36 2.4 9.35
9/14/2021 11:00:00 AM 19.1 66.38 0.107 7.41 2.2 9.54
9/14/2021 11:15:00 AM 19.18 66.524 0.107 7.43 2.31 9.65
9/14/2021 11:30:00 AM 19.25 66.65 0.107 7.49 2.2 9.74
9/14/2021 11:45:00 AM 19.34 66.812 0.107 7.48 2.16 9.77
9/14/2021 12:00:00 PM 19.5 67.1 0.106 7.55 2.19 9.9
9/14/2021 12:15:00 PM 19.6 67.28 0.106 7.6 2.24 9.98
9/14/2021 12:30:00 PM 19.71 67.478 0.106 7.61 2.45 10.02
9/14/2021 12:45:00 PM 19.8 67.64 0.106 7.66 2.23 10.08
9/14/2021 1:00:00 PM 19.96 67.92799 0.106 7.73 2.24 10.14
9/14/2021 1:15:00 PM 20.13 68.234 0.105 7.76 2.25 10.16
9/14/2021 1:30:00 PM 20.28 68.504 0.105 7.82 2.24 10.17
9/14/2021 1:45:00 PM 20.41 68.738 0.105 7.86 2.1 10.15
9/14/2021 2:00:00 PM 20.57 69.026 0.105 7.85 2.23 10.13
9/14/2021 2:15:00 PM 20.75 69.35 0.104 7.94 2.12 10.15
9/14/2021 2:30:00 PM 20.93 69.674 0.104 8.03 2.31 10.1
9/14/2021 2:45:00 PM 21.04 69.872 0.104 8.08 2.21 10.07
9/14/2021 3:00:00 PM 21.17 70.106 0.104 8.09 2.38 10.03
9/14/2021 3:15:00 PM 21.29 70.32201 0.104 8.13 2.13 10
9/14/2021 3:30:00 PM 21.35 70.43 0.104 8.19 2.17 9.96
9/14/2021 3:45:00 PM 21.37 70.466 0.104 8.23 2.35 9.88
9/14/2021 4:00:00 PM 21.38 70.484 0.104 8.14 2.21 9.81
9/14/2021 4:15:00 PM 21.43 70.574 0.103 8.16 2.42 9.71
9/14/2021 4:30:00 PM 21.47 70.646 0.103 8.21 2.34 9.68
9/14/2021 4:45:00 PM 21.49 70.682 0.103 8.2 2.38 9.63
9/14/2021 5:00:00 PM 21.51 70.718 0.103 8.17 2.25 9.55
9/14/2021 5:15:00 PM 21.5 70.7 0.103 8.07 2.32 9.45
9/14/2021 5:30:00 PM 21.49 70.682 0.103 8.07 2.38 9.36
9/14/2021 5:45:00 PM 21.45 70.61 0.103 8.04 2.32 9.28
9/14/2021 6:00:00 PM 21.44 70.592 0.104 7.97 2.48 9.21
9/14/2021 6:15:00 PM 21.41 70.538 0.104 7.89 2.43 9.11
9/14/2021 6:30:00 PM 21.35 70.43 0.104 7.82 2.47 9.02
9/14/2021 6:45:00 PM 21.3 70.34 0.104 7.78 2.4 8.91
9/14/2021 7:00:00 PM 21.26 70.268 0.104 7.71 2.41 8.82
9/14/2021 7:15:00 PM 21.2 70.16 0.104 7.61 2.26 8.72
9/14/2021 7:30:00 PM 21.13 70.034 0.104 7.56 2.28 8.64
9/14/2021 7:45:00 PM 21.07 69.926 0.104 7.52 2.46 8.54
9/14/2021 8:00:00 PM 21.02 69.836 0.104 7.45 2.38 8.47
9/14/2021 8:15:00 PM 21 69.8 0.105 7.41 2.72 8.38
9/14/2021 8:30:00 PM 20.91 69.638 0.105 7.4 2.84 8.34
9/14/2021 8:45:00 PM 20.87 69.566 0.105 7.38 3.05 8.29
9/14/2021 9:00:00 PM 20.81 69.458 0.105 7.36 2.89 8.25
9/14/2021 9:15:00 PM 20.75 69.35 0.105 7.34 2.6 8.22
9/14/2021 9:30:00 PM 20.71 69.278 0.105 7.32 2.57 8.19
9/14/2021 9:45:00 PM 20.65 69.17 0.106 7.29 2.52 8.14
9/14/2021 10:00:00 PM 20.59 69.062 0.106 7.29 2.39 8.14
9/14/2021 10:15:00 PM 20.55 68.99 0.106 7.28 2.64 8.11
9/14/2021 10:30:00 PM 20.51 68.918 0.106 7.25 2.36 8.09
9/14/2021 10:45:00 PM 20.46 68.828 0.106 7.25 2.77 8.08
9/14/2021 11:00:00 PM 20.43 68.774 0.107 7.22 2.34 8.02
9/14/2021 11:15:00 PM 20.35 68.63 0.107 7.25 3.03 8.06
9/14/2021 11:30:00 PM 20.3 68.54 0.107 7.24 2.57 8.08
9/14/2021 11:45:00 PM 20.25 68.45 0.107 7.22 2.58 8.07
9/15/2021 12:00:00 AM 20.21 68.378 0.107 7.23 2.83 8.09
9/15/2021 12:15:00 AM 20.17 68.306 0.107 7.23 2.69 8.1
9/15/2021 12:30:00 AM 20.14 68.252 0.107 7.2 2.55 8.04
9/15/2021 12:45:00 AM 20.08 68.144 0.107 7.21 2.8 8.11
9/15/2021 1:00:00 AM 20.03 68.054 0.107 7.21 2.7 8.12
9/15/2021 1:15:00 AM 19.99 67.982 0.107 7.21 2.53 8.16
9/15/2021 1:30:00 AM 19.95 67.91 0.107 7.2 2.64 8.13
9/15/2021 1:45:00 AM 19.91 67.838 0.107 7.18 2.59 8.15
9/15/2021 2:00:00 AM 19.86 67.748 0.107 7.21 2.61 8.19
9/15/2021 2:15:00 AM 19.81 67.658 0.107 7.19 2.62 8.2
9/15/2021 2:30:00 AM 19.76 67.568 0.107 7.2 2.65 8.23
9/15/2021 2:45:00 AM 19.73 67.514 0.108 7.19 2.55 8.19
9/15/2021 3:00:00 AM 19.7 67.46 0.108 7.18 2.54 8.2
9/15/2021 3:15:00 AM 19.66 67.388 0.108 7.17 2.44 8.15
9/15/2021 3:30:00 AM 19.63 67.334 0.108 7.15 2.65 8.1
9/15/2021 3:45:00 AM 19.55 67.19 0.108 7.17 2.72 8.27
9/15/2021 4:00:00 AM 19.51 67.118 0.108 7.18 2.68 8.26
9/15/2021 4:15:00 AM 19.48 67.064 0.108 7.17 2.43 8.26
9/15/2021 4:30:00 AM 19.44 66.992 0.108 7.18 2.53 8.26
9/15/2021 4:45:00 AM 19.41 66.938 0.108 7.17 2.89 8.24
9/15/2021 5:00:00 AM 19.36 66.848 0.108 7.19 2.38 8.29
9/15/2021 5:15:00 AM 19.33 66.794 0.108 7.17 2.59 8.29
9/15/2021 5:30:00 AM 19.29 66.722 0.108 7.19 2.79 8.31
9/15/2021 5:45:00 AM 19.27 66.686 0.108 7.18 2.81 8.29
9/15/2021 6:00:00 AM 19.22 66.596 0.108 7.2 2.7 8.34
9/15/2021 6:15:00 AM 19.21 66.578 0.108 7.17 2.89 8.31
9/15/2021 6:30:00 AM 19.17 66.506 0.108 7.19 2.76 8.33
9/15/2021 6:45:00 AM 19.14 66.452 0.108 7.19 3.16 8.35
9/15/2021 7:00:00 AM 19.12 66.416 0.108 7.19 2.88 8.36
9/15/2021 7:15:00 AM 19.09 66.362 0.108 7.21 2.63 8.39
9/15/2021 7:30:00 AM 19.07 66.326 0.108 7.21 2.71 8.39
9/15/2021 7:45:00 AM 19.05 66.29 0.108 7.19 2.77 8.43
9/15/2021 8:00:00 AM 19.04 66.272 0.109 7.21 2.78 8.45
9/15/2021 8:15:00 AM 19.03 66.254 0.108 7.21 2.84 8.5
9/15/2021 8:30:00 AM 19.02 66.236 0.108 7.24 2.77 8.59
9/15/2021 8:45:00 AM 19.03 66.254 0.108 7.24 2.56 8.64
9/15/2021 9:00:00 AM 19.03 66.254 0.108 7.25 2.46 8.67
9/15/2021 9:15:00 AM 19.03 66.254 0.108 7.27 2.4 8.76
9/15/2021 9:30:00 AM 19.04 66.272 0.108 7.27 2.47 8.84
9/15/2021 9:45:00 AM 19.05 66.29 0.108 7.3 2.57 8.9
9/15/2021 10:00:00 AM 19.08 66.344 0.108 7.31 2.41 9.01
9/15/2021 10:15:00 AM 19.17 66.506 0.108 7.35 2.59 9.2
9/15/2021 10:30:00 AM 19.25 66.65 0.108 7.36 2.52 9.26
9/15/2021 10:45:00 AM 19.31 66.758 0.108 7.35 2.55 9.3
9/15/2021 11:00:00 AM 19.44 66.992 0.108 7.42 2.65 9.5
9/15/2021 11:15:00 AM 19.55 67.19 0.107 7.48 2.51 9.6
9/15/2021 11:30:00 AM 19.61 67.298 0.107 7.49 2.6 9.66
9/15/2021 11:45:00 AM 19.75 67.55 0.107 7.54 2.61 9.74
9/15/2021 12:00:00 PM 19.92 67.856 0.107 7.57 2.48 9.84
9/15/2021 12:15:00 PM 20.05 68.09 0.107 7.63 2.41 9.89
9/15/2021 12:30:00 PM 20.1 68.18 0.106 7.66 2.38 9.87
9/15/2021 12:45:00 PM 20.16 68.288 0.106 7.67 2.93 9.89
9/15/2021 1:00:00 PM 20.25 68.45 0.106 7.74 3.49 9.95
9/15/2021 1:15:00 PM 20.32 68.576 0.106 7.77 2.15 9.96
9/15/2021 1:30:00 PM 20.46 68.828 0.105 7.8 3.17 9.96
9/15/2021 1:45:00 PM 20.54 68.972 0.105 7.83 2.16 9.88
9/15/2021 2:00:00 PM 20.58 69.044 0.105 7.79 2.16 9.68
9/15/2021 2:15:00 PM 20.61 69.098 0.105 7.7 2.32 9.4
9/15/2021 2:30:00 PM 20.61 69.098 0.105 7.68 2.1 9.32
9/15/2021 2:45:00 PM 20.64 69.152 0.105 7.65 2.28 9.2
9/15/2021 3:00:00 PM 20.68 69.224 0.105 7.68 2.1 9.28
9/15/2021 3:15:00 PM 20.75 69.35 0.104 7.72 2.04 9.36
9/15/2021 3:30:00 PM 20.76 69.368 0.104 7.69 2.15 9.27
9/15/2021 3:45:00 PM 20.82 69.476 0.104 7.73 2.16 9.26
9/15/2021 4:00:00 PM 20.84 69.512 0.104 7.69 5.86 9.2
9/15/2021 4:15:00 PM 20.86 69.548 0.104 7.7 2.04 9.23
9/15/2021 4:30:00 PM 20.85 69.53 0.104 7.7 2.17 9.22
9/15/2021 4:45:00 PM 20.82 69.476 0.104 7.67 1.94 9.15
9/15/2021 5:00:00 PM 20.78 69.404 0.104 7.63 2.17 9.09
9/15/2021 5:15:00 PM 20.77 69.386 0.104 7.63 1.99 9.1
9/15/2021 5:30:00 PM 20.74 69.332 0.104 7.62 2.22 9.11
9/15/2021 5:45:00 PM 20.71 69.278 0.104 7.6 2.19 9.04
9/15/2021 6:00:00 PM 20.68 69.224 0.104 7.55 2.14 8.92
9/15/2021 6:15:00 PM 20.67 69.206 0.104 7.54 2.06 8.89
9/15/2021 6:30:00 PM 20.67 69.206 0.104 7.51 2.06 8.83
9/15/2021 6:45:00 PM 20.66 69.188 0.104 7.48 2.15 8.75
9/15/2021 7:00:00 PM 20.65 69.17 0.104 7.46 1.95 8.69
9/15/2021 7:15:00 PM 20.61 69.098 0.104 7.42 2.03 8.57
9/15/2021 7:30:00 PM 20.57 69.026 0.104 7.4 1.95 8.54
9/15/2021 7:45:00 PM 20.53 68.954 0.104 7.39 2.31 8.49
9/15/2021 8:00:00 PM 20.49 68.882 0.104 7.35 2.31 8.41
9/15/2021 8:15:00 PM 20.43 68.774 0.104 7.37 2.19 8.4
9/15/2021 8:30:00 PM 20.38 68.684 0.105 7.32 2.45 8.35
9/15/2021 8:45:00 PM 20.33 68.594 0.105 7.33 2.06 8.33
9/15/2021 9:00:00 PM 20.28 68.504 0.104 7.34 2.26 8.31
9/15/2021 9:15:00 PM 20.27 68.486 0.105 7.3 2.45 8.23
9/15/2021 9:30:00 PM 20.23 68.414 0.105 7.29 2.6 8.21
9/15/2021 9:45:00 PM 20.18 68.324 0.105 7.26 2.46 8.19
9/15/2021 10:00:00 PM 20.13 68.234 0.105 7.25 2.5 8.15
9/15/2021 10:15:00 PM 20.09 68.162 0.105 7.24 3.72 8.15
9/15/2021 10:30:00 PM 20.03 68.054 0.105 7.25 2.9 8.17
9/15/2021 10:45:00 PM 19.99 67.982 0.105 7.22 2.71 8.12
9/15/2021 11:00:00 PM 19.93 67.874 0.105 7.25 2.5 8.2
9/15/2021 11:15:00 PM 19.91 67.838 0.105 7.21 2.61 8.16
9/15/2021 11:30:00 PM 19.86 67.748 0.105 7.22 2.3 8.17
9/15/2021 11:45:00 PM 19.82 67.676 0.105 7.22 3.02 8.16
9/16/2021 12:00:00 AM 19.79 67.622 0.105 7.19 3.22 8.13
9/16/2021 12:15:00 AM 19.76 67.568 0.105 7.2 2.46 8.12
9/16/2021 12:30:00 AM 19.72 67.496 0.105 7.2 2.9 8.14
9/16/2021 12:45:00 AM 19.69 67.442 0.105 7.21 2.65 8.16
9/16/2021 1:00:00 AM 19.66 67.388 0.105 7.19 2.5 8.17
9/16/2021 1:15:00 AM 19.62 67.316 0.105 7.22 2.81 8.24
9/16/2021 1:30:00 AM 19.6 67.28 0.106 7.22 2.64 8.22
9/16/2021 1:45:00 AM 19.55 67.19 0.106 7.22 2.44 8.26
9/16/2021 2:00:00 AM 19.5 67.1 0.106 7.23 2.57 8.26
9/16/2021 2:15:00 AM 19.46 67.028 0.106 7.23 2.57 8.26
9/16/2021 2:30:00 AM 19.42 66.956 0.107 7.23 2.94 8.3
9/16/2021 2:45:00 AM 19.38 66.884 0.107 7.24 2.87 8.33
9/16/2021 3:00:00 AM 19.36 66.848 0.108 7.22 3.38 8.28
9/16/2021 3:15:00 AM 19.31 66.758 0.109 7.24 3.69 8.31
9/16/2021 3:30:00 AM 19.28 66.704 0.109 7.25 3.52 8.33
9/16/2021 3:45:00 AM 19.24 66.632 0.109 7.26 3.8 8.36
9/16/2021 4:00:00 AM 19.2 66.56 0.109 7.26 3.07 8.38
9/16/2021 4:15:00 AM 19.17 66.506 0.109 7.25 3.34 8.36
9/16/2021 4:30:00 AM 19.13 66.434 0.109 7.26 2.82 8.39
9/16/2021 4:45:00 AM 19.1 66.38 0.109 7.25 3.04 8.38
9/16/2021 5:00:00 AM 19.07 66.326 0.109 7.25 3.32 8.38
9/16/2021 5:15:00 AM 19.03 66.254 0.109 7.27 3.41 8.42
9/16/2021 5:30:00 AM 19 66.2 0.11 7.25 3.11 8.41
9/16/2021 5:45:00 AM 18.97 66.146 0.109 7.24 3.06 8.43
9/16/2021 6:00:00 AM 18.93 66.074 0.109 7.26 3.08 8.45
9/16/2021 6:15:00 AM 18.9 66.02 0.109 7.24 3.48 8.43
9/16/2021 6:30:00 AM 18.88 65.984 0.109 7.25 3.28 8.45
9/16/2021 6:45:00 AM 18.83 65.894 0.109 7.25 4.79 8.49
9/16/2021 7:00:00 AM 18.8 65.84 0.109 7.27 2.92 8.5
9/16/2021 7:15:00 AM 18.77 65.786 0.109 7.26 2.91 8.52
9/16/2021 7:30:00 AM 18.75 65.75 0.109 7.25 2.78 8.47
9/16/2021 7:45:00 AM 18.71 65.67799 0.11 7.27 2.89 8.55
9/16/2021 8:00:00 AM 18.69 65.642 0.11 7.24 3.11 8.54
9/16/2021 8:15:00 AM 18.67 65.606 0.11 7.24 3.02 8.53
9/16/2021 8:30:00 AM 18.64 65.552 0.11 7.26 2.89 8.59
9/16/2021 8:45:00 AM 18.61 65.498 0.11 7.29 3.57 8.7
9/16/2021 9:00:00 AM 18.61 65.498 0.111 7.25 2.75 8.65
9/16/2021 9:15:00 AM 18.61 65.498 0.111 7.26 2.92 8.65
9/16/2021 9:30:00 AM 18.6 65.48 0.112 7.25 2.87 8.71
9/16/2021 9:45:00 AM 18.59 65.462 0.111 7.31 2.81 8.9
9/16/2021 10:00:00 AM 18.58 65.444 0.111 7.36 2.75 9.07
9/16/2021 10:15:00 AM 18.58 65.444 0.111 7.36 2.88 9.1
9/16/2021 10:30:00 AM 18.59 65.462 0.111 7.33 2.54 9.09
9/16/2021 10:45:00 AM 18.59 65.462 0.112 7.32 2.7 9.06
9/16/2021 11:00:00 AM 18.59 65.462 0.111 7.31 2.69 9.12
9/16/2021 11:15:00 AM 18.6 65.48 0.111 7.38 3.05 9.27
9/16/2021 11:30:00 AM 18.62 65.516 0.111 7.42 2.56 9.39
9/16/2021 11:45:00 AM 18.63 65.534 0.111 7.41 2.53 9.45
9/16/2021 12:00:00 PM 18.65 65.57 0.111 7.42 2.52 9.48
9/16/2021 12:15:00 PM 18.69 65.642 0.11 7.46 2.64 9.56
9/16/2021 12:30:00 PM 18.7 65.66 0.112 7.44 2.61 9.56
9/16/2021 12:45:00 PM 18.72 65.696 0.111 7.44 2.49 9.59
9/16/2021 1:00:00 PM 18.75 65.75 0.109 7.5 2.45 9.65
9/16/2021 1:15:00 PM 18.79 65.82201 0.109 7.54 2.23 9.73
9/16/2021 1:30:00 PM 18.83 65.894 0.108 7.56 2.43 9.78
9/16/2021 1:45:00 PM 18.85 65.93 0.109 7.51 2.37 9.69
9/16/2021 2:00:00 PM 18.9 66.02 0.108 7.57 2.45 9.82
9/16/2021 2:15:00 PM 18.93 66.074 0.108 7.53 2.56 9.78
9/16/2021 2:30:00 PM 18.99 66.182 0.108 7.6 2.31 9.87
9/16/2021 2:45:00 PM 19.06 66.308 0.107 7.63 2.27 9.93
9/16/2021 3:00:00 PM 19.13 66.434 0.107 7.68 2.43 9.97
9/16/2021 3:15:00 PM 19.18 66.524 0.107 7.68 26.29 9.99
9/16/2021 3:30:00 PM 19.26 66.668 0.106 7.78 24.29 10.05
9/16/2021 3:45:00 PM 19.33 66.794 0.106 7.8 4.98 10.03
9/16/2021 4:00:00 PM 19.41 66.938 0.106 7.78 2.12 10.05
9/16/2021 4:15:00 PM 19.5 67.1 0.107 7.75 2.12 10.01
9/16/2021 4:30:00 PM 19.58 67.244 0.107 7.7 3.6 9.96
9/16/2021 4:45:00 PM 19.64 67.352 0.106 7.78 2.13 9.97
9/16/2021 5:00:00 PM 19.68 67.424 0.107 7.73 2.66 9.94
9/16/2021 5:15:00 PM 19.73 67.514 0.106 7.75 2.04 9.8
9/16/2021 5:30:00 PM 19.73 67.514 0.107 7.7 2.04 9.74
9/16/2021 5:45:00 PM 19.73 67.514 0.108 7.65 2.01 9.61
9/16/2021 6:00:00 PM 19.72 67.496 0.107 7.61 2.02 9.47
9/16/2021 6:15:00 PM 19.71 67.478 0.107 7.58 2.09 9.38
9/16/2021 6:30:00 PM 19.71 67.478 0.106 7.58 2.06 9.2
9/16/2021 6:45:00 PM 19.73 67.514 0.106 7.56 2.05 9.08
9/16/2021 7:00:00 PM 19.75 67.55 0.106 7.52 1.92 8.98
9/16/2021 7:15:00 PM 19.77 67.586 0.106 7.49 2.03 8.89
9/16/2021 7:30:00 PM 19.78 67.604 0.107 7.47 2.18 8.8
9/16/2021 7:45:00 PM 19.8 67.64 0.107 7.45 2.09 8.74
9/16/2021 8:00:00 PM 19.79 67.622 0.107 7.43 2.16 8.66
9/16/2021 8:15:00 PM 19.78 67.604 0.108 7.39 2.14 8.56
9/16/2021 8:30:00 PM 19.75 67.55 0.108 7.34 2.12 8.53
9/16/2021 8:45:00 PM 19.71 67.478 0.108 7.36 2.3 8.49
9/16/2021 9:00:00 PM 19.64 67.352 0.109 7.33 2.16 8.49
9/16/2021 9:15:00 PM 19.58 67.244 0.109 7.33 2.3 8.47
9/16/2021 9:30:00 PM 19.53 67.154 0.109 7.32 2.36 8.46
9/16/2021 9:45:00 PM 19.5 67.1 0.109 7.3 2.12 8.43
9/16/2021 10:00:00 PM 19.48 67.064 0.11 7.24 2.11 8.31
9/16/2021 10:15:00 PM 19.44 66.992 0.11 7.24 2.01 8.33
9/16/2021 10:30:00 PM 19.4 66.92 0.11 7.26 2.08 8.38
9/16/2021 10:45:00 PM 19.38 66.884 0.11 7.27 2.02 8.39
9/16/2021 11:00:00 PM 19.37 66.866 0.11 7.26 2.15 8.4
9/16/2021 11:15:00 PM 19.36 66.848 0.11 7.25 2.07 8.4
9/16/2021 11:30:00 PM 19.35 66.83 0.11 7.25 2.09 8.39
9/16/2021 11:45:00 PM 19.35 66.83 0.11 7.23 2.26 8.3
9/17/2021 12:00:00 AM 19.34 66.812 0.111 7.21 2.25 8.3
9/17/2021 12:15:00 AM 19.32 66.776 0.111 7.23 2.1 8.34
9/17/2021 12:30:00 AM 19.31 66.758 0.111 7.23 2.1 8.36
9/17/2021 12:45:00 AM 19.3 66.74 0.111 7.22 2.32 8.34
9/17/2021 1:00:00 AM 19.29 66.722 0.111 7.21 2.16 8.31
9/17/2021 1:15:00 AM 19.26 66.668 0.111 7.22 2.25 8.37
9/17/2021 1:30:00 AM 19.26 66.668 0.111 7.22 2.5 8.35
9/17/2021 1:45:00 AM 19.23 66.614 0.111 7.23 2.77 8.4
9/17/2021 2:00:00 AM 19.21 66.578 0.111 7.21 2.66 8.39
9/17/2021 2:15:00 AM 19.19 66.542 0.111 7.24 2.37 8.42
9/17/2021 2:30:00 AM 19.19 66.542 0.111 7.22 2.31 8.39
9/17/2021 2:45:00 AM 19.16 66.488 0.111 7.21 2.86 8.4
9/17/2021 3:00:00 AM 19.15 66.47 0.111 7.23 2.79 8.41
9/17/2021 3:15:00 AM 19.14 66.452 0.111 7.23 2.38 8.39
9/17/2021 3:30:00 AM 19.12 66.416 0.112 7.22 2.6 8.4
9/17/2021 3:45:00 AM 19.1 66.38 0.112 7.2 2.52 8.41
9/17/2021 4:00:00 AM 19.08 66.344 0.112 7.22 2.53 8.42
9/17/2021 4:15:00 AM 19.06 66.308 0.112 7.22 2.46 8.43
9/17/2021 4:30:00 AM 19.04 66.272 0.112 7.19 2.25 8.39
9/17/2021 4:45:00 AM 19.01 66.218 0.112 7.2 2.47 8.42
9/17/2021 5:00:00 AM 18.98 66.164 0.112 7.22 2.55 8.45
9/17/2021 5:15:00 AM 18.98 66.164 0.112 7.21 2.37 8.41
9/17/2021 5:30:00 AM 18.96 66.128 0.112 7.2 2.39 8.4
9/17/2021 5:45:00 AM 18.93 66.074 0.112 7.23 2.39 8.48
9/17/2021 6:00:00 AM 18.92 66.056 0.112 7.23 2.41 8.47
9/17/2021 6:15:00 AM 18.91 66.038 0.112 7.22 2.5 8.45
9/17/2021 6:30:00 AM 18.89 66.002 0.112 7.23 2.34 8.46
9/17/2021 6:45:00 AM 18.87 65.966 0.112 7.23 2.29 8.48
9/17/2021 7:00:00 AM 18.86 65.948 0.112 7.22 2.48 8.49
9/17/2021 7:15:00 AM 18.85 65.93 0.112 7.21 2.54 8.47
9/17/2021 7:30:00 AM 18.84 65.912 0.113 7.21 2.24 8.47
9/17/2021 7:45:00 AM 18.82 65.876 0.112 7.23 2.28 8.54
9/17/2021 8:00:00 AM 18.81 65.858 0.113 7.21 2.97 8.53
9/17/2021 8:15:00 AM 18.81 65.858 0.112 7.23 2.36 8.56
9/17/2021 8:30:00 AM 18.81 65.858 0.112 7.25 2.32 8.65
9/17/2021 8:45:00 AM 18.82 65.876 0.112 7.24 2.44 8.67
9/17/2021 9:00:00 AM 18.82 65.876 0.112 7.25 2.37 8.72
9/17/2021 9:15:00 AM 18.82 65.876 0.112 7.27 2.35 8.75
9/17/2021 9:30:00 AM 18.83 65.894 0.112 7.27 2.3 8.84
9/17/2021 9:45:00 AM 18.83 65.894 0.112 7.29 2.16 8.84
9/17/2021 10:00:00 AM 18.84 65.912 0.112 7.29 2.09 8.86
9/17/2021 10:15:00 AM 18.86 65.948 0.112 7.3 2.07 8.97
9/17/2021 10:30:00 AM 18.88 65.984 0.112 7.31 2.15 9.05
9/17/2021 10:45:00 AM 18.93 66.074 0.111 7.36 2.17 9.2
9/17/2021 11:00:00 AM 18.96 66.128 0.111 7.37 2.22 9.26
9/17/2021 11:15:00 AM 18.97 66.146 0.111 7.38 2.23 9.25
9/17/2021 11:30:00 AM 18.99 66.182 0.111 7.37 2.09 9.3
9/17/2021 11:45:00 AM 19.09 66.362 0.111 7.4 1.96 9.43
9/17/2021 12:00:00 PM 19.12 66.416 0.111 7.44 2.05 9.49
9/17/2021 12:15:00 PM 19.16 66.488 0.111 7.46 2.08 9.56
9/17/2021 12:30:00 PM 19.21 66.578 0.11 7.48 2.12 9.62
9/17/2021 12:45:00 PM 19.25 66.65 0.11 7.51 1.95 9.69
9/17/2021 1:00:00 PM 19.28 66.704 0.11 7.53 2.11 9.68
9/17/2021 1:15:00 PM 19.32 66.776 0.11 7.5 2.11 9.68
9/17/2021 1:30:00 PM 19.4 66.92 0.11 7.55 2.04 9.78
9/17/2021 1:45:00 PM 19.45 67.01 0.11 7.57 2.02 9.8
9/17/2021 2:00:00 PM 19.5 67.1 0.11 7.57 2.26 9.81
9/17/2021 2:15:00 PM 19.53 67.154 0.109 7.6 2.48 9.77
9/17/2021 2:30:00 PM 19.56 67.208 0.109 7.6 2.03 9.66
9/17/2021 2:45:00 PM 19.63 67.334 0.109 7.59 2.03 9.66
9/17/2021 3:00:00 PM 19.73 67.514 0.109 7.63 1.99 9.75
9/17/2021 3:15:00 PM 19.9 67.82 0.109 7.67 2.06 9.84
9/17/2021 3:30:00 PM 20.04 68.07201 0.109 7.73 2.07 9.91
9/17/2021 3:45:00 PM 20.12 68.216 0.109 7.69 2.07 9.9
9/17/2021 4:00:00 PM 20.21 68.378 0.109 7.75 2.11 9.86
9/17/2021 4:15:00 PM 20.3 68.54 0.109 7.77 2.3 9.87
9/17/2021 4:30:00 PM 20.4 68.72 0.109 7.79 2.5 9.8
9/17/2021 4:45:00 PM 20.47 68.846 0.108 7.83 2.29 9.8
9/17/2021 5:00:00 PM 20.51 68.918 0.109 7.79 2.3 9.72
9/17/2021 5:15:00 PM 20.51 68.918 0.108 7.76 2.17 9.58
9/17/2021 5:30:00 PM 20.53 68.954 0.109 7.72 2.05 9.48
9/17/2021 5:45:00 PM 20.51 68.918 0.109 7.69 2.42 9.34
9/17/2021 6:00:00 PM 20.48 68.864 0.109 7.66 2.37 9.2
9/17/2021 6:15:00 PM 20.46 68.828 0.109 7.6 2.08 9.09
9/17/2021 6:30:00 PM 20.46 68.828 0.109 7.57 2.16 9
9/17/2021 6:45:00 PM 20.46 68.828 0.109 7.58 2.08 8.94
9/17/2021 7:00:00 PM 20.46 68.828 0.109 7.54 2.22 8.84
9/17/2021 7:15:00 PM 20.46 68.828 0.109 7.5 2.22 8.73
9/17/2021 7:30:00 PM 20.44 68.792 0.109 7.46 2.25 8.64
9/17/2021 7:45:00 PM 20.43 68.774 0.109 7.45 2.18 8.58
9/17/2021 8:00:00 PM 20.4 68.72 0.109 7.4 2.27 8.52
9/17/2021 8:15:00 PM 20.37 68.666 0.109 7.41 2.22 8.47
9/17/2021 8:30:00 PM 20.34 68.612 0.11 7.37 2.11 8.39
9/17/2021 8:45:00 PM 20.28 68.504 0.11 7.36 2.05 8.38
9/17/2021 9:00:00 PM 20.24 68.432 0.11 7.35 2.1 8.35
9/17/2021 9:15:00 PM 20.16 68.288 0.11 7.34 2.17 8.35
9/17/2021 9:30:00 PM 20.1 68.18 0.11 7.33 2.18 8.32
9/17/2021 9:45:00 PM 20.02 68.036 0.11 7.31 2.28 8.3
9/17/2021 10:00:00 PM 19.99 67.982 0.111 7.29 2.5 8.25
9/17/2021 10:15:00 PM 19.87 67.766 0.111 7.29 2.1 8.28
9/17/2021 10:30:00 PM 19.8 67.64 0.111 7.28 2.3 8.29
9/17/2021 10:45:00 PM 19.74 67.532 0.111 7.27 2.27 8.27
9/17/2021 11:00:00 PM 19.69 67.442 0.111 7.26 2.16 8.28
9/17/2021 11:15:00 PM 19.63 67.334 0.111 7.26 2.56 8.28
9/17/2021 11:30:00 PM 19.6 67.28 0.111 7.22 2.17 8.27
9/17/2021 11:45:00 PM 19.56 67.208 0.111 7.25 2.25 8.25
9/18/2021 12:00:00 AM 19.51 67.118 0.111 7.25 2.22 8.29
9/18/2021 12:15:00 AM 19.49 67.082 0.111 7.24 2.39 8.25
9/18/2021 12:30:00 AM 19.46 67.028 0.111 7.22 2.13 8.27
9/18/2021 12:45:00 AM 19.44 66.992 0.112 7.21 2.34 8.26
9/18/2021 1:00:00 AM 19.42 66.956 0.112 7.22 2.18 8.26
9/18/2021 1:15:00 AM 19.4 66.92 0.112 7.22 2.41 8.27
9/18/2021 1:30:00 AM 19.37 66.866 0.112 7.24 2.25 8.3
9/18/2021 1:45:00 AM 19.35 66.83 0.112 7.22 2.45 8.29
9/18/2021 2:00:00 AM 19.33 66.794 0.112 7.21 2.33 8.29
9/18/2021 2:15:00 AM 19.33 66.794 0.113 7.21 2.39 8.23
9/18/2021 2:30:00 AM 19.29 66.722 0.112 7.25 2.95 8.34
9/18/2021 2:45:00 AM 19.27 66.686 0.113 7.23 2.49 8.32
9/18/2021 3:00:00 AM 19.26 66.668 0.113 7.24 2.32 8.34
9/18/2021 3:15:00 AM 19.24 66.632 0.113 7.24 2.41 8.34
9/18/2021 3:30:00 AM 19.22 66.596 0.113 7.24 2.73 8.35
9/18/2021 3:45:00 AM 19.21 66.578 0.113 7.21 2.4 8.33
9/18/2021 4:00:00 AM 19.19 66.542 0.113 7.23 2.41 8.36
9/18/2021 4:15:00 AM 19.18 66.524 0.113 7.24 2.68 8.35
9/18/2021 4:30:00 AM 19.16 66.488 0.113 7.24 2.82 8.35
9/18/2021 4:45:00 AM 19.15 66.47 0.113 7.21 2.66 8.36
9/18/2021 5:00:00 AM 19.13 66.434 0.113 7.24 2.7 8.35
9/18/2021 5:15:00 AM 19.12 66.416 0.113 7.24 2.62 8.36
9/18/2021 5:30:00 AM 19.1 66.38 0.113 7.22 2.54 8.38
9/18/2021 5:45:00 AM 19.08 66.344 0.113 7.25 2.72 8.39
9/18/2021 6:00:00 AM 19.07 66.326 0.114 7.24 2.56 8.37
9/18/2021 6:15:00 AM 19.05 66.29 0.113 7.24 2.43 8.4
9/18/2021 6:30:00 AM 19.04 66.272 0.113 7.24 2.44 8.37
9/18/2021 6:45:00 AM 19.01 66.218 0.113 7.25 2.6 8.4
9/18/2021 7:00:00 AM 19 66.2 0.114 7.21 2.75 8.39
9/18/2021 7:15:00 AM 18.98 66.164 0.113 7.25 3.63 8.39
9/18/2021 7:30:00 AM 18.98 66.164 0.113 7.24 2.32 8.4
9/18/2021 7:45:00 AM 18.96 66.128 0.114 7.24 3.45 8.43
9/18/2021 8:00:00 AM 18.94 66.092 0.113 7.24 2.21 8.43
9/18/2021 8:15:00 AM 18.93 66.074 0.113 7.27 2.51 8.51
9/18/2021 8:30:00 AM 18.94 66.092 0.113 7.23 2.3 8.56
9/18/2021 8:45:00 AM 18.95 66.11 0.113 7.28 2.21 8.68
9/18/2021 9:00:00 AM 18.97 66.146 0.113 7.3 2.29 8.81
9/18/2021 9:15:00 AM 18.98 66.164 0.113 7.3 2.06 8.85
9/18/2021 9:30:00 AM 18.98 66.164 0.113 7.29 2.35 8.82
9/18/2021 9:45:00 AM 18.97 66.146 0.113 7.32 2.19 8.85
9/18/2021 10:00:00 AM 18.99 66.182 0.113 7.32 2.21 8.93
9/18/2021 10:15:00 AM 19.02 66.236 0.113 7.36 2.07 9.07
9/18/2021 10:30:00 AM 19.08 66.344 0.113 7.39 1.98 9.19
9/18/2021 10:45:00 AM 19.15 66.47 0.113 7.39 2.02 9.32
9/18/2021 11:00:00 AM 19.28 66.704 0.112 7.44 2.04 9.45
9/18/2021 11:15:00 AM 19.41 66.938 0.112 7.46 2.18 9.51
9/18/2021 11:30:00 AM 19.54 67.172 0.112 7.5 2.09 9.57
9/18/2021 11:45:00 AM 19.67 67.406 0.112 7.53 2 9.64
9/18/2021 12:00:00 PM 19.77 67.586 0.112 7.51 1.78 9.62
9/18/2021 12:15:00 PM 19.95 67.91 0.112 7.52 1.83 9.73
9/18/2021 12:30:00 PM 20.07 68.126 0.112 7.59 1.99 9.78
9/18/2021 12:45:00 PM 20.16 68.288 0.112 7.57 2.46 9.75
9/18/2021 1:00:00 PM 20.35 68.63 0.111 7.63 2.02 9.79
9/18/2021 1:15:00 PM 20.5 68.9 0.111 7.66 2.03 9.81
9/18/2021 1:30:00 PM 20.67 69.206 0.111 7.68 1.8 9.85
9/18/2021 1:45:00 PM 20.82 69.476 0.111 7.71 1.88 9.86
9/18/2021 2:00:00 PM 20.94 69.692 0.111 7.72 1.84 9.86
9/18/2021 2:15:00 PM 21.14 70.052 0.111 7.77 1.9 9.84
9/18/2021 2:30:00 PM 21.25 70.25 0.11 7.8 1.71 9.82
9/18/2021 2:45:00 PM 21.47 70.646 0.11 7.82 1.92 9.81
9/18/2021 3:00:00 PM 21.59 70.862 0.11 7.82 1.97 9.76
9/18/2021 3:15:00 PM 21.74 71.132 0.11 7.84 14.22 9.73
9/18/2021 3:30:00 PM 21.84 71.312 0.11 7.82 2.24 9.61
9/18/2021 3:45:00 PM 21.97 71.546 0.11 7.84 2.12 9.56
9/18/2021 4:00:00 PM 22.09 71.762 0.11 7.87 1.94 9.54
9/18/2021 4:15:00 PM 22.14 71.852 0.11 7.89 1.83 9.45
9/18/2021 4:30:00 PM 22.17 71.906 0.11 7.86 1.91 9.37
9/18/2021 4:45:00 PM 22.21 71.978 0.11 7.84 1.83 9.29
9/18/2021 5:00:00 PM 22.23 72.014 0.11 7.83 1.86 9.23
9/18/2021 5:15:00 PM 22.23 72.014 0.11 7.82 1.88 9.15
9/18/2021 5:30:00 PM 22.19 71.942 0.11 7.79 1.95 9.02
9/18/2021 5:45:00 PM 22.13 71.834 0.11 7.69 1.85 8.85
9/18/2021 6:00:00 PM 22.08 71.744 0.11 7.7 2.04 8.82
9/18/2021 6:15:00 PM 22.01 71.618 0.11 7.64 1.84 8.72
9/18/2021 6:30:00 PM 21.94 71.492 0.11 7.61 1.95 8.63
9/18/2021 6:45:00 PM 21.88 71.384 0.11 7.57 1.79 8.54
9/18/2021 7:00:00 PM 21.78 71.204 0.11 7.54 1.91 8.45
9/18/2021 7:15:00 PM 21.71 71.078 0.11 7.5 1.98 8.38
9/18/2021 7:30:00 PM 21.65 70.97 0.11 7.45 2.1 8.3
9/18/2021 7:45:00 PM 21.56 70.808 0.11 7.45 2.07 8.26
9/18/2021 8:00:00 PM 21.5 70.7 0.11 7.43 2.08 8.21
9/18/2021 8:15:00 PM 21.45 70.61 0.11 7.4 1.95 8.15
9/18/2021 8:30:00 PM 21.38 70.484 0.11 7.37 2.29 8.1
9/18/2021 8:45:00 PM 21.32 70.376 0.11 7.36 2.13 8.07
9/18/2021 9:00:00 PM 21.26 70.268 0.11 7.34 2.2 8.05
9/18/2021 9:15:00 PM 21.2 70.16 0.11 7.33 2.27 8.04
9/18/2021 9:30:00 PM 21.12 70.016 0.111 7.31 2.1 8.01
9/18/2021 9:45:00 PM 21.07 69.926 0.111 7.31 2.21 7.99
9/18/2021 10:00:00 PM 21.01 69.818 0.111 7.28 2.32 8.02
9/18/2021 10:15:00 PM 20.96 69.728 0.111 7.29 2.19 7.95
9/18/2021 10:30:00 PM 20.89 69.602 0.111 7.28 2.13 7.96
9/18/2021 10:45:00 PM 20.83 69.494 0.111 7.28 2.2 7.98
9/18/2021 11:00:00 PM 20.77 69.386 0.111 7.27 1.97 7.96
9/18/2021 11:15:00 PM 20.71 69.278 0.111 7.27 2.23 7.98
9/18/2021 11:30:00 PM 20.67 69.206 0.111 7.26 2.17 7.96
9/18/2021 11:45:00 PM 20.6 69.08 0.111 7.25 1.99 7.99
9/19/2021 12:00:00 AM 20.54 68.972 0.111 7.25 2.2 8
9/19/2021 12:15:00 AM 20.48 68.864 0.111 7.23 1.99 7.98
9/19/2021 12:30:00 AM 20.42 68.756 0.111 7.23 2.26 7.99
9/19/2021 12:45:00 AM 20.37 68.666 0.112 7.23 2.09 7.98
9/19/2021 1:00:00 AM 20.32 68.576 0.111 7.24 2.21 8
9/19/2021 1:15:00 AM 20.25 68.45 0.111 7.23 2.22 8.05
9/19/2021 1:30:00 AM 20.21 68.378 0.112 7.23 2.47 8.02
9/19/2021 1:45:00 AM 20.17 68.306 0.112 7.23 2.28 8.02
9/19/2021 2:00:00 AM 20.14 68.252 0.112 7.2 2.24 8.01
9/19/2021 2:15:00 AM 20.09 68.162 0.112 7.23 2.37 8.02
9/19/2021 2:30:00 AM 20.05 68.09 0.112 7.23 2.34 8.03
9/19/2021 2:45:00 AM 20.01 68.018 0.112 7.22 2.28 8.04
9/19/2021 3:00:00 AM 19.93 67.874 0.112 7.24 2.28 8.11
9/19/2021 3:15:00 AM 19.87 67.766 0.112 7.24 2.28 8.12
9/19/2021 3:30:00 AM 19.82 67.676 0.112 7.24 2.26 8.12
9/19/2021 3:45:00 AM 19.76 67.568 0.112 7.21 2.65 8.15
9/19/2021 4:00:00 AM 19.68 67.424 0.112 7.25 2.34 8.18
9/19/2021 4:15:00 AM 19.61 67.298 0.112 7.21 2.58 8.17
9/19/2021 4:30:00 AM 19.54 67.172 0.112 7.24 2.66 8.21
9/19/2021 4:45:00 AM 19.48 67.064 0.112 7.2 2.29 8.18
9/19/2021 5:00:00 AM 19.39 66.902 0.112 7.23 2.84 8.23
9/19/2021 5:15:00 AM 19.32 66.776 0.112 7.2 2.23 8.23
9/19/2021 5:30:00 AM 19.25 66.65 0.112 7.21 2.34 8.24
9/19/2021 5:45:00 AM 19.19 66.542 0.113 7.22 2.7 8.24
9/19/2021 6:00:00 AM 19.13 66.434 0.112 7.23 2.71 8.29
9/19/2021 6:15:00 AM 19.07 66.326 0.112 7.22 3.27 8.33
9/19/2021 6:30:00 AM 19.01 66.218 0.113 7.24 2.44 8.32
9/19/2021 6:45:00 AM 18.96 66.128 0.113 7.22 2.48 8.3
9/19/2021 7:00:00 AM 18.9 66.02 0.112 7.21 4.54 8.34
9/19/2021 7:15:00 AM 18.83 65.894 0.113 7.25 2.18 8.38
9/19/2021 7:30:00 AM 18.78 65.804 0.112 7.24 2.13 8.39
9/19/2021 7:45:00 AM 18.73 65.714 0.113 7.24 1.99 8.43
9/19/2021 8:00:00 AM 18.67 65.606 0.113 7.26 1.94 8.51
9/19/2021 8:15:00 AM 18.64 65.552 0.113 7.24 1.98 8.51
9/19/2021 8:30:00 AM 18.59 65.462 0.113 7.27 2.05 8.65
9/19/2021 8:45:00 AM 18.56 65.408 0.113 7.28 2.16 8.72
9/19/2021 9:00:00 AM 18.55 65.39 0.112 7.31 2.03 8.82
9/19/2021 9:15:00 AM 18.53 65.354 0.112 7.31 2.09 8.9
9/19/2021 9:30:00 AM 18.51 65.318 0.112 7.32 2.21 8.98
9/19/2021 9:45:00 AM 18.48 65.264 0.112 7.33 1.91 9.01
9/19/2021 10:00:00 AM 18.45 65.21 0.112 7.35 2.09 9.08
9/19/2021 10:15:00 AM 18.44 65.192 0.112 7.35 2.04 9.12
9/19/2021 10:30:00 AM 18.44 65.192 0.112 7.39 2.11 9.25
9/19/2021 10:45:00 AM 18.46 65.228 0.112 7.41 1.83 9.34
9/19/2021 11:00:00 AM 18.51 65.318 0.112 7.43 1.98 9.4
9/19/2021 11:15:00 AM 18.68 65.624 0.112 7.47 1.85 9.6
9/19/2021 11:30:00 AM 18.78 65.804 0.111 7.49 2.15 9.69
9/19/2021 11:45:00 AM 18.88 65.984 0.112 7.48 1.97 9.72
9/19/2021 12:00:00 PM 18.95 66.11 0.111 7.54 2.06 9.79
9/19/2021 12:15:00 PM 19.12 66.416 0.111 7.56 2.07 9.85
9/19/2021 12:30:00 PM 19.27 66.686 0.111 7.61 2 9.91
9/19/2021 12:45:00 PM 19.41 66.938 0.111 7.64 2.04 9.96
9/19/2021 1:00:00 PM 19.53 67.154 0.111 7.64 2.03 9.98
9/19/2021 1:15:00 PM 19.65 67.37 0.11 7.69 1.97 10
9/19/2021 1:30:00 PM 19.79 67.622 0.11 7.72 1.86 10.01
9/19/2021 1:45:00 PM 19.95 67.91 0.111 7.71 1.86 9.95
9/19/2021 2:00:00 PM 20.06 68.108 0.11 7.73 1.81 9.99
9/19/2021 2:15:00 PM 20.18 68.324 0.11 7.76 1.81 9.94
9/19/2021 2:30:00 PM 20.3 68.54 0.11 7.78 2.18 9.96
9/19/2021 2:45:00 PM 20.39 68.702 0.11 7.79 1.88 9.94
9/19/2021 3:00:00 PM 20.48 68.864 0.11 7.79 2.11 9.88
9/19/2021 3:15:00 PM 20.58 69.044 0.11 7.83 1.92 9.88
9/19/2021 3:30:00 PM 20.66 69.188 0.109 7.82 1.97 9.83
9/19/2021 3:45:00 PM 20.75 69.35 0.109 7.83 2.1 9.75
9/19/2021 4:00:00 PM 20.81 69.458 0.109 7.81 1.86 9.69
9/19/2021 4:15:00 PM 20.87 69.566 0.109 7.8 1.84 9.59
9/19/2021 4:30:00 PM 20.91 69.638 0.109 7.79 1.97 9.52
9/19/2021 4:45:00 PM 20.94 69.692 0.109 7.79 2.09 9.44
9/19/2021 5:00:00 PM 20.94 69.692 0.109 7.76 1.8 9.32
9/19/2021 5:15:00 PM 20.93 69.674 0.109 7.74 1.92 9.23
9/19/2021 5:30:00 PM 20.92 69.656 0.109 7.72 1.95 9.15
9/19/2021 5:45:00 PM 20.87 69.566 0.11 7.68 1.98 9.02
9/19/2021 6:00:00 PM 20.81 69.458 0.11 7.6 1.99 8.91
9/19/2021 6:15:00 PM 20.77 69.386 0.11 7.6 2.15 8.83
9/19/2021 6:30:00 PM 20.7 69.26 0.111 7.54 1.99 8.76
9/19/2021 6:45:00 PM 20.64 69.152 0.111 7.54 2.12 8.68
9/19/2021 7:00:00 PM 20.55 68.99 0.111 7.53 2.01 8.55
9/19/2021 7:15:00 PM 20.48 68.864 0.111 7.48 2.11 8.53
9/19/2021 7:30:00 PM 20.38 68.684 0.111 7.45 2.06 8.49
9/19/2021 7:45:00 PM 20.3 68.54 0.111 7.41 2.1 8.4
9/19/2021 8:00:00 PM 20.2 68.36 0.111 7.42 2.01 8.4
9/19/2021 8:15:00 PM 20.1 68.18 0.111 7.39 2.02 8.38
9/19/2021 8:30:00 PM 20.02 68.036 0.111 7.38 2.02 8.34
9/19/2021 8:45:00 PM 19.93 67.874 0.11 7.37 2.1 8.34
9/19/2021 9:00:00 PM 19.84 67.712 0.111 7.33 2.25 8.31
9/19/2021 9:15:00 PM 19.75 67.55 0.11 7.33 2.07 8.32
9/19/2021 9:30:00 PM 19.65 67.37 0.111 7.32 2.05 8.27
9/19/2021 9:45:00 PM 19.56 67.208 0.111 7.31 2.08 8.26
9/19/2021 10:00:00 PM 19.46 67.028 0.111 7.31 2.26 8.28
9/19/2021 10:15:00 PM 19.35 66.83 0.111 7.31 2.19 8.29
9/19/2021 10:30:00 PM 19.26 66.668 0.111 7.3 2.71 8.29
9/19/2021 10:45:00 PM 19.16 66.488 0.111 7.29 2.27 8.3
9/19/2021 11:00:00 PM 19.06 66.308 0.111 7.29 2.4 8.32
9/19/2021 11:15:00 PM 18.97 66.146 0.111 7.28 2.27 8.32
9/19/2021 11:30:00 PM 18.88 65.984 0.111 7.26 2.35 8.32
9/19/2021 11:45:00 PM 18.78 65.804 0.111 7.28 2.1 8.35
9/20/2021 12:00:00 AM 18.7 65.66 0.111 7.26 2.12 8.35
9/20/2021 12:15:00 AM 18.62 65.516 0.111 7.26 2.25 8.35
9/20/2021 12:30:00 AM 18.54 65.372 0.111 7.25 2.24 8.33
9/20/2021 12:45:00 AM 18.46 65.228 0.111 7.26 2.14 8.37
9/20/2021 1:00:00 AM 18.38 65.084 0.111 7.23 2.25 8.39
9/20/2021 1:15:00 AM 18.32 64.976 0.111 7.24 2.15 8.39
9/20/2021 1:30:00 AM 18.26 64.868 0.111 7.24 2.29 8.43
9/20/2021 1:45:00 AM 18.2 64.76 0.111 7.21 2.26 8.44
9/20/2021 2:00:00 AM 18.13 64.634 0.111 7.24 2.07 8.46
9/20/2021 2:15:00 AM 18.07 64.526 0.111 7.24 2.22 8.51
9/20/2021 2:30:00 AM 18 64.4 0.111 7.24 2.25 8.53
9/20/2021 2:45:00 AM 17.93 64.274 0.111 7.22 2.23 8.49
9/20/2021 3:00:00 AM 17.86 64.148 0.111 7.24 2.15 8.54
9/20/2021 3:15:00 AM 17.79 64.022 0.111 7.25 2.15 8.58
9/20/2021 3:30:00 AM 17.72 63.896 0.111 7.24 2.14 8.56
9/20/2021 3:45:00 AM 17.65 63.77 0.111 7.24 3.03 8.62
9/20/2021 4:00:00 AM 17.58 63.644 0.111 7.25 2.54 8.62
9/20/2021 4:15:00 AM 17.52 63.536 0.111 7.22 2.41 8.65
9/20/2021 4:30:00 AM 17.46 63.428 0.111 7.23 2.42 8.66
9/20/2021 4:45:00 AM 17.4 63.32 0.111 7.23 2.45 8.67
9/20/2021 5:00:00 AM 17.35 63.23 0.111 7.25 2.39 8.7
9/20/2021 5:15:00 AM 17.28 63.104 0.111 7.26 2.93 8.71
9/20/2021 5:30:00 AM 17.21 62.978 0.111 7.26 2.7 8.74
9/20/2021 5:45:00 AM 17.16 62.888 0.111 7.24 2.75 8.72
9/20/2021 6:00:00 AM 17.1 62.78 0.112 7.24 2.68 8.77
9/20/2021 6:15:00 AM 17.05 62.69 0.112 7.24 3.38 8.77
9/20/2021 6:30:00 AM 16.99 62.582 0.112 7.26 2.8 8.78
9/20/2021 6:45:00 AM 16.94 62.492 0.112 7.22 2.65 8.77
9/20/2021 7:00:00 AM 16.88 62.384 0.112 7.21 2.7 8.82
9/20/2021 7:15:00 AM 16.83 62.294 0.112 7.25 2.59 8.84
9/20/2021 7:30:00 AM 16.77 62.186 0.112 7.24 2.33 8.91
9/20/2021 7:45:00 AM 16.73 62.114 0.112 7.26 3.21 8.9
9/20/2021 8:00:00 AM 16.67 62.006 0.112 7.26 2.4 8.96
9/20/2021 8:15:00 AM 16.63 61.934 0.112 7.28 2.3 8.98
9/20/2021 8:30:00 AM 16.6 61.88 0.112 7.28 2.34 9.02
9/20/2021 8:45:00 AM 16.55 61.79 0.112 7.3 2.17 9.09
9/20/2021 9:00:00 AM 16.52 61.736 0.112 7.31 2.23 9.13
9/20/2021 9:15:00 AM 16.51 61.718 0.112 7.3 2.26 9.19
9/20/2021 9:30:00 AM 16.48 61.664 0.112 7.34 2.15 9.35
9/20/2021 9:45:00 AM 16.47 61.646 0.111 7.35 2.27 9.44
9/20/2021 10:00:00 AM 16.5 61.7 0.111 7.39 2.08 9.65
9/20/2021 10:15:00 AM 16.53 61.754 0.111 7.39 2.25 9.75
9/20/2021 10:30:00 AM 16.58 61.844 0.111 7.42 2.26 9.88
9/20/2021 10:45:00 AM 16.65 61.97 0.111 7.47 2.24 9.99
9/20/2021 11:00:00 AM 16.74 62.132 0.111 7.48 2.11 10.04
9/20/2021 11:15:00 AM 16.87 62.366 0.111 7.52 2.05 10.1
9/20/2021 11:30:00 AM 16.99 62.582 0.111 7.53 2.39 10.18
9/20/2021 11:45:00 AM 17.1 62.78 0.11 7.57 2.26 10.28
9/20/2021 12:00:00 PM 17.18 62.924 0.11 7.58 2.05 10.37
9/20/2021 12:15:00 PM 17.23 63.014 0.11 7.64 2.12 10.46
9/20/2021 12:30:00 PM 17.25 63.05 0.11 7.68 2.13 10.47
9/20/2021 12:45:00 PM 17.27 63.086 0.11 7.67 2.06 10.44
9/20/2021 1:00:00 PM 17.32 63.176 0.11 7.69 2.1 10.43
9/20/2021 1:15:00 PM 17.38 63.284 0.11 7.67 2.1 10.4
9/20/2021 1:30:00 PM 17.45 63.41 0.109 7.72 2.12 10.42
9/20/2021 1:45:00 PM 17.51 63.518 0.109 7.73 1.92 10.36
9/20/2021 2:00:00 PM 17.58 63.644 0.109 7.73 2.02 10.37
9/20/2021 2:15:00 PM 17.66 63.788 0.109 7.73 2.05 10.37
9/20/2021 2:30:00 PM 17.77 63.986 0.108 7.8 1.95 10.41
9/20/2021 2:45:00 PM 17.86 64.148 0.108 7.78 2.04 10.39
9/20/2021 3:00:00 PM 17.96 64.328 0.108 7.81 2.12 10.25
9/20/2021 3:15:00 PM 18.06 64.508 0.108 7.82 1.98 10.29
9/20/2021 3:30:00 PM 18.19 64.742 0.108 7.81 2.11 10.3
9/20/2021 3:45:00 PM 18.28 64.904 0.108 7.88 2.07 10.28
9/20/2021 4:00:00 PM 18.33 64.994 0.108 7.86 2.04 10.18
9/20/2021 4:15:00 PM 18.39 65.102 0.108 7.85 2.06 10.06
9/20/2021 4:30:00 PM 18.43 65.174 0.108 7.82 2.18 10.01
9/20/2021 4:45:00 PM 18.45 65.21 0.108 7.82 2.09 9.94
9/20/2021 5:00:00 PM 18.47 65.246 0.108 7.82 1.98 9.89
9/20/2021 5:15:00 PM 18.48 65.264 0.108 7.79 2.06 9.82
9/20/2021 5:30:00 PM 18.49 65.282 0.108 7.79 2.1 9.8
9/20/2021 5:45:00 PM 18.5 65.3 0.108 7.77 2.02 9.8
9/20/2021 6:00:00 PM 18.51 65.318 0.108 7.78 2.06 9.77
9/20/2021 6:15:00 PM 18.5 65.3 0.108 7.71 2 9.64
9/20/2021 6:30:00 PM 18.49 65.282 0.108 7.71 1.99 9.52
9/20/2021 6:45:00 PM 18.47 65.246 0.108 7.65 1.96 9.42
9/20/2021 7:00:00 PM 18.46 65.228 0.108 7.63 2 9.32
9/20/2021 7:15:00 PM 18.44 65.192 0.108 7.61 1.94 9.24
9/20/2021 7:30:00 PM 18.43 65.174 0.108 7.57 2.07 9.16
9/20/2021 7:45:00 PM 18.41 65.138 0.108 7.54 2.07 9.08
9/20/2021 8:00:00 PM 18.39 65.102 0.108 7.48 2.01 8.99
9/20/2021 8:15:00 PM 18.37 65.066 0.108 7.47 2.23 8.92
9/20/2021 8:30:00 PM 18.34 65.012 0.109 7.42 2.49 8.85
9/20/2021 8:45:00 PM 18.32 64.976 0.109 7.43 2.2 8.8
9/20/2021 9:00:00 PM 18.28 64.904 0.109 7.41 2.3 8.76
9/20/2021 9:15:00 PM 18.24 64.832 0.109 7.35 2.23 8.71
9/20/2021 9:30:00 PM 18.2 64.76 0.109 7.37 2.25 8.68
9/20/2021 9:45:00 PM 18.16 64.688 0.109 7.37 2.1 8.68
9/20/2021 10:00:00 PM 18.12 64.616 0.109 7.33 2.23 8.63
9/20/2021 10:15:00 PM 18.07 64.526 0.109 7.31 2.17 8.63
9/20/2021 10:30:00 PM 18.03 64.454 0.109 7.32 2.35 8.65
9/20/2021 10:45:00 PM 17.98 64.364 0.109 7.33 2.27 8.63
9/20/2021 11:00:00 PM 17.92 64.256 0.11 7.3 2.1 8.64
9/20/2021 11:15:00 PM 17.86 64.148 0.109 7.32 2.18 8.63
9/20/2021 11:30:00 PM 17.81 64.058 0.11 7.29 2.19 8.6
9/20/2021 11:45:00 PM 17.75 63.95 0.109 7.29 2.1 8.64
9/21/2021 12:00:00 AM 17.69 63.842 0.11 7.27 2.17 8.65
9/21/2021 12:15:00 AM 17.63 63.734 0.109 7.3 2.24 8.69
9/21/2021 12:30:00 AM 17.57 63.626 0.109 7.3 2.18 8.69
9/21/2021 12:45:00 AM 17.53 63.554 0.11 7.25 2.12 8.64
9/21/2021 1:00:00 AM 17.47 63.446 0.109 7.28 2.27 8.69
9/21/2021 1:15:00 AM 17.44 63.392 0.11 7.29 2.4 8.7
9/21/2021 1:30:00 AM 17.41 63.338 0.11 7.27 2.08 8.66
9/21/2021 1:45:00 AM 17.38 63.284 0.11 7.24 2.21 8.71
9/21/2021 2:00:00 AM 17.35 63.23 0.109 7.29 2.1 8.7
9/21/2021 2:15:00 AM 17.31 63.158 0.11 7.26 2.21 8.74
9/21/2021 2:30:00 AM 17.29 63.122 0.109 7.29 2.2 8.74
9/21/2021 2:45:00 AM 17.26 63.068 0.11 7.29 2.23 8.74
9/21/2021 3:00:00 AM 17.23 63.014 0.11 7.25 3.11 8.75
9/21/2021 3:15:00 AM 17.21 62.978 0.11 7.28 2.39 8.75
9/21/2021 3:30:00 AM 17.18 62.924 0.11 7.25 2.25 8.75
9/21/2021 3:45:00 AM 17.14 62.852 0.11 7.27 2.23 8.77
9/21/2021 4:00:00 AM 17.12 62.816 0.11 7.28 2.17 8.79
9/21/2021 4:15:00 AM 17.09 62.762 0.11 7.25 2.34 8.79
9/21/2021 4:30:00 AM 17.06 62.708 0.11 7.28 2.21 8.8
9/21/2021 4:45:00 AM 17.04 62.672 0.11 7.27 2.33 8.78
9/21/2021 5:00:00 AM 17.01 62.618 0.11 7.25 2.26 8.82
9/21/2021 5:15:00 AM 16.98 62.564 0.11 7.26 2.56 8.8
9/21/2021 5:30:00 AM 16.95 62.51 0.11 7.27 2.2 8.82
9/21/2021 5:45:00 AM 16.92 62.456 0.11 7.25 2.5 8.82
9/21/2021 6:00:00 AM 16.89 62.402 0.11 7.27 2.32 8.84
9/21/2021 6:15:00 AM 16.85 62.33 0.11 7.24 2.32 8.85
9/21/2021 6:30:00 AM 16.82 62.276 0.111 7.27 2.36 8.85
9/21/2021 6:45:00 AM 16.79 62.222 0.111 7.24 2.26 8.87
9/21/2021 7:00:00 AM 16.76 62.168 0.111 7.25 2.26 8.85
9/21/2021 7:15:00 AM 16.74 62.132 0.111 7.27 2.39 8.9
9/21/2021 7:30:00 AM 16.72 62.096 0.111 7.26 2.33 8.89
9/21/2021 7:45:00 AM 16.71 62.078 0.111 7.26 2.34 8.94
9/21/2021 8:00:00 AM 16.71 62.078 0.111 7.26 2.44 8.97
9/21/2021 8:15:00 AM 16.71 62.078 0.111 7.29 2.24 9.04
9/21/2021 8:30:00 AM 16.72 62.096 0.111 7.28 2.12 9.13
9/21/2021 8:45:00 AM 16.73 62.114 0.111 7.31 2.19 9.18
9/21/2021 9:00:00 AM 16.73 62.114 0.111 7.29 2.44 9.2
9/21/2021 9:15:00 AM 16.75 62.15 0.111 7.32 2.22 9.26
9/21/2021 9:30:00 AM 16.8 62.24 0.11 7.36 2.54 9.42
9/21/2021 9:45:00 AM 16.86 62.348 0.111 7.37 2.18 9.56
9/21/2021 10:00:00 AM 16.93 62.474 0.11 7.39 2.1 9.71
9/21/2021 10:15:00 AM 16.95 62.51 0.11 7.42 2.27 9.75
9/21/2021 10:30:00 AM 16.98 62.564 0.11 7.44 2.18 9.89
9/21/2021 10:45:00 AM 16.97 62.546 0.11 7.48 2.22 9.85
9/21/2021 11:00:00 AM 16.98 62.564 0.11 7.48 2.27 9.81
9/21/2021 11:15:00 AM 17.02 62.636 0.11 7.49 2.07 9.89
9/21/2021 11:30:00 AM 17.07 62.726 0.11 7.51 2.06 9.94
9/21/2021 11:45:00 AM 17.11 62.798 0.109 7.51 2.17 10.01
9/21/2021 12:00:00 PM 17.18 62.924 0.109 7.56 2.24 10.08
9/21/2021 12:15:00 PM 17.22 62.996 0.109 7.58 2.06 10.11
9/21/2021 12:30:00 PM 17.31 63.158 0.109 7.62 2.06 10.22
9/21/2021 12:45:00 PM 17.35 63.23 0.109 7.64 2.18 10.22
9/21/2021 1:00:00 PM 17.38 63.284 0.109 7.6 2.03 10.16
9/21/2021 1:15:00 PM 17.43 63.374 0.108 7.61 2.21 10.18
9/21/2021 1:30:00 PM 17.5 63.5 0.108 7.65 2.05 10.22
9/21/2021 1:45:00 PM 17.63 63.734 0.108 7.71 2.03 10.3
9/21/2021 2:00:00 PM 17.83 64.094 0.108 7.74 2.18 10.46
9/21/2021 2:15:00 PM 17.95 64.31 0.107 7.84 2.19 10.46
9/21/2021 2:30:00 PM 18.02 64.436 0.107 7.87 2.1 10.53
9/21/2021 2:45:00 PM 18.1 64.58 0.107 7.9 2.07 10.54
9/21/2021 3:00:00 PM 18.16 64.688 0.107 7.94 2.32 10.49
9/21/2021 3:15:00 PM 18.2 64.76 0.107 7.93 2.14 10.42
9/21/2021 3:30:00 PM 18.25 64.85 0.107 7.92 2.15 10.37
9/21/2021 3:45:00 PM 18.29 64.922 0.107 7.92 2.27 10.34
9/21/2021 4:00:00 PM 18.31 64.958 0.107 7.87 2.17 10.18
9/21/2021 4:15:00 PM 18.34 65.012 0.107 7.89 2.23 10.09
9/21/2021 4:30:00 PM 18.39 65.102 0.107 7.85 2.24 10.04
9/21/2021 4:45:00 PM 18.44 65.192 0.107 7.86 2.73 10.06
9/21/2021 5:00:00 PM 18.48 65.264 0.107 7.92 2.14 10.05
9/21/2021 5:15:00 PM 18.53 65.354 0.107 7.91 2.17 9.99
9/21/2021 5:30:00 PM 18.55 65.39 0.107 7.85 2.8 9.89
9/21/2021 5:45:00 PM 18.59 65.462 0.107 7.85 2.19 9.78
9/21/2021 6:00:00 PM 18.61 65.498 0.107 7.79 2.32 9.63
9/21/2021 6:15:00 PM 18.63 65.534 0.108 7.73 2.22 9.48
9/21/2021 6:30:00 PM 18.64 65.552 0.108 7.71 2.14 9.38
9/21/2021 6:45:00 PM 18.65 65.57 0.108 7.64 2.13 9.26
9/21/2021 7:00:00 PM 18.65 65.57 0.108 7.61 2.22 9.17
9/21/2021 7:15:00 PM 18.65 65.57 0.108 7.59 2.17 9.1
9/21/2021 7:30:00 PM 18.64 65.552 0.108 7.53 2.2 9.01
9/21/2021 7:45:00 PM 18.63 65.534 0.108 7.53 2.25 8.95
9/21/2021 8:00:00 PM 18.62 65.516 0.108 7.49 2.1 8.85
9/21/2021 8:15:00 PM 18.59 65.462 0.108 7.48 2.2 8.84
9/21/2021 8:30:00 PM 18.57 65.426 0.109 7.42 2.32 8.77
9/21/2021 8:45:00 PM 18.55 65.39 0.109 7.43 2.39 8.73
9/21/2021 9:00:00 PM 18.53 65.354 0.109 7.38 2.32 8.68
9/21/2021 9:15:00 PM 18.51 65.318 0.109 7.4 2.29 8.65
9/21/2021 9:30:00 PM 18.49 65.282 0.109 7.38 2.24 8.62
9/21/2021 9:45:00 PM 18.48 65.264 0.109 7.36 2.4 8.58
9/21/2021 10:00:00 PM 18.46 65.228 0.109 7.34 2.32 8.54
9/21/2021 10:15:00 PM 18.44 65.192 0.11 7.31 2.86 8.51
9/21/2021 10:30:00 PM 18.43 65.174 0.11 7.32 8.48 8.49
9/21/2021 10:45:00 PM 18.41 65.138 0.11 7.31 2.53 8.48
9/21/2021 11:00:00 PM 18.39 65.102 0.11 7.31 2.71 8.48
9/21/2021 11:15:00 PM 18.37 65.066 0.11 7.28 2.57 8.47
9/21/2021 11:30:00 PM 18.35 65.03 0.11 7.3 2.58 8.45
9/21/2021 11:45:00 PM 18.33 64.994 0.11 7.29 2.48 8.46
9/22/2021 12:00:00 AM 18.32 64.976 0.11 7.3 2.33 8.42
9/22/2021 12:15:00 AM 18.3 64.94 0.11 7.29 2.46 8.44
9/22/2021 12:30:00 AM 18.29 64.922 0.11 7.26 2.48 8.43
9/22/2021 12:45:00 AM 18.28 64.904 0.11 7.28 2.45 8.44
9/22/2021 1:00:00 AM 18.27 64.886 0.11 7.28 2.57 8.42
9/22/2021 1:15:00 AM 18.26 64.868 0.11 7.27 2.34 8.44
9/22/2021 1:30:00 AM 18.25 64.85 0.11 7.24 2.5 8.42
9/22/2021 1:45:00 AM 18.23 64.814 0.11 7.26 2.65 8.46
9/22/2021 2:00:00 AM 18.22 64.796 0.11 7.26 2.45 8.46
9/22/2021 2:15:00 AM 18.21 64.778 0.11 7.27 2.43 8.45
9/22/2021 2:30:00 AM 18.2 64.76 0.11 7.26 2.58 8.45
9/22/2021 2:45:00 AM 18.19 64.742 0.11 7.26 2.37 8.44
9/22/2021 3:00:00 AM 18.18 64.724 0.11 7.27 2.32 8.46
9/22/2021 3:15:00 AM 18.17 64.706 0.111 7.25 2.3 8.43
9/22/2021 3:30:00 AM 18.16 64.688 0.11 7.27 2.44 8.47
9/22/2021 3:45:00 AM 18.15 64.67 0.11 7.27 2.41 8.48
9/22/2021 4:00:00 AM 18.14 64.652 0.11 7.23 2.72 8.47
9/22/2021 4:15:00 AM 18.12 64.616 0.11 7.27 2.49 8.48
9/22/2021 4:30:00 AM 18.11 64.598 0.11 7.24 2.33 8.48
9/22/2021 4:45:00 AM 18.1 64.58 0.111 7.24 2.5 8.46
9/22/2021 5:00:00 AM 18.09 64.562 0.11 7.26 2.58 8.48
9/22/2021 5:15:00 AM 18.07 64.526 0.111 7.25 2.58 8.49
9/22/2021 5:30:00 AM 18.06 64.508 0.111 7.27 2.62 8.49
9/22/2021 5:45:00 AM 18.05 64.49 0.111 7.25 2.58 8.5
9/22/2021 6:00:00 AM 18.04 64.472 0.111 7.27 2.56 8.51
9/22/2021 6:15:00 AM 18.03 64.454 0.111 7.27 2.65 8.51
9/22/2021 6:30:00 AM 18.02 64.436 0.111 7.27 2.72 8.48
9/22/2021 6:45:00 AM 18.01 64.418 0.111 7.21 2.66 8.46
9/22/2021 7:00:00 AM 18 64.4 0.111 7.26 2.4 8.48
9/22/2021 7:15:00 AM 17.98 64.364 0.111 7.27 2.55 8.5
9/22/2021 7:30:00 AM 17.98 64.364 0.111 7.26 2.59 8.53
9/22/2021 7:45:00 AM 17.97 64.346 0.111 7.28 2.64 8.49
9/22/2021 8:00:00 AM 17.96 64.328 0.111 7.27 3.05 8.54
9/22/2021 8:15:00 AM 17.96 64.328 0.111 7.25 2.41 8.55
9/22/2021 8:30:00 AM 17.97 64.346 0.111 7.28 2.36 8.61
9/22/2021 8:45:00 AM 17.97 64.346 0.111 7.3 2.4 8.71
9/22/2021 9:00:00 AM 17.99 64.382 0.111 7.3 2.53 8.77
9/22/2021 9:15:00 AM 17.99 64.382 0.111 7.32 2.42 8.81
9/22/2021 9:30:00 AM 18 64.4 0.111 7.32 2.36 8.82
9/22/2021 9:45:00 AM 18 64.4 0.111 7.29 2.3 8.8
9/22/2021 10:00:00 AM 18.01 64.418 0.111 7.3 2.35 8.81
9/22/2021 10:15:00 AM 18.03 64.454 0.111 7.32 2.38 8.95
9/22/2021 10:30:00 AM 18.05 64.49 0.11 7.34 2.52 9.01
9/22/2021 10:45:00 AM 18.07 64.526 0.11 7.35 2.7 9.03
9/22/2021 11:00:00 AM 18.09 64.562 0.11 7.37 2.45 9.04
9/22/2021 11:15:00 AM 18.12 64.616 0.11 7.38 2.37 9.13
9/22/2021 11:30:00 AM 18.15 64.67 0.11 7.37 2.41 9.15
9/22/2021 11:45:00 AM 18.2 64.76 0.11 7.4 2.36 9.34
9/22/2021 12:00:00 PM 18.25 64.85 0.11 7.44 2.27 9.4
9/22/2021 12:15:00 PM 18.29 64.922 0.11 7.44 2.26 9.44
9/22/2021 12:30:00 PM 18.32 64.976 0.11 7.47 2.31 9.48
9/22/2021 12:45:00 PM 18.34 65.012 0.109 7.45 2.31 9.45
9/22/2021 1:00:00 PM 18.37 65.066 0.109 7.49 2.42 9.45
9/22/2021 1:15:00 PM 18.39 65.102 0.109 7.49 2.31 9.43
9/22/2021 1:30:00 PM 18.42 65.156 0.109 7.47 2.41 9.36
9/22/2021 1:45:00 PM 18.46 65.228 0.109 7.46 2.52 9.36
9/22/2021 2:00:00 PM 18.5 65.3 0.108 7.51 2.49 9.39
9/22/2021 2:15:00 PM 18.57 65.426 0.109 7.5 2.33 9.45
9/22/2021 2:30:00 PM 18.62 65.516 0.108 7.5 2.35 9.52
9/22/2021 2:45:00 PM 18.67 65.606 0.108 7.57 2.36 9.59
9/22/2021 3:00:00 PM 18.69 65.642 0.108 7.53 2.31 9.49
9/22/2021 3:15:00 PM 18.71 65.67799 0.108 7.52 2.33 9.41
9/22/2021 3:30:00 PM 18.74 65.732 0.108 7.52 2.3 9.32
9/22/2021 3:45:00 PM 18.76 65.768 0.108 7.51 2.34 9.27
9/22/2021 4:00:00 PM 18.8 65.84 0.108 7.5 2.42 9.2
9/22/2021 4:15:00 PM 18.84 65.912 0.108 7.51 2.61 9.21
9/22/2021 4:30:00 PM 18.87 65.966 0.108 7.5 2.41 9.17
9/22/2021 4:45:00 PM 18.9 66.02 0.107 7.49 2.53 9.1
9/22/2021 5:00:00 PM 18.92 66.056 0.107 7.49 2.52 9.06
9/22/2021 5:15:00 PM 18.93 66.074 0.108 7.49 2.56 9.01
9/22/2021 5:30:00 PM 18.94 66.092 0.108 7.46 2.67 8.94
9/22/2021 5:45:00 PM 18.94 66.092 0.109 7.43 2.62 8.86
9/22/2021 6:00:00 PM 18.94 66.092 0.109 7.42 2.67 8.84
9/22/2021 6:15:00 PM 18.94 66.092 0.11 7.4 2.8 8.7
9/22/2021 6:30:00 PM 18.96 66.128 0.111 7.42 3.01 8.73
9/22/2021 6:45:00 PM 18.97 66.146 0.113 7.39 3.08 8.62
9/22/2021 7:00:00 PM 18.99 66.182 0.114 7.41 3.5 8.61
9/22/2021 7:15:00 PM 19.01 66.218 0.116 7.39 3.84 8.54
9/22/2021 7:30:00 PM 19.02 66.236 0.117 7.39 4.5 8.48
9/22/2021 7:45:00 PM 19.02 66.236 0.118 7.38 4.73 8.4
9/22/2021 8:00:00 PM 19.02 66.236 0.119 7.35 5.57 8.38
9/22/2021 8:15:00 PM 19.02 66.236 0.121 7.37 6.9 8.38
9/22/2021 8:30:00 PM 19 66.2 0.122 7.38 6.14 8.34
9/22/2021 8:45:00 PM 19.01 66.218 0.123 7.36 6.34 8.27
9/22/2021 9:00:00 PM 19 66.2 0.123 7.34 5.66 8.27
9/22/2021 9:15:00 PM 19 66.2 0.124 7.33 5.11 8.17
9/22/2021 9:30:00 PM 18.99 66.182 0.124 7.33 4.88 8.19
9/22/2021 9:45:00 PM 18.96 66.128 0.123 7.36 4.59 8.27
9/22/2021 10:00:00 PM 18.96 66.128 0.124 7.35 4.15 8.22
9/22/2021 10:15:00 PM 18.95 66.11 0.124 7.35 4.24 8.22
9/22/2021 10:30:00 PM 18.96 66.128 0.124 7.35 3.86 8.2
9/22/2021 10:45:00 PM 18.95 66.11 0.124 7.32 4.49 8.25
9/22/2021 11:00:00 PM 18.94 66.092 0.123 7.35 4.26 8.32
9/22/2021 11:15:00 PM 18.93 66.074 0.122 7.37 4.31 8.31
9/22/2021 11:30:00 PM 18.92 66.056 0.121 7.34 4.85 8.32
9/22/2021 11:45:00 PM 18.9 66.02 0.12 7.37 4.74 8.34
9/23/2021 12:00:00 AM 18.89 66.002 0.119 7.38 4.89 8.36
9/23/2021 12:15:00 AM 18.88 65.984 0.118 7.39 5.58 8.42
9/23/2021 12:30:00 AM 18.86 65.948 0.116 7.41 5.99 8.47
9/23/2021 12:45:00 AM 18.83 65.894 0.116 7.4 6.59 8.5
9/23/2021 1:00:00 AM 18.8 65.84 0.12 7.33 8.57 8.49
9/23/2021 1:15:00 AM 18.78 65.804 0.12 7.28 11.22 8.47
9/23/2021 1:30:00 AM 18.86 65.948 0.134 7.33 15.32 8.43
9/23/2021 1:45:00 AM 18.9 66.02 0.143 7.37 38.83 8.46
9/23/2021 2:00:00 AM 18.85 65.93 0.129 7.32 27.69 8.48
9/23/2021 2:15:00 AM 19.02 66.236 0.137 7.29 60.63 8.44
9/23/2021 2:30:00 AM 19.07 66.326 0.135 7.28 120 8.4
9/23/2021 2:45:00 AM 19.05 66.29 0.121 7.24 102.22 8.38
9/23/2021 3:00:00 AM 19.02 66.236 0.119 7.2 119.6 8.37
9/23/2021 3:15:00 AM 18.97 66.146 0.113 7.15 139.4 8.28
9/23/2021 3:30:00 AM 18.83 65.894 0.108 7.14 114.12 8.31
9/23/2021 3:45:00 AM 18.73 65.714 0.102 7.1 113.76 8.3
9/23/2021 4:00:00 AM 18.63 65.534 0.094 7.05 130.55 8.31
9/23/2021 4:15:00 AM 18.52 65.336 0.093 7.07 139.17 8.34
9/23/2021 4:30:00 AM 18.4 65.12 0.094 7.09 167.18 8.41
9/23/2021 4:45:00 AM 18.27 64.886 0.093 7.11 161.36 8.47
9/23/2021 5:00:00 AM 18.13 64.634 0.091 7.08 208.9 8.53
9/23/2021 5:15:00 AM 18.02 64.436 0.089 7.08 244.6 8.57
9/23/2021 5:30:00 AM 17.9 64.22 0.089 7.14 289.74 8.62
9/23/2021 5:45:00 AM 17.82 64.076 0.088 7.14 318.75 8.64
9/23/2021 6:00:00 AM 17.76 63.968 0.085 7.1 302.69 8.66
9/23/2021 6:15:00 AM 17.69 63.842 0.082 7.09 307.92 8.68
9/23/2021 6:30:00 AM 17.65 63.77 0.081 7.07 277.8 8.68
9/23/2021 6:45:00 AM 17.62 63.716 0.08 7.05 249.55 8.69
9/23/2021 7:00:00 AM 17.55 63.59 0.079 7.04 243.04 8.72
9/23/2021 7:15:00 AM 17.49 63.482 0.078 7.03 240.12 8.75
9/23/2021 7:30:00 AM 17.45 63.41 0.076 6.98 238.72 8.74
9/23/2021 7:45:00 AM 17.39 63.302 0.075 7 240.88 8.75
9/23/2021 8:00:00 AM 17.32 63.176 0.074 6.94 241.93 8.79
9/23/2021 8:15:00 AM 17.29 63.122 0.073 6.98 240.77 8.79
9/23/2021 8:30:00 AM 17.24 63.032 0.071 6.93 243.68 8.81
9/23/2021 8:45:00 AM 17.23 63.014 0.07 6.97 240.87 8.8
9/23/2021 9:00:00 AM 17.15 62.87 0.069 6.92 243.81 8.84
9/23/2021 9:15:00 AM 17.15 62.87 0.068 6.93 237.85 8.82
9/23/2021 9:30:00 AM 17.1 62.78 0.068 6.95 240.7 8.87
9/23/2021 9:45:00 AM 17.07 62.726 0.068 6.94 230.78 8.89
9/23/2021 10:00:00 AM 17.02 62.636 0.067 6.97 224.76 8.9
9/23/2021 10:15:00 AM 17.03 62.654 0.068 6.96 203.04 8.91
9/23/2021 10:30:00 AM 17.01 62.618 0.067 6.96 185.96 8.92
9/23/2021 10:45:00 AM 17.02 62.636 0.067 6.93 164.73 8.94
9/23/2021 11:00:00 AM 16.99 62.582 0.067 6.94 169.7 8.98
9/23/2021 11:15:00 AM 17.02 62.636 0.067 6.95 130.09 8.99
9/23/2021 11:30:00 AM 17 62.6 0.067 6.94 127.48 9
9/23/2021 11:45:00 AM 17.02 62.636 0.067 6.93 105.63 9.01
9/23/2021 12:00:00 PM 17.04 62.672 0.068 6.95 94.37 9.02
9/23/2021 12:15:00 PM 17.05 62.69 0.068 6.92 88.51 9.03
9/23/2021 12:30:00 PM 17.08 62.744 0.068 6.94 82.17 9.04
9/23/2021 12:45:00 PM 17.07 62.726 0.069 6.91 79.28 9.05
9/23/2021 1:00:00 PM 17.09 62.762 0.069 6.98 74.6 9.07
9/23/2021 1:15:00 PM 17.13 62.834 0.07 6.97 69.78 9.07
9/23/2021 1:30:00 PM 17.16 62.888 0.07 6.98 69.12 9.06
9/23/2021 1:45:00 PM 17.19 62.942 0.071 6.93 64.34 9.06
9/23/2021 2:00:00 PM 17.19 62.942 0.071 6.96 63.22 9.07
9/23/2021 2:15:00 PM 17.18 62.924 0.072 6.97 61.76 9.07
9/23/2021 2:30:00 PM 17.21 62.978 0.072 7 59.69 9.07
9/23/2021 2:45:00 PM 17.25 63.05 0.073 7.01 57.35 9.06
9/23/2021 3:00:00 PM 17.31 63.158 0.074 7 56.71 9.06
9/23/2021 3:15:00 PM 17.33 63.194 0.074 7.01 54.32 9.05
9/23/2021 3:30:00 PM 17.3 63.14 0.074 7.02 52.31 9.06
9/23/2021 3:45:00 PM 17.24 63.032 0.075 7 51.34 9.07
9/23/2021 4:00:00 PM 17.16 62.888 0.074 7.01 48.17 9.08
9/23/2021 4:15:00 PM 17.1 62.78 0.075 6.97 45.15 9.09
9/23/2021 4:30:00 PM 17.02 62.636 0.075 7 43.35 9.11
9/23/2021 4:45:00 PM 16.96 62.528 0.075 7.02 38.93 9.13
9/23/2021 5:00:00 PM 16.9 62.42 0.075 7.03 36.05 9.15
9/23/2021 5:15:00 PM 16.82 62.276 0.075 6.98 38.54 9.17
9/23/2021 5:30:00 PM 16.74 62.132 0.075 7.02 38.78 9.19
9/23/2021 5:45:00 PM 16.66 61.988 0.076 6.98 36.38 9.21
9/23/2021 6:00:00 PM 16.57 61.826 0.076 7.03 35.77 9.23
9/23/2021 6:15:00 PM 16.49 61.682 0.076 7.02 35.28 9.24
9/23/2021 6:30:00 PM 16.39 61.502 0.076 7.03 34.32 9.27
9/23/2021 6:45:00 PM 16.31 61.358 0.076 6.97 33.55 9.28
9/23/2021 7:00:00 PM 16.23 61.214 0.077 7.01 33.24 9.3
9/23/2021 7:15:00 PM 16.13 61.034 0.077 7 31.53 9.32
9/23/2021 7:30:00 PM 16.04 60.872 0.077 6.98 31.62 9.35
9/23/2021 7:45:00 PM 15.95 60.71 0.077 7.04 30.71 9.37
9/23/2021 8:00:00 PM 15.85 60.53 0.077 6.98 30.26 9.39
9/23/2021 8:15:00 PM 15.76 60.368 0.077 7.03 28.86 9.41
9/23/2021 8:30:00 PM 15.65 60.17 0.077 7.02 27.7 9.44
9/23/2021 8:45:00 PM 15.56 60.008 0.078 7.03 27.6 9.45
9/23/2021 9:00:00 PM 15.45 59.81 0.078 7.01 27.23 9.48
9/23/2021 9:15:00 PM 15.35 59.63 0.078 7.04 23.01 9.51
9/23/2021 9:30:00 PM 15.25 59.45 0.078 7.03 25.44 9.54
9/23/2021 9:45:00 PM 15.15 59.27 0.078 7.01 26.65 9.56
9/23/2021 10:00:00 PM 15.06 59.108 0.078 7.02 25.71 9.59
9/23/2021 10:15:00 PM 14.97 58.946 0.078 7.03 24.76 9.61
9/23/2021 10:30:00 PM 14.88 58.784 0.078 7 24.72 9.63
9/23/2021 10:45:00 PM 14.79 58.622 0.078 7.04 23.9 9.66
9/23/2021 11:00:00 PM 14.7 58.46 0.078 7.03 23.98 9.68
9/23/2021 11:15:00 PM 14.63 58.334 0.078 7.04 23.32 9.7
9/23/2021 11:30:00 PM 14.54 58.172 0.078 7 23.27 9.73
9/23/2021 11:45:00 PM 14.47 58.046 0.078 7.04 23.18 9.74
9/24/2021 12:00:00 AM 14.41 57.938 0.078 7 22.54 9.75
9/24/2021 12:15:00 AM 14.34 57.812 0.078 7.04 22.55 9.77
9/24/2021 12:30:00 AM 14.28 57.704 0.078 7.06 22.3 9.78
9/24/2021 12:45:00 AM 14.22 57.596 0.078 7.06 21.51 9.8
9/24/2021 1:00:00 AM 14.17 57.506 0.078 7.06 21.65 9.81
9/24/2021 1:15:00 AM 14.12 57.416 0.078 7 21.01 9.82
9/24/2021 1:30:00 AM 14.07 57.326 0.078 7.05 20.57 9.83
9/24/2021 1:45:00 AM 14.06 57.308 0.078 7.05 21.09 9.83
9/24/2021 2:00:00 AM 13.99 57.182 0.078 7.01 20.78 9.84
9/24/2021 2:15:00 AM 13.93 57.074 0.078 7.05 19.83 9.86
9/24/2021 2:30:00 AM 13.87 56.966 0.078 7.04 19.85 9.87
9/24/2021 2:45:00 AM 13.81 56.858 0.078 7.05 20.33 9.89
9/24/2021 3:00:00 AM 13.75 56.75 0.078 7.05 18.93 9.91
9/24/2021 3:15:00 AM 13.7 56.66 0.078 7.04 18.89 9.92
9/24/2021 3:30:00 AM 13.65 56.57 0.078 7.05 18.54 9.94
9/24/2021 3:45:00 AM 13.6 56.48 0.078 7.05 18.18 9.95
9/24/2021 4:00:00 AM 13.56 56.408 0.078 7.07 18.62 9.96
9/24/2021 4:15:00 AM 13.51 56.318 0.078 7.05 18.04 9.98
9/24/2021 4:30:00 AM 13.46 56.228 0.078 7.07 17.69 9.98
9/24/2021 4:45:00 AM 13.41 56.138 0.078 7.02 17.78 10
9/24/2021 5:00:00 AM 13.36 56.048 0.078 7.06 17.16 10.02
9/24/2021 5:15:00 AM 13.32 55.976 0.078 7.03 17.29 10.03
9/24/2021 5:30:00 AM 13.27 55.886 0.078 7.04 17.29 10.05
9/24/2021 5:45:00 AM 13.23 55.814 0.078 7.04 16.39 10.06
9/24/2021 6:00:00 AM 13.18 55.724 0.078 7.06 16.98 10.07
9/24/2021 6:15:00 AM 13.15 55.67 0.078 7.07 15.66 10.08
9/24/2021 6:30:00 AM 13.1 55.58 0.078 7.06 16.24 10.09
9/24/2021 6:45:00 AM 13.06 55.508 0.078 7.07 16.1 10.1
9/24/2021 7:00:00 AM 13.01 55.418 0.078 7.06 15.55 10.12
9/24/2021 7:15:00 AM 12.98 55.364 0.078 7.02 15.32 10.13
9/24/2021 7:30:00 AM 12.95 55.31 0.078 7.07 15.59 10.14
9/24/2021 7:45:00 AM 12.91 55.238 0.078 7.03 15 10.15
9/24/2021 8:00:00 AM 12.88 55.184 0.078 7.07 15.2 10.17
9/24/2021 8:15:00 AM 12.85 55.13 0.078 7.06 15 10.18
9/24/2021 8:30:00 AM 12.83 55.094 0.078 7.06 14.53 10.19
9/24/2021 8:45:00 AM 12.82 55.076 0.078 7.07 14.31 10.21
9/24/2021 9:00:00 AM 12.81 55.058 0.078 7.09 14.1 10.22
9/24/2021 9:15:00 AM 12.8 55.04 0.078 7.08 14.17 10.24
9/24/2021 9:30:00 AM 12.8 55.04 0.078 7.08 13.89 10.25
9/24/2021 9:45:00 AM 12.82 55.076 0.078 7.05 13.46 10.26
9/24/2021 10:00:00 AM 12.85 55.13 0.078 7.08 13.37 10.27
9/24/2021 10:15:00 AM 12.9 55.22 0.078 7.09 12.84 10.29
9/24/2021 10:30:00 AM 12.95 55.31 0.078 7.1 12.89 10.29
9/24/2021 10:45:00 AM 13 55.4 0.078 7.1 12.72 10.29
9/24/2021 11:00:00 AM 13.08 55.544 0.078 7.08 12.6 10.28
9/24/2021 11:15:00 AM 13.15 55.67 0.078 7.09 12.62 10.28
9/24/2021 11:30:00 AM 13.21 55.778 0.078 7.11 12.5 10.27
9/24/2021 11:45:00 AM 13.28 55.904 0.078 7.12 12.32 10.27
9/24/2021 12:00:00 PM 13.36 56.048 0.078 7.12 11.82 10.25
9/24/2021 12:15:00 PM 13.45 56.21 0.079 7.12 12.08 10.24
9/24/2021 12:30:00 PM 13.5 56.3 0.078 7.13 11.83 10.23
9/24/2021 12:45:00 PM 13.59 56.462 0.078 7.13 11.74 10.22
9/24/2021 1:00:00 PM 13.68 56.624 0.078 7.13 11.59 10.2
9/24/2021 1:15:00 PM 13.78 56.804 0.078 7.1 11.9 10.19
9/24/2021 1:30:00 PM 13.86 56.948 0.078 7.13 11.86 10.17
9/24/2021 1:45:00 PM 13.96 57.128 0.078 7.13 11.56 10.16
9/24/2021 2:00:00 PM 14.05 57.29 0.078 7.14 11.15 10.14
9/24/2021 2:15:00 PM 14.16 57.488 0.079 7.14 11.32 10.12
9/24/2021 2:30:00 PM 14.24 57.632 0.079 7.13 11.37 10.1
9/24/2021 2:45:00 PM 14.31 57.758 0.078 7.11 11.38 10.08
9/24/2021 3:00:00 PM 14.39 57.902 0.078 7.13 11.08 10.05
9/24/2021 3:15:00 PM 14.46 58.028 0.079 7.15 10.77 10.03
9/24/2021 3:30:00 PM 14.5 58.1 0.079 7.15 10.92 10
9/24/2021 3:45:00 PM 14.59 58.262 0.079 7.13 11.13 9.99
9/24/2021 4:00:00 PM 14.67 58.406 0.079 7.15 10.98 9.97
9/24/2021 4:15:00 PM 14.7 58.46 0.079 7.15 10.92 9.96
9/24/2021 4:30:00 PM 14.75 58.55 0.079 7.14 10.95 9.93
9/24/2021 4:45:00 PM 14.8 58.64 0.079 7.14 10.87 9.92
9/24/2021 5:00:00 PM 14.83 58.694 0.079 7.14 10.68 9.89
9/24/2021 5:15:00 PM 14.86 58.748 0.079 7.14 10.83 9.88
9/24/2021 5:30:00 PM 14.88 58.784 0.079 7.14 10.87 9.86
9/24/2021 5:45:00 PM 14.88 58.784 0.079 7.12 10.61 9.84
9/24/2021 6:00:00 PM 14.88 58.784 0.079 7.12 10.84 9.83
9/24/2021 6:15:00 PM 14.88 58.784 0.079 7.14 10.6 9.82
9/24/2021 6:30:00 PM 14.87 58.766 0.079 7.08 10.64 9.82
9/24/2021 6:45:00 PM 14.85 58.73 0.079 7.1 10.57 9.8
9/24/2021 7:00:00 PM 14.83 58.694 0.079 7.11 10.55 9.79
9/24/2021 7:15:00 PM 14.8 58.64 0.079 7.08 10.67 9.79
9/24/2021 7:30:00 PM 14.78 58.604 0.079 7.09 10.22 9.78
9/24/2021 7:45:00 PM 14.75 58.55 0.079 7.1 10.63 9.78
9/24/2021 8:00:00 PM 14.71 58.478 0.079 7.08 10.53 9.78
9/24/2021 8:15:00 PM 14.68 58.424 0.079 7.08 10.7 9.78
9/24/2021 8:30:00 PM 14.64 58.352 0.079 7.07 10.68 9.78
9/24/2021 8:45:00 PM 14.6 58.28 0.08 7.07 10.81 9.79
9/24/2021 9:00:00 PM 14.56 58.208 0.08 7.07 10.44 9.79
9/24/2021 9:15:00 PM 14.52 58.136 0.079 7.07 10.5 9.81
9/24/2021 9:30:00 PM 14.48 58.064 0.08 7.06 10.34 9.81
9/24/2021 9:45:00 PM 14.44 57.992 0.08 7.09 10.29 9.82
9/24/2021 10:00:00 PM 14.4 57.92 0.08 7.06 10.22 9.83
9/24/2021 10:15:00 PM 14.35 57.83 0.08 7.09 10.04 9.84
9/24/2021 10:30:00 PM 14.31 57.758 0.08 7.08 10.16 9.85
9/24/2021 10:45:00 PM 14.26 57.668 0.08 7.09 10.4 9.86
9/24/2021 11:00:00 PM 14.21 57.578 0.08 7.09 10.08 9.87
9/24/2021 11:15:00 PM 14.16 57.488 0.08 7.07 10.14 9.88
9/24/2021 11:30:00 PM 14.11 57.398 0.08 7.07 9.75 9.89
9/24/2021 11:45:00 PM 14.06 57.308 0.08 7.06 10.11 9.91
9/25/2021 12:00:00 AM 14.01 57.218 0.08 7.05 9.92 9.92
9/25/2021 12:15:00 AM 13.96 57.128 0.08 7.08 9.8 9.93
9/25/2021 12:30:00 AM 13.91 57.038 0.08 7.07 9.98 9.94
9/25/2021 12:45:00 AM 13.85 56.93 0.08 7.04 9.96 9.96
9/25/2021 1:00:00 AM 13.8 56.84 0.08 7.08 9.61 9.97
9/25/2021 1:15:00 AM 13.76 56.768 0.08 7.08 9.67 9.98
9/25/2021 1:30:00 AM 13.71 56.678 0.08 7.04 9.51 9.99
9/25/2021 1:45:00 AM 13.66 56.588 0.08 7.08 9.16 10.01
9/25/2021 2:00:00 AM 13.61 56.498 0.08 7.08 9.34 10.02
9/25/2021 2:15:00 AM 13.56 56.408 0.08 7.02 9.2 10.03
9/25/2021 2:30:00 AM 13.51 56.318 0.08 7.08 9.24 10.04
9/25/2021 2:45:00 AM 13.46 56.228 0.08 7.07 9.21 10.05
9/25/2021 3:00:00 AM 13.41 56.138 0.08 7.09 9.02 10.07
9/25/2021 3:15:00 AM 13.37 56.066 0.081 7.02 8.77 10.08
9/25/2021 3:30:00 AM 13.32 55.976 0.08 7.09 8.7 10.09
9/25/2021 3:45:00 AM 13.26 55.868 0.081 7.07 8.62 10.11
9/25/2021 4:00:00 AM 13.21 55.778 0.081 7.05 8.77 10.12
9/25/2021 4:15:00 AM 13.17 55.706 0.081 7.06 8.93 10.13
9/25/2021 4:30:00 AM 13.11 55.598 0.081 7.08 8.93 10.14
9/25/2021 4:45:00 AM 13.06 55.508 0.081 7.04 8.54 10.15
9/25/2021 5:00:00 AM 13 55.4 0.081 7.08 8.19 10.17
9/25/2021 5:15:00 AM 12.97 55.346 0.081 7.01 8.45 10.17
9/25/2021 5:30:00 AM 12.93 55.274 0.081 7.05 8.54 10.19
9/25/2021 5:45:00 AM 12.89 55.202 0.081 7.05 8.06 10.19
9/25/2021 6:00:00 AM 12.85 55.13 0.081 7.06 8.27 10.21
9/25/2021 6:15:00 AM 12.83 55.094 0.081 7.05 8.21 10.21
9/25/2021 6:30:00 AM 12.8 55.04 0.081 7.08 8.11 10.22
9/25/2021 6:45:00 AM 12.77 54.986 0.081 7.03 7.98 10.23
9/25/2021 7:00:00 AM 12.73 54.914 0.081 7.07 7.85 10.24
9/25/2021 7:15:00 AM 12.69 54.842 0.081 7.04 7.86 10.25
9/25/2021 7:30:00 AM 12.66 54.788 0.081 7.09 7.93 10.26
9/25/2021 7:45:00 AM 12.63 54.734 0.081 7.02 7.46 10.27
9/25/2021 8:00:00 AM 12.61 54.698 0.081 7.05 7.35 10.28
9/25/2021 8:15:00 AM 12.59 54.662 0.082 7.09 7.33 10.3
9/25/2021 8:30:00 AM 12.58 54.644 0.082 7.09 7.31 10.31
9/25/2021 8:45:00 AM 12.57 54.626 0.082 7.02 7.14 10.33
9/25/2021 9:00:00 AM 12.56 54.608 0.082 7.09 6.9 10.34
9/25/2021 9:15:00 AM 12.56 54.608 0.082 7.09 6.89 10.36
9/25/2021 9:30:00 AM 12.56 54.608 0.082 7.09 6.66 10.38
9/25/2021 9:45:00 AM 12.55 54.59 0.082 7.09 6.59 10.39
9/25/2021 10:00:00 AM 12.56 54.608 0.082 7.1 6.3 10.4
9/25/2021 10:15:00 AM 12.56 54.608 0.082 7.1 6.14 10.41
9/25/2021 10:30:00 AM 12.59 54.662 0.082 7.1 6.22 10.43
9/25/2021 10:45:00 AM 12.63 54.734 0.082 7.11 6.05 10.44
9/25/2021 11:00:00 AM 12.7 54.86 0.082 7.12 6.24 10.45
9/25/2021 11:15:00 AM 12.8 55.04 0.082 7.12 5.97 10.45
9/25/2021 11:30:00 AM 12.86 55.148 0.082 7.12 5.98 10.45
9/25/2021 11:45:00 AM 12.94 55.292 0.082 7.12 5.89 10.44
9/25/2021 12:00:00 PM 13.04 55.472 0.082 7.13 5.62 10.42
9/25/2021 12:15:00 PM 13.14 55.652 0.082 7.12 6.03 10.41
9/25/2021 12:30:00 PM 13.24 55.832 0.082 7.13 6.08 10.39
9/25/2021 12:45:00 PM 13.35 56.03 0.082 7.13 5.83 10.37
9/25/2021 1:00:00 PM 13.45 56.21 0.082 7.13 5.7 10.35
9/25/2021 1:15:00 PM 13.53 56.354 0.082 7.13 5.5 10.33
9/25/2021 1:30:00 PM 13.6 56.48 0.082 7.14 5.56 10.32
9/25/2021 1:45:00 PM 13.69 56.642 0.082 7.15 5.81 10.31
9/25/2021 2:00:00 PM 13.76 56.768 0.082 7.08 5.51 10.29
9/25/2021 2:15:00 PM 13.84 56.912 0.082 7.16 5.55 10.27
9/25/2021 2:30:00 PM 13.93 57.074 0.082 7.1 5.43 10.25
9/25/2021 2:45:00 PM 14.02 57.236 0.082 7.15 5.59 10.23
9/25/2021 3:00:00 PM 14.12 57.416 0.082 7.14 5.27 10.2
9/25/2021 3:15:00 PM 14.18 57.524 0.082 7.15 5.43 10.18
9/25/2021 3:30:00 PM 14.23 57.614 0.082 7.16 5.57 10.15
9/25/2021 3:45:00 PM 14.28 57.704 0.082 7.15 5.73 10.12
9/25/2021 4:00:00 PM 14.34 57.812 0.082 7.16 5.36 10.11
9/25/2021 4:15:00 PM 14.41 57.938 0.082 7.16 5.97 10.08
9/25/2021 4:30:00 PM 14.47 58.046 0.082 7.16 5.6 10.06
9/25/2021 4:45:00 PM 14.53 58.154 0.082 7.11 5.38 10.04
9/25/2021 5:00:00 PM 14.61 58.298 0.082 7.16 5.52 10.02
9/25/2021 5:15:00 PM 14.66 58.388 0.082 7.1 5.75 9.99
9/25/2021 5:30:00 PM 14.69 58.442 0.082 7.14 5.53 9.96
9/25/2021 5:45:00 PM 14.72 58.496 0.082 7.15 5.45 9.93
9/25/2021 6:00:00 PM 14.74 58.532 0.082 7.14 5.77 9.9
9/25/2021 6:15:00 PM 14.75 58.55 0.082 7.09 5.62 9.88
9/25/2021 6:30:00 PM 14.76 58.568 0.082 7.11 5.8 9.86
9/25/2021 6:45:00 PM 14.78 58.604 0.083 7.13 5.67 9.84
9/25/2021 7:00:00 PM 14.79 58.622 0.083 7.13 5.81 9.82
9/25/2021 7:15:00 PM 14.78 58.604 0.082 7.07 5.54 9.8
9/25/2021 7:30:00 PM 14.77 58.586 0.083 7.12 5.64 9.79
9/25/2021 7:45:00 PM 14.75 58.55 0.083 7.11 5.73 9.77
9/25/2021 8:00:00 PM 14.74 58.532 0.083 7.11 5.88 9.76
9/25/2021 8:15:00 PM 14.72 58.496 0.083 7.06 5.89 9.75
9/25/2021 8:30:00 PM 14.7 58.46 0.083 7.1 6.14 9.75
9/25/2021 8:45:00 PM 14.7 58.46 0.083 7.08 6.03 9.73
9/25/2021 9:00:00 PM 14.68 58.424 0.083 7.1 6.2 9.75
9/25/2021 9:15:00 PM 14.67 58.406 0.083 7.08 5.97 9.75
9/25/2021 9:30:00 PM 14.66 58.388 0.083 7.06 6.03 9.75
9/25/2021 9:45:00 PM 14.64 58.352 0.083 7.07 6.01 9.74
9/25/2021 10:00:00 PM 14.63 58.334 0.083 7.09 5.98 9.74
9/25/2021 10:15:00 PM 14.61 58.298 0.083 7.1 6.16 9.75
9/25/2021 10:30:00 PM 14.6 58.28 0.083 7.03 6.48 9.75
9/25/2021 10:45:00 PM 14.58 58.244 0.084 7.09 6.1 9.75
9/25/2021 11:00:00 PM 14.56 58.208 0.083 7.09 5.91 9.76
9/25/2021 11:15:00 PM 14.55 58.19 0.084 7.03 5.94 9.77
9/25/2021 11:30:00 PM 14.53 58.154 0.084 7.09 6.04 9.76
9/25/2021 11:45:00 PM 14.51 58.118 0.084 7.08 5.88 9.77
9/26/2021 12:00:00 AM 14.49 58.082 0.084 7.1 5.89 9.79
9/26/2021 12:15:00 AM 14.48 58.064 0.084 7.1 5.93 9.78
9/26/2021 12:30:00 AM 14.46 58.028 0.084 7.1 5.83 9.79
9/26/2021 12:45:00 AM 14.45 58.01 0.084 7.07 5.97 9.79
9/26/2021 1:00:00 AM 14.43 57.974 0.084 7.09 5.6 9.79
9/26/2021 1:15:00 AM 14.4 57.92 0.084 7.06 5.92 9.81
9/26/2021 1:30:00 AM 14.37 57.866 0.084 7.1 6.02 9.81
9/26/2021 1:45:00 AM 14.33 57.794 0.084 7.04 5.7 9.81
9/26/2021 2:00:00 AM 14.29 57.722 0.084 7.09 6.82 9.82
9/26/2021 2:15:00 AM 14.25 57.65 0.084 7.09 5.99 9.84
9/26/2021 2:30:00 AM 14.21 57.578 0.084 7.09 5.76 9.84
9/26/2021 2:45:00 AM 14.16 57.488 0.084 7.09 5.58 9.85
9/26/2021 3:00:00 AM 14.12 57.416 0.084 7.08 5.75 9.86
9/26/2021 3:15:00 AM 14.07 57.326 0.084 7.1 5.78 9.87
9/26/2021 3:30:00 AM 14.02 57.236 0.084 7.1 5.97 9.87
9/26/2021 3:45:00 AM 13.98 57.164 0.084 7.03 5.84 9.89
9/26/2021 4:00:00 AM 13.93 57.074 0.085 7.1 5.87 9.89
9/26/2021 4:15:00 AM 13.88 56.984 0.085 7.1 5.44 9.9
9/26/2021 4:30:00 AM 13.83 56.894 0.085 7.03 5.63 9.92
9/26/2021 4:45:00 AM 13.78 56.804 0.085 7.1 5.28 9.93
9/26/2021 5:00:00 AM 13.73 56.714 0.085 7.1 5.34 9.94
9/26/2021 5:15:00 AM 13.68 56.624 0.085 7.07 5.44 9.96
9/26/2021 5:30:00 AM 13.62 56.516 0.085 7.09 5.17 9.96
9/26/2021 5:45:00 AM 13.57 56.426 0.085 7.09 5.25 9.98
9/26/2021 6:00:00 AM 13.52 56.336 0.085 7.09 5.62 9.99
9/26/2021 6:15:00 AM 13.48 56.264 0.085 7.09 5.5 10
9/26/2021 6:30:00 AM 13.44 56.192 0.085 7.09 5.18 10.02
9/26/2021 6:45:00 AM 13.4 56.12 0.085 7.09 5.28 10.03
9/26/2021 7:00:00 AM 13.36 56.048 0.085 7.08 5.17 10.04
9/26/2021 7:15:00 AM 13.32 55.976 0.085 7.04 4.99 10.05
9/26/2021 7:30:00 AM 13.27 55.886 0.085 7.09 4.74 10.06
9/26/2021 7:45:00 AM 13.23 55.814 0.085 7.09 5.08 10.08
9/26/2021 8:00:00 AM 13.19 55.742 0.085 7.03 4.77 10.09
9/26/2021 8:15:00 AM 13.16 55.688 0.085 7.1 4.63 10.12
9/26/2021 8:30:00 AM 13.13 55.634 0.085 7.09 4.55 10.13
9/26/2021 8:45:00 AM 13.11 55.598 0.085 7.09 4.58 10.15
9/26/2021 9:00:00 AM 13.1 55.58 0.085 7.1 15.66 10.16
9/26/2021 9:15:00 AM 13.12 55.616 0.085 7.04 4.37 10.18
9/26/2021 9:30:00 AM 13.11 55.598 0.085 7.1 4.3 10.21
9/26/2021 9:45:00 AM 13.13 55.634 0.085 7.09 4.35 10.22
9/26/2021 10:00:00 AM 13.18 55.724 0.085 7.1 4.34 10.24
9/26/2021 10:15:00 AM 13.22 55.796 0.085 7.09 4.33 10.25
9/26/2021 10:30:00 AM 13.27 55.886 0.085 7.09 4.04 10.26
9/26/2021 10:45:00 AM 13.34 56.012 0.086 7.1 3.89 10.26
9/26/2021 11:00:00 AM 13.4 56.12 0.085 7.13 4.11 10.27
9/26/2021 11:15:00 AM 13.47 56.246 0.085 7.14 3.91 10.27
9/26/2021 11:30:00 AM 13.54 56.372 0.085 7.12 3.85 10.27
9/26/2021 11:45:00 AM 13.62 56.516 0.085 7.11 3.76 10.28
9/26/2021 12:00:00 PM 13.7 56.66 0.085 7.14 3.65 10.27
9/26/2021 12:15:00 PM 13.78 56.804 0.085 7.15 3.55 10.27
9/26/2021 12:30:00 PM 13.86 56.948 0.085 7.13 3.89 10.26
9/26/2021 12:45:00 PM 13.95 57.11 0.085 7.16 3.77 10.25
9/26/2021 1:00:00 PM 14.04 57.272 0.085 7.1 3.66 10.24
9/26/2021 1:15:00 PM 14.13 57.434 0.085 7.16 3.7 10.23
9/26/2021 1:30:00 PM 14.19 57.542 0.085 7.16 3.5 10.21
9/26/2021 1:45:00 PM 14.25 57.65 0.085 7.17 3.63 10.2
9/26/2021 2:00:00 PM 14.31 57.758 0.085 7.1 3.64 10.18
9/26/2021 2:15:00 PM 14.38 57.884 0.085 7.17 3.52 10.17
9/26/2021 2:30:00 PM 14.44 57.992 0.085 7.15 3.66 10.15
9/26/2021 2:45:00 PM 14.49 58.082 0.085 7.17 3.66 10.14
9/26/2021 3:00:00 PM 14.53 58.154 0.085 7.17 3.45 10.12
9/26/2021 3:15:00 PM 14.59 58.262 0.085 7.13 3.41 10.1
9/26/2021 3:30:00 PM 14.62 58.316 0.085 7.17 3.5 10.07
9/26/2021 3:45:00 PM 14.68 58.424 0.085 7.16 3.57 10.06
9/26/2021 4:00:00 PM 14.69 58.442 0.085 7.13 3.56 10.03
9/26/2021 4:15:00 PM 14.74 58.532 0.085 7.17 3.59 10
9/26/2021 4:30:00 PM 14.76 58.568 0.085 7.16 3.71 9.98
9/26/2021 4:45:00 PM 14.81 58.658 0.085 7.13 3.55 9.97
9/26/2021 5:00:00 PM 14.85 58.73 0.085 7.17 3.53 9.96
9/26/2021 5:15:00 PM 14.87 58.766 0.085 7.17 3.51 9.93
9/26/2021 5:30:00 PM 14.89 58.802 0.085 7.16 3.59 9.9
9/26/2021 5:45:00 PM 14.92 58.856 0.085 7.11 3.65 9.87
9/26/2021 6:00:00 PM 14.92 58.856 0.085 7.14 3.77 9.85
9/26/2021 6:15:00 PM 14.92 58.856 0.085 7.15 3.67 9.84
9/26/2021 6:30:00 PM 14.92 58.856 0.085 7.15 3.62 9.82
9/26/2021 6:45:00 PM 14.92 58.856 0.085 7.14 3.52 9.81
9/26/2021 7:00:00 PM 14.89 58.802 0.085 7.14 3.61 9.8
9/26/2021 7:15:00 PM 14.87 58.766 0.085 7.13 3.77 9.78
9/26/2021 7:30:00 PM 14.84 58.712 0.085 7.13 3.56 9.76
9/26/2021 7:45:00 PM 14.81 58.658 0.085 7.13 3.83 9.74
9/26/2021 8:00:00 PM 14.79 58.622 0.086 7.11 3.71 9.73
9/26/2021 8:15:00 PM 14.75 58.55 0.085 7.11 3.91 9.73
9/26/2021 8:30:00 PM 14.7 58.46 0.086 7.11 3.85 9.72
9/26/2021 8:45:00 PM 14.65 58.37 0.086 7.1 3.91 9.73
9/26/2021 9:00:00 PM 14.6 58.28 0.086 7.09 3.91 9.73
9/26/2021 9:15:00 PM 14.55 58.19 0.086 7.11 3.98 9.74
9/26/2021 9:30:00 PM 14.5 58.1 0.086 7.11 3.95 9.75
9/26/2021 9:45:00 PM 14.46 58.028 0.086 7.08 3.91 9.75
9/26/2021 10:00:00 PM 14.41 57.938 0.086 7.1 3.94 9.78
9/26/2021 10:15:00 PM 14.36 57.848 0.086 7.11 3.88 9.78
9/26/2021 10:30:00 PM 14.32 57.776 0.086 7.1 4.02 9.79
9/26/2021 10:45:00 PM 14.27 57.686 0.086 7.07 3.76 9.8
9/26/2021 11:00:00 PM 14.22 57.596 0.086 7.1 4.1 9.8
9/26/2021 11:15:00 PM 14.17 57.506 0.086 7.11 4.44 9.82
9/26/2021 11:30:00 PM 14.12 57.416 0.086 7.09 4.18 9.84
9/26/2021 11:45:00 PM 14.06 57.308 0.086 7.07 4.14 9.84
9/27/2021 12:00:00 AM 14.01 57.218 0.086 7.08 4.11 9.86
9/27/2021 12:15:00 AM 13.96 57.128 0.086 7.1 3.9 9.87
9/27/2021 12:30:00 AM 13.91 57.038 0.086 7.1 3.98 9.89
9/27/2021 12:45:00 AM 13.86 56.948 0.086 7.1 4.07 9.9
9/27/2021 1:00:00 AM 13.8 56.84 0.086 7.1 4.05 9.92
9/27/2021 1:15:00 AM 13.75 56.75 0.086 7.04 3.93 9.93
9/27/2021 1:30:00 AM 13.69 56.642 0.086 7.1 3.94 9.94
9/27/2021 1:45:00 AM 13.65 56.57 0.086 7.04 3.9 9.95
9/27/2021 2:00:00 AM 13.6 56.48 0.086 7.1 3.91 9.97
9/27/2021 2:15:00 AM 13.56 56.408 0.086 7.09 4.01 9.97
9/27/2021 2:30:00 AM 13.51 56.318 0.086 7.09 3.75 9.99
9/27/2021 2:45:00 AM 13.46 56.228 0.086 7.1 3.71 10
9/27/2021 3:00:00 AM 13.42 56.156 0.087 7.1 3.82 10.01
9/27/2021 3:15:00 AM 13.38 56.084 0.086 7.09 3.79 10.02
9/27/2021 3:30:00 AM 13.35 56.03 0.087 7.09 3.82 10.02
9/27/2021 3:45:00 AM 13.31 55.958 0.087 7.05 3.99 10.04
9/27/2021 4:00:00 AM 13.28 55.904 0.087 7.09 3.69 10.04
9/27/2021 4:15:00 AM 13.25 55.85 0.087 7.1 3.55 10.06
9/27/2021 4:30:00 AM 13.23 55.814 0.087 7.1 3.66 10.06
9/27/2021 4:45:00 AM 13.21 55.778 0.087 7.08 3.78 10.06
9/27/2021 5:00:00 AM 13.2 55.76 0.087 7.08 3.95 10.07
9/27/2021 5:15:00 AM 13.2 55.76 0.087 7.1 3.49 10.07
9/27/2021 5:30:00 AM 13.19 55.742 0.087 7.08 3.48 10.08
9/27/2021 5:45:00 AM 13.18 55.724 0.087 7.1 3.71 10.08
9/27/2021 6:00:00 AM 13.17 55.706 0.087 7.1 3.68 10.09
9/27/2021 6:15:00 AM 13.16 55.688 0.087 7.09 3.51 10.1
9/27/2021 6:30:00 AM 13.16 55.688 0.087 7.1 3.72 10.09
9/27/2021 6:45:00 AM 13.15 55.67 0.087 7.09 3.67 10.1
9/27/2021 7:00:00 AM 13.15 55.67 0.087 7.1 3.4 10.1
9/27/2021 7:15:00 AM 13.14 55.652 0.087 7.1 3.35 10.1
9/27/2021 7:30:00 AM 13.13 55.634 0.087 7.1 3.76 10.11
9/27/2021 7:45:00 AM 13.13 55.634 0.087 7.05 3.44 10.11
9/27/2021 8:00:00 AM 13.13 55.634 0.087 7.09 3.53 10.12
9/27/2021 8:15:00 AM 13.14 55.652 0.087 7.08 3.32 10.12
9/27/2021 8:30:00 AM 13.16 55.688 0.087 7.1 3.43 10.14
9/27/2021 8:45:00 AM 13.18 55.724 0.087 7.09 3.43 10.16
9/27/2021 9:00:00 AM 13.22 55.796 0.087 7.11 3.12 10.17
9/27/2021 9:15:00 AM 13.29 55.922 0.087 7.08 3.12 10.19
9/27/2021 9:30:00 AM 13.33 55.994 0.087 7.13 3.1 10.2
9/27/2021 9:45:00 AM 13.39 56.102 0.087 7.09 3.15 10.22
9/27/2021 10:00:00 AM 13.47 56.246 0.087 7.14 3.14 10.23
9/27/2021 10:15:00 AM 13.59 56.462 0.087 7.15 3.07 10.24
9/27/2021 10:30:00 AM 13.69 56.642 0.087 7.15 3.06 10.24
9/27/2021 10:45:00 AM 13.82 56.876 0.087 7.15 2.95 10.24
9/27/2021 11:00:00 AM 13.92 57.056 0.087 7.14 3.06 10.24
9/27/2021 11:15:00 AM 14.02 57.236 0.087 7.16 2.93 10.23
9/27/2021 11:30:00 AM 14.14 57.452 0.087 7.19 2.71 10.23
9/27/2021 11:45:00 AM 14.27 57.686 0.087 7.13 2.76 10.21
9/27/2021 12:00:00 PM 14.4 57.92 0.087 7.19 2.9 10.19
9/27/2021 12:15:00 PM 14.55 58.19 0.087 7.2 2.82 10.17
9/27/2021 12:30:00 PM 14.67 58.406 0.087 7.16 3 10.15
9/27/2021 12:45:00 PM 14.79 58.622 0.087 7.21 3.05 10.14
9/27/2021 1:00:00 PM 14.93 58.874 0.087 7.21 2.95 10.12
9/27/2021 1:15:00 PM 15.02 59.036 0.087 7.21 2.92 10.11
9/27/2021 1:30:00 PM 15.14 59.252 0.087 7.18 2.86 10.09
9/27/2021 1:45:00 PM 15.24 59.432 0.087 7.21 2.83 10.07
9/27/2021 2:00:00 PM 15.33 59.594 0.087 7.2 2.8 10.05
9/27/2021 2:15:00 PM 15.41 59.738 0.087 7.23 2.88 10.03
9/27/2021 2:30:00 PM 15.5 59.9 0.087 7.2 2.92 10
9/27/2021 2:45:00 PM 15.57 60.026 0.087 7.2 2.8 9.98
9/27/2021 3:00:00 PM 15.63 60.134 0.087 7.21 2.9 9.96
9/27/2021 3:15:00 PM 15.68 60.224 0.087 7.21 3 9.94
9/27/2021 3:30:00 PM 15.73 60.314 0.087 7.22 2.82 9.91
9/27/2021 3:45:00 PM 15.78 60.404 0.087 7.22 2.81 9.89
9/27/2021 4:00:00 PM 15.81 60.458 0.087 7.23 2.83 9.87
9/27/2021 4:15:00 PM 15.85 60.53 0.087 7.23 2.96 9.84
9/27/2021 4:30:00 PM 15.89 60.602 0.087 7.23 2.86 9.81
9/27/2021 4:45:00 PM 15.93 60.674 0.087 7.21 3.04 9.78
9/27/2021 5:00:00 PM 15.97 60.746 0.087 7.22 2.91 9.75
9/27/2021 5:15:00 PM 16.01 60.818 0.087 7.22 2.86 9.71
9/27/2021 5:30:00 PM 16.03 60.854 0.087 7.16 2.92 9.68
9/27/2021 5:45:00 PM 16.04 60.872 0.087 7.21 2.69 9.66
9/27/2021 6:00:00 PM 16.05 60.89 0.087 7.2 2.91 9.63
9/27/2021 6:15:00 PM 16.05 60.89 0.087 7.16 2.91 9.6
9/27/2021 6:30:00 PM 16.05 60.89 0.087 7.19 2.75 9.57
9/27/2021 6:45:00 PM 16.04 60.872 0.087 7.17 2.89 9.54
9/27/2021 7:00:00 PM 16.02 60.836 0.087 7.17 2.79 9.52
9/27/2021 7:15:00 PM 16.02 60.836 0.087 7.14 2.97 9.5
9/27/2021 7:30:00 PM 16 60.8 0.087 7.14 2.92 9.48
9/27/2021 7:45:00 PM 15.99 60.782 0.087 7.16 3.08 9.45
9/27/2021 8:00:00 PM 15.98 60.764 0.088 7.14 3.06 9.43
9/27/2021 8:15:00 PM 15.96 60.728 0.087 7.14 3.13 9.43
9/27/2021 8:30:00 PM 15.94 60.692 0.088 7.13 3.1 9.41
9/27/2021 8:45:00 PM 15.92 60.656 0.088 7.13 3.1 9.41
9/27/2021 9:00:00 PM 15.9 60.62 0.088 7.11 3.25 9.41
9/27/2021 9:15:00 PM 15.87 60.566 0.088 7.12 3.69 9.4
9/27/2021 9:30:00 PM 15.84 60.512 0.088 7.12 3.34 9.4
9/27/2021 9:45:00 PM 15.82 60.476 0.088 7.11 3.46 9.41
9/27/2021 10:00:00 PM 15.79 60.422 0.088 7.12 3.28 9.41
9/27/2021 10:15:00 PM 15.75 60.35 0.088 7.11 3.34 9.42
9/27/2021 10:30:00 PM 15.72 60.296 0.088 7.12 3.2 9.42
9/27/2021 10:45:00 PM 15.69 60.242 0.088 7.07 3.34 9.43
9/27/2021 11:00:00 PM 15.66 60.188 0.088 7.09 3.29 9.44
9/27/2021 11:15:00 PM 15.62 60.116 0.088 7.12 3.53 9.44
9/27/2021 11:30:00 PM 15.59 60.062 0.088 7.09 3.68 9.45
9/27/2021 11:45:00 PM 15.55 59.99 0.088 7.09 3.43 9.46
9/28/2021 12:00:00 AM 15.51 59.918 0.089 7.11 3.79 9.47
9/28/2021 12:15:00 AM 15.47 59.846 0.089 7.11 3.43 9.47
9/28/2021 12:30:00 AM 15.43 59.774 0.089 7.07 3.31 9.48
9/28/2021 12:45:00 AM 15.4 59.72 0.089 7.11 3.36 9.49
9/28/2021 1:00:00 AM 15.37 59.666 0.089 7.12 3.76 9.5
9/28/2021 1:15:00 AM 15.33 59.594 0.089 7.12 3.38 9.51
9/28/2021 1:30:00 AM 15.31 59.558 0.089 7.11 3.12 9.52
9/28/2021 1:45:00 AM 15.27 59.486 0.089 7.11 3.37 9.52
9/28/2021 2:00:00 AM 15.24 59.432 0.089 7.07 3.47 9.54
9/28/2021 2:15:00 AM 15.22 59.396 0.089 7.11 3.35 9.54
9/28/2021 2:30:00 AM 15.19 59.342 0.089 7.07 3.33 9.54
9/28/2021 2:45:00 AM 15.17 59.306 0.089 7.08 3.41 9.56
9/28/2021 3:00:00 AM 15.14 59.252 0.089 7.11 3.38 9.56
9/28/2021 3:15:00 AM 15.12 59.216 0.089 7.11 3.33 9.56
9/28/2021 3:30:00 AM 15.1 59.18 0.089 7.11 3.33 9.56
9/28/2021 3:45:00 AM 15.07 59.126 0.089 7.07 3.55 9.58
9/28/2021 4:00:00 AM 15.05 59.09 0.089 7.11 4.12 9.58
9/28/2021 4:15:00 AM 15.03 59.054 0.089 7.1 3.28 9.58
9/28/2021 4:30:00 AM 15 59 0.089 7.09 3.29 9.59
9/28/2021 4:45:00 AM 14.98 58.964 0.089 7.11 3.23 9.59
9/28/2021 5:00:00 AM 14.96 58.928 0.089 7.11 3.2 9.6
9/28/2021 5:15:00 AM 14.93 58.874 0.089 7.09 3.5 9.6
9/28/2021 5:30:00 AM 14.91 58.838 0.089 7.1 3.31 9.6
9/28/2021 5:45:00 AM 14.89 58.802 0.089 7.11 3.28 9.61
9/28/2021 6:00:00 AM 14.87 58.766 0.089 7.11 3.29 9.62
9/28/2021 6:15:00 AM 14.86 58.748 0.089 7.1 3.3 9.62
9/28/2021 6:30:00 AM 14.84 58.712 0.089 7.11 2.97 9.63
9/28/2021 6:45:00 AM 14.83 58.694 0.089 7.1 3.16 9.63
9/28/2021 7:00:00 AM 14.82 58.676 0.089 7.1 3.25 9.63
9/28/2021 7:15:00 AM 14.81 58.658 0.089 7.1 2.94 9.64
9/28/2021 7:30:00 AM 14.83 58.694 0.089 7.08 3.32 9.65
9/28/2021 7:45:00 AM 14.85 58.73 0.089 7.09 3.34 9.63
9/28/2021 8:00:00 AM 14.84 58.712 0.089 7.11 3.34 9.63
9/28/2021 8:15:00 AM 14.85 58.73 0.089 7.12 3.27 9.64
9/28/2021 8:30:00 AM 14.85 58.73 0.089 7.12 3.19 9.64
9/28/2021 8:45:00 AM 14.85 58.73 0.089 7.12 3.05 9.64
9/28/2021 9:00:00 AM 14.86 58.748 0.089 7.1 3.27 9.64
9/28/2021 9:15:00 AM 14.86 58.748 0.09 7.13 3.03 9.64
9/28/2021 9:30:00 AM 14.87 58.766 0.09 7.1 3.02 9.66
9/28/2021 9:45:00 AM 14.87 58.766 0.09 7.14 2.99 9.68
9/28/2021 10:00:00 AM 14.88 58.784 0.09 7.14 3.08 9.69
9/28/2021 10:15:00 AM 14.89 58.802 0.09 7.12 3.14 9.69
9/28/2021 10:30:00 AM 14.9 58.82 0.09 7.15 2.94 9.7
9/28/2021 10:45:00 AM 14.92 58.856 0.09 7.11 2.84 9.72
9/28/2021 11:00:00 AM 14.93 58.874 0.09 7.15 2.74 9.72
9/28/2021 11:15:00 AM 14.95 58.91 0.09 7.14 2.94 9.73
9/28/2021 11:30:00 AM 14.96 58.928 0.09 7.16 2.74 9.74
9/28/2021 11:45:00 AM 14.98 58.964 0.09 7.16 2.72 9.75
9/28/2021 12:00:00 PM 15 59 0.09 7.17 2.8 9.77
9/28/2021 12:15:00 PM 15.03 59.054 0.09 7.14 2.8 9.77
9/28/2021 12:30:00 PM 15.06 59.108 0.09 7.18 2.7 9.79
9/28/2021 12:45:00 PM 15.1 59.18 0.09 7.18 2.63 9.81
9/28/2021 1:00:00 PM 15.16 59.288 0.09 7.19 2.73 9.84
9/28/2021 1:15:00 PM 15.3 59.54 0.09 7.2 2.67 9.88
9/28/2021 1:30:00 PM 15.45 59.81 0.09 7.21 2.72 9.9
9/28/2021 1:45:00 PM 15.49 59.882 0.09 7.21 2.65 9.9
9/28/2021 2:00:00 PM 15.55 59.99 0.09 7.22 2.77 9.88
9/28/2021 2:15:00 PM 15.64 60.152 0.09 7.23 2.47 9.87
9/28/2021 2:30:00 PM 15.77 60.386 0.09 7.23 2.66 9.86
9/28/2021 2:45:00 PM 15.95 60.71 0.09 7.23 2.62 9.85
9/28/2021 3:00:00 PM 16.08 60.944 0.09 7.24 2.51 9.84
9/28/2021 3:15:00 PM 16.17 61.106 0.09 7.24 2.58 9.82
9/28/2021 3:30:00 PM 16.18 61.124 0.09 7.2 2.56 9.8
9/28/2021 3:45:00 PM 16.18 61.124 0.09 7.25 2.62 9.79
9/28/2021 4:00:00 PM 16.18 61.124 0.09 7.24 2.63 9.77
9/28/2021 4:15:00 PM 16.26 61.268 0.09 7.25 2.57 9.76
9/28/2021 4:30:00 PM 16.35 61.43 0.09 7.19 2.55 9.74
9/28/2021 4:45:00 PM 16.4 61.52 0.09 7.25 2.51 9.71
9/28/2021 5:00:00 PM 16.42 61.556 0.09 7.24 2.49 9.69
9/28/2021 5:15:00 PM 16.42 61.556 0.09 7.25 2.64 9.67
9/28/2021 5:30:00 PM 16.39 61.502 0.09 7.23 2.79 9.65
9/28/2021 5:45:00 PM 16.37 61.466 0.09 7.22 2.56 9.63
9/28/2021 6:00:00 PM 16.37 61.466 0.09 7.22 2.63 9.58
9/28/2021 6:15:00 PM 16.37 61.466 0.09 7.24 2.68 9.56
9/28/2021 6:30:00 PM 16.37 61.466 0.09 7.23 2.66 9.53
9/28/2021 6:45:00 PM 16.34 61.412 0.091 7.2 2.54 9.5
9/28/2021 7:00:00 PM 16.3 61.34 0.091 7.19 2.71 9.47
9/28/2021 7:15:00 PM 16.26 61.268 0.091 7.2 2.79 9.44
9/28/2021 7:30:00 PM 16.2 61.16 0.091 7.17 2.69 9.44
9/28/2021 7:45:00 PM 16.14 61.052 0.091 7.18 2.79 9.42
9/28/2021 8:00:00 PM 16.09 60.962 0.091 7.18 2.8 9.41
9/28/2021 8:15:00 PM 16.03 60.854 0.091 7.18 2.91 9.41
9/28/2021 8:30:00 PM 15.98 60.764 0.091 7.15 3.08 9.41
9/28/2021 8:45:00 PM 15.93 60.674 0.091 7.16 2.86 9.41
9/28/2021 9:00:00 PM 15.88 60.584 0.091 7.17 3.12 9.4
9/28/2021 9:15:00 PM 15.83 60.494 0.091 7.17 2.93 9.41
9/28/2021 9:30:00 PM 15.79 60.422 0.091 7.12 3.01 9.41
9/28/2021 9:45:00 PM 15.73 60.314 0.091 7.16 3.03 9.43
9/28/2021 10:00:00 PM 15.68 60.224 0.092 7.16 3.04 9.44
9/28/2021 10:15:00 PM 15.62 60.116 0.091 7.13 3.12 9.45
9/28/2021 10:30:00 PM 15.56 60.008 0.091 7.16 3.07 9.47
9/28/2021 10:45:00 PM 15.51 59.918 0.092 7.16 3.29 9.47
9/28/2021 11:00:00 PM 15.46 59.828 0.092 7.16 3.1 9.49
9/28/2021 11:15:00 PM 15.4 59.72 0.092 7.15 2.98 9.5
9/28/2021 11:30:00 PM 15.35 59.63 0.092 7.15 3.39 9.51
9/28/2021 11:45:00 PM 15.31 59.558 0.092 7.15 3.06 9.52
9/29/2021 12:00:00 AM 15.27 59.486 0.092 7.16 2.84 9.53
9/29/2021 12:15:00 AM 15.22 59.396 0.092 7.16 3.05 9.55
9/29/2021 12:30:00 AM 15.18 59.324 0.092 7.14 3.2 9.56
9/29/2021 12:45:00 AM 15.12 59.216 0.092 7.16 3.13 9.57
9/29/2021 1:00:00 AM 15.08 59.144 0.092 7.16 3.23 9.59
9/29/2021 1:15:00 AM 15.03 59.054 0.092 7.12 3.03 9.6
9/29/2021 1:30:00 AM 14.98 58.964 0.092 7.14 3.2 9.61
9/29/2021 1:45:00 AM 14.94 58.892 0.092 7.16 3.08 9.63
9/29/2021 2:00:00 AM 14.89 58.802 0.092 7.16 3.06 9.64
9/29/2021 2:15:00 AM 14.84 58.712 0.092 7.16 3.09 9.65
9/29/2021 2:30:00 AM 14.79 58.622 0.092 7.16 3.15 9.65
9/29/2021 2:45:00 AM 14.73 58.514 0.092 7.16 3.15 9.68
9/29/2021 3:00:00 AM 14.68 58.424 0.092 7.11 2.92 9.68
9/29/2021 3:15:00 AM 14.62 58.316 0.092 7.16 3.06 9.7
9/29/2021 3:30:00 AM 14.56 58.208 0.092 7.16 3.04 9.71
9/29/2021 3:45:00 AM 14.5 58.1 0.092 7.17 3.17 9.73
9/29/2021 4:00:00 AM 14.45 58.01 0.092 7.11 3.01 9.73
9/29/2021 4:15:00 AM 14.39 57.902 0.092 7.16 2.99 9.75
9/29/2021 4:30:00 AM 14.32 57.776 0.092 7.12 3.04 9.76
9/29/2021 4:45:00 AM 14.27 57.686 0.092 7.16 3.02 9.77
9/29/2021 5:00:00 AM 14.21 57.578 0.092 7.16 3.08 9.79
9/29/2021 5:15:00 AM 14.16 57.488 0.092 7.16 2.86 9.81
9/29/2021 5:30:00 AM 14.11 57.398 0.092 7.16 2.87 9.82
9/29/2021 5:45:00 AM 14.05 57.29 0.092 7.16 2.98 9.84
9/29/2021 6:00:00 AM 14 57.2 0.092 7.17 2.92 9.85
9/29/2021 6:15:00 AM 13.94 57.092 0.092 7.17 2.89 9.87
9/29/2021 6:30:00 AM 13.88 56.984 0.092 7.14 2.97 9.88
9/29/2021 6:45:00 AM 13.83 56.894 0.092 7.13 3.01 9.89
9/29/2021 7:00:00 AM 13.77 56.786 0.092 7.16 2.98 9.9
9/29/2021 7:15:00 AM 13.72 56.696 0.092 7.16 2.82 9.93
9/29/2021 7:30:00 AM 13.66 56.588 0.092 7.17 2.95 9.95
9/29/2021 7:45:00 AM 13.62 56.516 0.092 7.16 2.83 9.97
9/29/2021 8:00:00 AM 13.57 56.426 0.092 7.17 2.81 9.99
9/29/2021 8:15:00 AM 13.54 56.372 0.092 7.16 2.8 10.03
9/29/2021 8:30:00 AM 13.51 56.318 0.092 7.17 2.72 10.05
9/29/2021 8:45:00 AM 13.51 56.318 0.092 7.17 2.69 10.08
9/29/2021 9:00:00 AM 13.5 56.3 0.092 7.17 2.71 10.11
9/29/2021 9:15:00 AM 13.51 56.318 0.092 7.13 2.74 10.14
9/29/2021 9:30:00 AM 13.49 56.282 0.092 7.19 2.61 10.18
9/29/2021 9:45:00 AM 13.5 56.3 0.092 7.14 2.69 10.2
9/29/2021 10:00:00 AM 13.53 56.354 0.092 7.2 2.67 10.23
9/29/2021 10:15:00 AM 13.58 56.444 0.092 7.21 2.68 10.26
9/29/2021 10:30:00 AM 13.63 56.534 0.092 7.16 2.58 10.27
9/29/2021 10:45:00 AM 13.69 56.642 0.092 7.23 2.49 10.29
9/29/2021 11:00:00 AM 13.77 56.786 0.092 7.23 2.56 10.3
9/29/2021 11:15:00 AM 13.85 56.93 0.092 7.23 2.54 10.31
9/29/2021 11:30:00 AM 13.94 57.092 0.092 7.2 2.57 10.32
9/29/2021 11:45:00 AM 14.04 57.272 0.092 7.24 2.6 10.31
9/29/2021 12:00:00 PM 14.15 57.47 0.093 7.25 2.36 10.32
9/29/2021 12:15:00 PM 14.25 57.65 0.092 7.23 2.47 10.31
9/29/2021 12:30:00 PM 14.37 57.866 0.092 7.26 2.37 10.31
9/29/2021 12:45:00 PM 14.47 58.046 0.092 7.26 2.45 10.3
9/29/2021 1:00:00 PM 14.54 58.172 0.092 7.27 2.46 10.29
9/29/2021 1:15:00 PM 14.69 58.442 0.092 7.28 2.44 10.28
9/29/2021 1:30:00 PM 14.75 58.55 0.092 7.28 2.34 10.26
9/29/2021 1:45:00 PM 14.84 58.712 0.092 7.24 2.43 10.25
9/29/2021 2:00:00 PM 14.92 58.856 0.092 7.29 2.47 10.24
9/29/2021 2:15:00 PM 15 59 0.092 7.26 2.36 10.23
9/29/2021 2:30:00 PM 14.99 58.982 0.092 7.3 2.42 10.21
9/29/2021 2:45:00 PM 15.03 59.054 0.092 7.29 2.37 10.21
9/29/2021 3:00:00 PM 15.16 59.288 0.092 7.3 2.39 10.21
9/29/2021 3:15:00 PM 15.24 59.432 0.092 7.29 2.43 10.19
9/29/2021 3:30:00 PM 15.27 59.486 0.092 7.3 2.43 10.17
9/29/2021 3:45:00 PM 15.27 59.486 0.092 7.31 2.48 10.16
9/29/2021 4:00:00 PM 15.25 59.45 0.092 7.3 2.38 10.13
9/29/2021 4:15:00 PM 15.25 59.45 0.092 7.3 2.56 10.11
9/29/2021 4:30:00 PM 15.26 59.468 0.092 7.3 2.54 10.08
9/29/2021 4:45:00 PM 15.3 59.54 0.092 7.3 2.37 10.04
9/29/2021 5:00:00 PM 15.32 59.576 0.092 7.29 2.44 10
9/29/2021 5:15:00 PM 15.33 59.594 0.092 7.28 2.48 9.96
9/29/2021 5:30:00 PM 15.31 59.558 0.092 7.28 2.47 9.92
9/29/2021 5:45:00 PM 15.29 59.522 0.092 7.27 2.56 9.89
9/29/2021 6:00:00 PM 15.27 59.486 0.092 7.23 2.42 9.87
9/29/2021 6:15:00 PM 15.24 59.432 0.092 7.26 2.37 9.85
9/29/2021 6:30:00 PM 15.21 59.378 0.092 7.26 2.43 9.82
9/29/2021 6:45:00 PM 15.16 59.288 0.092 7.24 2.42 9.81
9/29/2021 7:00:00 PM 15.08 59.144 0.092 7.25 2.69 9.79
9/29/2021 7:15:00 PM 15.02 59.036 0.092 7.24 2.54 9.77
9/29/2021 7:30:00 PM 14.95 58.91 0.092 7.18 2.57 9.76
9/29/2021 7:45:00 PM 14.89 58.802 0.092 7.22 2.73 9.75
9/29/2021 8:00:00 PM 14.83 58.694 0.092 7.21 2.62 9.74
9/29/2021 8:15:00 PM 14.78 58.604 0.092 7.2 2.82 9.73
9/29/2021 8:30:00 PM 14.73 58.514 0.092 7.18 2.77 9.72
9/29/2021 8:45:00 PM 14.69 58.442 0.092 7.2 3.06 9.72
9/29/2021 9:00:00 PM 14.66 58.388 0.092 7.19 2.8 9.71
9/29/2021 9:15:00 PM 14.62 58.316 0.092 7.19 2.85 9.71
9/29/2021 9:30:00 PM 14.59 58.262 0.093 7.12 2.71 9.72
9/29/2021 9:45:00 PM 14.54 58.172 0.093 7.19 2.65 9.73
9/29/2021 10:00:00 PM 14.5 58.1 0.093 7.18 2.73 9.73
9/29/2021 10:15:00 PM 14.45 58.01 0.093 7.14 2.73 9.73
9/29/2021 10:30:00 PM 14.4 57.92 0.093 7.19 3.01 9.75
9/29/2021 10:45:00 PM 14.36 57.848 0.093 7.12 2.84 9.76
9/29/2021 11:00:00 PM 14.3 57.74 0.093 7.17 2.72 9.77
9/29/2021 11:15:00 PM 14.25 57.65 0.093 7.15 2.81 9.78
9/29/2021 11:30:00 PM 14.19 57.542 0.093 7.16 2.87 9.8
9/29/2021 11:45:00 PM 14.13 57.434 0.093 7.18 2.86 9.81
9/30/2021 12:00:00 AM 14.08 57.344 0.093 7.16 2.87 9.82
9/30/2021 12:15:00 AM 14.01 57.218 0.093 7.18 2.71 9.84
9/30/2021 12:30:00 AM 13.95 57.11 0.093 7.17 2.69 9.85
9/30/2021 12:45:00 AM 13.89 57.002 0.093 7.12 2.78 9.86
9/30/2021 1:00:00 AM 13.83 56.894 0.093 7.17 2.66 9.88
9/30/2021 1:15:00 AM 13.76 56.768 0.093 7.17 2.92 9.89
9/30/2021 1:30:00 AM 13.71 56.678 0.093 7.16 2.94 9.91
9/30/2021 1:45:00 AM 13.65 56.57 0.093 7.17 2.84 9.92
9/30/2021 2:00:00 AM 13.59 56.462 0.093 7.12 2.92 9.93
9/30/2021 2:15:00 AM 13.53 56.354 0.093 7.15 3.25 9.96
9/30/2021 2:30:00 AM 13.47 56.246 0.093 7.14 2.67 9.97
9/30/2021 2:45:00 AM 13.41 56.138 0.093 7.17 2.68 9.99
9/30/2021 3:00:00 AM 13.36 56.048 0.093 7.17 2.69 10
9/30/2021 3:15:00 AM 13.31 55.958 0.093 7.17 2.78 10.02
9/30/2021 3:30:00 AM 13.26 55.868 0.093 7.17 2.62 10.03
9/30/2021 3:45:00 AM 13.2 55.76 0.093 7.16 2.75 10.05
9/30/2021 4:00:00 AM 13.15 55.67 0.093 7.18 2.76 10.07
9/30/2021 4:15:00 AM 13.1 55.58 0.093 7.12 2.96 10.07
9/30/2021 4:30:00 AM 13.05 55.49 0.093 7.17 2.69 10.09
9/30/2021 4:45:00 AM 13 55.4 0.093 7.17 2.72 10.1
9/30/2021 5:00:00 AM 12.95 55.31 0.093 7.13 2.8 10.11
9/30/2021 5:15:00 AM 12.89 55.202 0.093 7.15 2.67 10.13
9/30/2021 5:30:00 AM 12.84 55.112 0.093 7.16 3.24 10.14
9/30/2021 5:45:00 AM 12.79 55.022 0.094 7.07 2.75 10.15
9/30/2021 6:00:00 AM 12.73 54.914 0.093 7.13 2.75 10.17
9/30/2021 6:15:00 AM 12.68 54.824 0.093 7.15 2.71 10.19
9/30/2021 6:30:00 AM 12.63 54.734 0.093 7.15 2.81 10.2
9/30/2021 6:45:00 AM 12.57 54.626 0.093 7.1 2.61 10.22
9/30/2021 7:00:00 AM 12.51 54.518 0.093 7.16 2.81 10.23
9/30/2021 7:15:00 AM 12.45 54.41 0.093 7.16 2.62 10.25
9/30/2021 7:30:00 AM 12.4 54.32 0.093 7.11 2.68 10.27
9/30/2021 7:45:00 AM 12.35 54.23 0.093 7.16 2.47 10.3
9/30/2021 8:00:00 AM 12.3 54.14 0.093 7.17 2.65 10.31
9/30/2021 8:15:00 AM 12.26 54.068 0.093 7.17 2.65 10.35
9/30/2021 8:30:00 AM 12.24 54.032 0.093 7.17 2.55 10.38
9/30/2021 8:45:00 AM 12.22 53.996 0.093 7.18 2.35 10.41
9/30/2021 9:00:00 AM 12.21 53.978 0.093 7.18 2.41 10.46
9/30/2021 9:15:00 AM 12.2 53.96 0.093 7.19 2.39 10.49
9/30/2021 9:30:00 AM 12.21 53.978 0.093 7.2 2.43 10.54
9/30/2021 9:45:00 AM 12.23 54.014 0.093 7.21 2.5 10.58
9/30/2021 10:00:00 AM 12.27 54.086 0.093 7.19 2.44 10.62
9/30/2021 10:15:00 AM 12.31 54.158 0.093